<?xml version="1.0" encoding="UTF-8" standalone="no" ?>
<gpx xmlns="http://www.topografix.com/GPX/1/1" xmlns:xsi="http://www.w3.org/2001/XMLSchema-instance" xsi:schemaLocation="http://www.topografix.com/GPX/1/1 http://www.topografix.com/GPX/1/1/gpx.xsd" version="1.1" creator="VisuGPX - https://www.visugpx.com">
  <metadata>
    <name>Pareloup</name>
  </metadata>
  <trk>
    <name><![CDATA[Villefranche de Panat]]></name>
    <extensions>
      <line xmlns="http://www.topografix.com/GPX/gpx_style/0/2">
        <color>0000FF</color>
        <width>4</width>
      </line>
    </extensions>
    <trkseg>
      <trkpt lat="44.23765" lon="2.59892">
        <ele>774.96</ele>
        <time>2022-07-12T17:02:55Z</time>
        <extensions>
          <visugpx:TrkExtension xmlns:visugpx="https://www.visugpx.com/editgpx/">
            <visugpx:node>3</visugpx:node>
            </visugpx:TrkExtension>
        </extensions>
      </trkpt>
      <trkpt lat="44.23732" lon="2.59947">
        <ele>801.88</ele>
        <time>2022-07-13T05:35:13Z</time>
      </trkpt>
      <trkpt lat="44.23726" lon="2.59935">
        <ele>801.4</ele>
        <time>2022-07-13T05:35:22Z</time>
      </trkpt>
      <trkpt lat="44.23719" lon="2.59931">
        <ele>798.99</ele>
        <time>2022-07-13T05:35:29Z</time>
      </trkpt>
      <trkpt lat="44.2371" lon="2.59928">
        <ele>794.67</ele>
        <time>2022-07-13T05:35:37Z</time>
      </trkpt>
      <trkpt lat="44.23703" lon="2.59922">
        <ele>790.82</ele>
        <time>2022-07-13T05:35:45Z</time>
      </trkpt>
      <trkpt lat="44.23696" lon="2.59915">
        <ele>788.9</ele>
        <time>2022-07-13T05:35:53Z</time>
      </trkpt>
      <trkpt lat="44.23686" lon="2.59904">
        <ele>786.5</ele>
        <time>2022-07-13T05:36:04Z</time>
      </trkpt>
      <trkpt lat="44.23679" lon="2.59895">
        <ele>785.05</ele>
        <time>2022-07-13T05:36:12Z</time>
      </trkpt>
      <trkpt lat="44.23672" lon="2.59883">
        <ele>784.09</ele>
        <time>2022-07-13T05:36:20Z</time>
      </trkpt>
      <trkpt lat="44.23665" lon="2.59872">
        <ele>783.61</ele>
        <time>2022-07-13T05:36:28Z</time>
      </trkpt>
      <trkpt lat="44.23659" lon="2.59858">
        <ele>782.65</ele>
        <time>2022-07-13T05:36:39Z</time>
      </trkpt>
      <trkpt lat="44.23654" lon="2.59844">
        <ele>782.65</ele>
        <time>2022-07-13T05:36:49Z</time>
      </trkpt>
      <trkpt lat="44.23646" lon="2.59834">
        <ele>782.65</ele>
        <time>2022-07-13T05:36:56Z</time>
      </trkpt>
      <trkpt lat="44.23631" lon="2.59826">
        <ele>782.17</ele>
        <time>2022-07-13T05:37:04Z</time>
      </trkpt>
      <trkpt lat="44.23622" lon="2.59816">
        <ele>781.69</ele>
        <time>2022-07-13T05:37:12Z</time>
      </trkpt>
      <trkpt lat="44.23613" lon="2.59808">
        <ele>781.69</ele>
        <time>2022-07-13T05:37:20Z</time>
      </trkpt>
      <trkpt lat="44.23604" lon="2.59799">
        <ele>781.69</ele>
        <time>2022-07-13T05:37:28Z</time>
      </trkpt>
      <trkpt lat="44.23596" lon="2.59792">
        <ele>780.73</ele>
        <time>2022-07-13T05:37:36Z</time>
      </trkpt>
      <trkpt lat="44.23588" lon="2.59788">
        <ele>776.88</ele>
        <time>2022-07-13T05:37:44Z</time>
      </trkpt>
      <trkpt lat="44.23581" lon="2.59778">
        <ele>775.44</ele>
        <time>2022-07-13T05:37:52Z</time>
      </trkpt>
      <trkpt lat="44.23572" lon="2.59769">
        <ele>774</ele>
        <time>2022-07-13T05:38:00Z</time>
      </trkpt>
      <trkpt lat="44.23566" lon="2.5976">
        <ele>772.56</ele>
        <time>2022-07-13T05:38:08Z</time>
      </trkpt>
      <trkpt lat="44.23558" lon="2.59749">
        <ele>771.6</ele>
        <time>2022-07-13T05:38:17Z</time>
      </trkpt>
      <trkpt lat="44.23548" lon="2.59741">
        <ele>770.15</ele>
        <time>2022-07-13T05:38:25Z</time>
      </trkpt>
      <trkpt lat="44.23539" lon="2.59731">
        <ele>769.19</ele>
        <time>2022-07-13T05:38:33Z</time>
      </trkpt>
      <trkpt lat="44.23532" lon="2.59723">
        <ele>768.71</ele>
        <time>2022-07-13T05:38:41Z</time>
      </trkpt>
      <trkpt lat="44.23524" lon="2.59716">
        <ele>767.27</ele>
        <time>2022-07-13T05:38:50Z</time>
      </trkpt>
      <trkpt lat="44.23514" lon="2.5971">
        <ele>766.79</ele>
        <time>2022-07-13T05:38:59Z</time>
      </trkpt>
      <trkpt lat="44.23504" lon="2.59701">
        <ele>766.31</ele>
        <time>2022-07-13T05:39:07Z</time>
      </trkpt>
      <trkpt lat="44.23496" lon="2.59688">
        <ele>764.87</ele>
        <time>2022-07-13T05:39:15Z</time>
      </trkpt>
      <trkpt lat="44.2349" lon="2.59678">
        <ele>764.87</ele>
        <time>2022-07-13T05:39:22Z</time>
      </trkpt>
      <trkpt lat="44.23482" lon="2.5967">
        <ele>763.9</ele>
        <time>2022-07-13T05:39:30Z</time>
      </trkpt>
      <trkpt lat="44.23473" lon="2.59661">
        <ele>763.42</ele>
        <time>2022-07-13T05:39:38Z</time>
      </trkpt>
      <trkpt lat="44.23463" lon="2.59654">
        <ele>762.94</ele>
        <time>2022-07-13T05:39:46Z</time>
      </trkpt>
      <trkpt lat="44.23454" lon="2.59645">
        <ele>762.94</ele>
        <time>2022-07-13T05:39:54Z</time>
      </trkpt>
      <trkpt lat="44.23446" lon="2.59636">
        <ele>762.94</ele>
        <time>2022-07-13T05:40:02Z</time>
      </trkpt>
      <trkpt lat="44.23439" lon="2.59627">
        <ele>762.46</ele>
        <time>2022-07-13T05:40:11Z</time>
      </trkpt>
      <trkpt lat="44.23431" lon="2.59616">
        <ele>761.5</ele>
        <time>2022-07-13T05:40:20Z</time>
      </trkpt>
      <trkpt lat="44.23414" lon="2.59607">
        <ele>761.98</ele>
        <time>2022-07-13T05:40:37Z</time>
      </trkpt>
      <trkpt lat="44.23402" lon="2.59613">
        <ele>762.46</ele>
        <time>2022-07-13T05:40:46Z</time>
      </trkpt>
      <trkpt lat="44.23389" lon="2.59622">
        <ele>762.94</ele>
        <time>2022-07-13T05:41:00Z</time>
      </trkpt>
      <trkpt lat="44.23378" lon="2.59635">
        <ele>763.42</ele>
        <time>2022-07-13T05:41:09Z</time>
      </trkpt>
      <trkpt lat="44.23363" lon="2.5966">
        <ele>764.39</ele>
        <time>2022-07-13T05:41:27Z</time>
      </trkpt>
      <trkpt lat="44.23348" lon="2.59676">
        <ele>765.83</ele>
        <time>2022-07-13T05:41:43Z</time>
      </trkpt>
      <trkpt lat="44.23339" lon="2.59686">
        <ele>767.27</ele>
        <time>2022-07-13T05:41:53Z</time>
      </trkpt>
      <trkpt lat="44.23327" lon="2.597">
        <ele>767.75</ele>
        <time>2022-07-13T05:42:03Z</time>
      </trkpt>
      <trkpt lat="44.23315" lon="2.5971">
        <ele>767.75</ele>
        <time>2022-07-13T05:42:13Z</time>
      </trkpt>
      <trkpt lat="44.23306" lon="2.59719">
        <ele>768.23</ele>
        <time>2022-07-13T05:42:21Z</time>
      </trkpt>
      <trkpt lat="44.23297" lon="2.59729">
        <ele>767.27</ele>
        <time>2022-07-13T05:42:30Z</time>
      </trkpt>
      <trkpt lat="44.23279" lon="2.59746">
        <ele>768.71</ele>
        <time>2022-07-13T05:42:51Z</time>
      </trkpt>
      <trkpt lat="44.23267" lon="2.5976">
        <ele>766.79</ele>
        <time>2022-07-13T05:43:00Z</time>
      </trkpt>
      <trkpt lat="44.23257" lon="2.59769">
        <ele>766.79</ele>
        <time>2022-07-13T05:43:07Z</time>
      </trkpt>
      <trkpt lat="44.23247" lon="2.59775">
        <ele>766.79</ele>
        <time>2022-07-13T05:43:15Z</time>
      </trkpt>
      <trkpt lat="44.23237" lon="2.59776">
        <ele>767.27</ele>
        <time>2022-07-13T05:43:22Z</time>
      </trkpt>
      <trkpt lat="44.23227" lon="2.59781">
        <ele>766.79</ele>
        <time>2022-07-13T05:43:30Z</time>
      </trkpt>
      <trkpt lat="44.23221" lon="2.59789">
        <ele>765.35</ele>
        <time>2022-07-13T05:43:37Z</time>
      </trkpt>
      <trkpt lat="44.23213" lon="2.59795">
        <ele>765.35</ele>
        <time>2022-07-13T05:43:44Z</time>
      </trkpt>
      <trkpt lat="44.23204" lon="2.59804">
        <ele>764.39</ele>
        <time>2022-07-13T05:43:51Z</time>
      </trkpt>
      <trkpt lat="44.23195" lon="2.59811">
        <ele>763.9</ele>
        <time>2022-07-13T05:43:58Z</time>
      </trkpt>
      <trkpt lat="44.23186" lon="2.59817">
        <ele>762.46</ele>
        <time>2022-07-13T05:44:05Z</time>
      </trkpt>
      <trkpt lat="44.23176" lon="2.59819">
        <ele>760.06</ele>
        <time>2022-07-13T05:44:13Z</time>
      </trkpt>
      <trkpt lat="44.23166" lon="2.5983">
        <ele>756.21</ele>
        <time>2022-07-13T05:44:26Z</time>
      </trkpt>
      <trkpt lat="44.23161" lon="2.59845">
        <ele>755.25</ele>
        <time>2022-07-13T05:44:35Z</time>
      </trkpt>
      <trkpt lat="44.23155" lon="2.59857">
        <ele>753.81</ele>
        <time>2022-07-13T05:44:44Z</time>
      </trkpt>
      <trkpt lat="44.2314" lon="2.59899">
        <ele>749.49</ele>
        <time>2022-07-13T05:45:10Z</time>
      </trkpt>
      <trkpt lat="44.23133" lon="2.59915">
        <ele>748.52</ele>
        <time>2022-07-13T05:45:20Z</time>
      </trkpt>
      <trkpt lat="44.23126" lon="2.59931">
        <ele>747.08</ele>
        <time>2022-07-13T05:45:28Z</time>
      </trkpt>
      <trkpt lat="44.23118" lon="2.59946">
        <ele>744.68</ele>
        <time>2022-07-13T05:45:37Z</time>
      </trkpt>
      <trkpt lat="44.23109" lon="2.59958">
        <ele>742.76</ele>
        <time>2022-07-13T05:45:45Z</time>
      </trkpt>
      <trkpt lat="44.23102" lon="2.59972">
        <ele>739.87</ele>
        <time>2022-07-13T05:45:53Z</time>
      </trkpt>
      <trkpt lat="44.23096" lon="2.59987">
        <ele>736.99</ele>
        <time>2022-07-13T05:46:02Z</time>
      </trkpt>
      <trkpt lat="44.23088" lon="2.59999">
        <ele>733.62</ele>
        <time>2022-07-13T05:46:12Z</time>
      </trkpt>
      <trkpt lat="44.23083" lon="2.60013">
        <ele>731.7</ele>
        <time>2022-07-13T05:46:22Z</time>
      </trkpt>
      <trkpt lat="44.23075" lon="2.60026">
        <ele>730.26</ele>
        <time>2022-07-13T05:46:31Z</time>
      </trkpt>
      <trkpt lat="44.23069" lon="2.60051">
        <ele>724.49</ele>
        <time>2022-07-13T05:47:11Z</time>
      </trkpt>
      <trkpt lat="44.23062" lon="2.60044">
        <ele>724.01</ele>
        <time>2022-07-13T05:47:16Z</time>
      </trkpt>
      <trkpt lat="44.23055" lon="2.60039">
        <ele>722.09</ele>
        <time>2022-07-13T05:47:21Z</time>
      </trkpt>
      <trkpt lat="44.23052" lon="2.60036">
        <ele>721.13</ele>
        <time>2022-07-13T05:47:26Z</time>
      </trkpt>
      <trkpt lat="44.23066" lon="2.60048">
        <ele>712.95</ele>
        <time>2022-07-13T05:48:54Z</time>
      </trkpt>
      <trkpt lat="44.23059" lon="2.6006">
        <ele>716.32</ele>
        <time>2022-07-13T05:49:02Z</time>
      </trkpt>
      <trkpt lat="44.23051" lon="2.6007">
        <ele>715.84</ele>
        <time>2022-07-13T05:49:10Z</time>
      </trkpt>
      <trkpt lat="44.23045" lon="2.60084">
        <ele>716.8</ele>
        <time>2022-07-13T05:49:17Z</time>
      </trkpt>
      <trkpt lat="44.2304" lon="2.60098">
        <ele>719.68</ele>
        <time>2022-07-13T05:49:24Z</time>
      </trkpt>
      <trkpt lat="44.23033" lon="2.60111">
        <ele>722.09</ele>
        <time>2022-07-13T05:49:32Z</time>
      </trkpt>
      <trkpt lat="44.23025" lon="2.6012">
        <ele>723.05</ele>
        <time>2022-07-13T05:49:39Z</time>
      </trkpt>
      <trkpt lat="44.23017" lon="2.60126">
        <ele>723.05</ele>
        <time>2022-07-13T05:49:46Z</time>
      </trkpt>
      <trkpt lat="44.23008" lon="2.60134">
        <ele>723.05</ele>
        <time>2022-07-13T05:49:54Z</time>
      </trkpt>
      <trkpt lat="44.23" lon="2.60144">
        <ele>723.53</ele>
        <time>2022-07-13T05:50:01Z</time>
      </trkpt>
      <trkpt lat="44.22992" lon="2.6015">
        <ele>723.05</ele>
        <time>2022-07-13T05:50:08Z</time>
      </trkpt>
      <trkpt lat="44.22984" lon="2.60158">
        <ele>723.53</ele>
        <time>2022-07-13T05:50:15Z</time>
      </trkpt>
      <trkpt lat="44.22975" lon="2.60165">
        <ele>723.53</ele>
        <time>2022-07-13T05:50:22Z</time>
      </trkpt>
      <trkpt lat="44.22967" lon="2.60174">
        <ele>724.01</ele>
        <time>2022-07-13T05:50:29Z</time>
      </trkpt>
      <trkpt lat="44.22959" lon="2.60183">
        <ele>724.01</ele>
        <time>2022-07-13T05:50:36Z</time>
      </trkpt>
      <trkpt lat="44.22951" lon="2.60192">
        <ele>724.01</ele>
        <time>2022-07-13T05:50:43Z</time>
      </trkpt>
      <trkpt lat="44.22942" lon="2.60201">
        <ele>724.01</ele>
        <time>2022-07-13T05:50:51Z</time>
      </trkpt>
      <trkpt lat="44.22934" lon="2.6021">
        <ele>723.53</ele>
        <time>2022-07-13T05:50:59Z</time>
      </trkpt>
      <trkpt lat="44.22926" lon="2.60219">
        <ele>723.05</ele>
        <time>2022-07-13T05:51:07Z</time>
      </trkpt>
      <trkpt lat="44.22918" lon="2.60228">
        <ele>722.57</ele>
        <time>2022-07-13T05:51:15Z</time>
      </trkpt>
      <trkpt lat="44.22911" lon="2.60237">
        <ele>723.05</ele>
        <time>2022-07-13T05:51:23Z</time>
      </trkpt>
      <trkpt lat="44.22902" lon="2.60246">
        <ele>723.05</ele>
        <time>2022-07-13T05:51:32Z</time>
      </trkpt>
      <trkpt lat="44.22894" lon="2.60256">
        <ele>722.57</ele>
        <time>2022-07-13T05:51:41Z</time>
      </trkpt>
      <trkpt lat="44.22885" lon="2.60266">
        <ele>722.57</ele>
        <time>2022-07-13T05:51:49Z</time>
      </trkpt>
      <trkpt lat="44.22877" lon="2.60278">
        <ele>720.65</ele>
        <time>2022-07-13T05:51:57Z</time>
      </trkpt>
      <trkpt lat="44.2287" lon="2.60291">
        <ele>720.16</ele>
        <time>2022-07-13T05:52:07Z</time>
      </trkpt>
      <trkpt lat="44.22868" lon="2.60306">
        <ele>719.68</ele>
        <time>2022-07-13T05:52:15Z</time>
      </trkpt>
      <trkpt lat="44.22865" lon="2.60322">
        <ele>720.65</ele>
        <time>2022-07-13T05:52:24Z</time>
      </trkpt>
      <trkpt lat="44.22833" lon="2.60356">
        <ele>710.07</ele>
        <time>2022-07-13T05:58:25Z</time>
      </trkpt>
      <trkpt lat="44.22817" lon="2.60359">
        <ele>710.07</ele>
        <time>2022-07-13T05:58:35Z</time>
      </trkpt>
      <trkpt lat="44.22804" lon="2.60362">
        <ele>710.07</ele>
        <time>2022-07-13T05:58:44Z</time>
      </trkpt>
      <trkpt lat="44.22793" lon="2.60363">
        <ele>709.59</ele>
        <time>2022-07-13T05:58:52Z</time>
      </trkpt>
      <trkpt lat="44.22778" lon="2.60366">
        <ele>710.55</ele>
        <time>2022-07-13T05:59:01Z</time>
      </trkpt>
      <trkpt lat="44.22768" lon="2.60366">
        <ele>710.07</ele>
        <time>2022-07-13T05:59:08Z</time>
      </trkpt>
      <trkpt lat="44.22755" lon="2.60366">
        <ele>711.03</ele>
        <time>2022-07-13T05:59:17Z</time>
      </trkpt>
      <trkpt lat="44.22745" lon="2.60371">
        <ele>711.99</ele>
        <time>2022-07-13T05:59:25Z</time>
      </trkpt>
      <trkpt lat="44.22736" lon="2.6038">
        <ele>714.4</ele>
        <time>2022-07-13T05:59:33Z</time>
      </trkpt>
      <trkpt lat="44.2273" lon="2.60395">
        <ele>715.84</ele>
        <time>2022-07-13T05:59:42Z</time>
      </trkpt>
      <trkpt lat="44.2273" lon="2.60412">
        <ele>717.28</ele>
        <time>2022-07-13T05:59:51Z</time>
      </trkpt>
      <trkpt lat="44.22734" lon="2.60427">
        <ele>718.72</ele>
        <time>2022-07-13T05:59:59Z</time>
      </trkpt>
      <trkpt lat="44.22738" lon="2.60441">
        <ele>721.13</ele>
        <time>2022-07-13T06:00:06Z</time>
      </trkpt>
      <trkpt lat="44.22743" lon="2.60453">
        <ele>722.57</ele>
        <time>2022-07-13T06:00:13Z</time>
      </trkpt>
      <trkpt lat="44.22748" lon="2.60465">
        <ele>724.49</ele>
        <time>2022-07-13T06:00:20Z</time>
      </trkpt>
      <trkpt lat="44.22753" lon="2.60478">
        <ele>725.93</ele>
        <time>2022-07-13T06:00:27Z</time>
      </trkpt>
      <trkpt lat="44.22758" lon="2.60489">
        <ele>729.3</ele>
        <time>2022-07-13T06:00:34Z</time>
      </trkpt>
      <trkpt lat="44.22759" lon="2.60504">
        <ele>730.26</ele>
        <time>2022-07-13T06:00:41Z</time>
      </trkpt>
      <trkpt lat="44.22759" lon="2.60518">
        <ele>731.22</ele>
        <time>2022-07-13T06:00:48Z</time>
      </trkpt>
      <trkpt lat="44.22758" lon="2.60533">
        <ele>732.66</ele>
        <time>2022-07-13T06:00:55Z</time>
      </trkpt>
      <trkpt lat="44.22756" lon="2.60548">
        <ele>732.66</ele>
        <time>2022-07-13T06:01:02Z</time>
      </trkpt>
      <trkpt lat="44.22755" lon="2.60565">
        <ele>732.66</ele>
        <time>2022-07-13T06:01:10Z</time>
      </trkpt>
      <trkpt lat="44.22753" lon="2.60581">
        <ele>733.14</ele>
        <time>2022-07-13T06:01:19Z</time>
      </trkpt>
      <trkpt lat="44.2275" lon="2.60598">
        <ele>734.1</ele>
        <time>2022-07-13T06:01:28Z</time>
      </trkpt>
      <trkpt lat="44.22747" lon="2.60613">
        <ele>734.58</ele>
        <time>2022-07-13T06:01:36Z</time>
      </trkpt>
      <trkpt lat="44.22745" lon="2.60629">
        <ele>735.55</ele>
        <time>2022-07-13T06:01:44Z</time>
      </trkpt>
      <trkpt lat="44.22744" lon="2.60644">
        <ele>736.99</ele>
        <time>2022-07-13T06:01:51Z</time>
      </trkpt>
      <trkpt lat="44.22741" lon="2.60656">
        <ele>737.47</ele>
        <time>2022-07-13T06:01:58Z</time>
      </trkpt>
      <trkpt lat="44.22738" lon="2.60671">
        <ele>738.91</ele>
        <time>2022-07-13T06:02:06Z</time>
      </trkpt>
      <trkpt lat="44.22734" lon="2.60688">
        <ele>738.43</ele>
        <time>2022-07-13T06:02:14Z</time>
      </trkpt>
      <trkpt lat="44.2273" lon="2.60703">
        <ele>738.91</ele>
        <time>2022-07-13T06:02:22Z</time>
      </trkpt>
      <trkpt lat="44.22726" lon="2.60717">
        <ele>739.39</ele>
        <time>2022-07-13T06:02:30Z</time>
      </trkpt>
      <trkpt lat="44.22722" lon="2.60732">
        <ele>739.39</ele>
        <time>2022-07-13T06:02:39Z</time>
      </trkpt>
      <trkpt lat="44.22716" lon="2.60749">
        <ele>739.39</ele>
        <time>2022-07-13T06:02:50Z</time>
      </trkpt>
      <trkpt lat="44.22704" lon="2.60757">
        <ele>738.43</ele>
        <time>2022-07-13T06:03:00Z</time>
      </trkpt>
      <trkpt lat="44.22693" lon="2.60761">
        <ele>737.95</ele>
        <time>2022-07-13T06:03:08Z</time>
      </trkpt>
      <trkpt lat="44.22683" lon="2.60765">
        <ele>738.43</ele>
        <time>2022-07-13T06:03:15Z</time>
      </trkpt>
      <trkpt lat="44.22674" lon="2.60771">
        <ele>738.91</ele>
        <time>2022-07-13T06:03:22Z</time>
      </trkpt>
      <trkpt lat="44.22666" lon="2.60775">
        <ele>739.39</ele>
        <time>2022-07-13T06:03:29Z</time>
      </trkpt>
      <trkpt lat="44.22655" lon="2.60781">
        <ele>739.39</ele>
        <time>2022-07-13T06:03:37Z</time>
      </trkpt>
      <trkpt lat="44.22645" lon="2.60785">
        <ele>740.35</ele>
        <time>2022-07-13T06:03:44Z</time>
      </trkpt>
      <trkpt lat="44.22636" lon="2.60791">
        <ele>741.79</ele>
        <time>2022-07-13T06:03:51Z</time>
      </trkpt>
      <trkpt lat="44.22626" lon="2.60797">
        <ele>744.2</ele>
        <time>2022-07-13T06:03:58Z</time>
      </trkpt>
      <trkpt lat="44.22614" lon="2.60802">
        <ele>745.64</ele>
        <time>2022-07-13T06:04:06Z</time>
      </trkpt>
      <trkpt lat="44.22604" lon="2.60807">
        <ele>747.08</ele>
        <time>2022-07-13T06:04:13Z</time>
      </trkpt>
      <trkpt lat="44.22595" lon="2.6081">
        <ele>747.56</ele>
        <time>2022-07-13T06:04:20Z</time>
      </trkpt>
      <trkpt lat="44.22585" lon="2.60814">
        <ele>747.56</ele>
        <time>2022-07-13T06:04:27Z</time>
      </trkpt>
      <trkpt lat="44.22573" lon="2.60817">
        <ele>748.52</ele>
        <time>2022-07-13T06:04:35Z</time>
      </trkpt>
      <trkpt lat="44.22562" lon="2.60817">
        <ele>749</ele>
        <time>2022-07-13T06:04:43Z</time>
      </trkpt>
      <trkpt lat="44.22551" lon="2.60813">
        <ele>749.49</ele>
        <time>2022-07-13T06:04:52Z</time>
      </trkpt>
      <trkpt lat="44.22528" lon="2.60789">
        <ele>753.33</ele>
        <time>2022-07-13T06:05:11Z</time>
      </trkpt>
      <trkpt lat="44.2252" lon="2.60778">
        <ele>754.77</ele>
        <time>2022-07-13T06:05:21Z</time>
      </trkpt>
      <trkpt lat="44.22512" lon="2.6077">
        <ele>756.69</ele>
        <time>2022-07-13T06:05:29Z</time>
      </trkpt>
      <trkpt lat="44.22503" lon="2.60762">
        <ele>757.18</ele>
        <time>2022-07-13T06:05:38Z</time>
      </trkpt>
      <trkpt lat="44.22495" lon="2.60754">
        <ele>756.69</ele>
        <time>2022-07-13T06:05:45Z</time>
      </trkpt>
      <trkpt lat="44.22487" lon="2.60746">
        <ele>756.69</ele>
        <time>2022-07-13T06:05:52Z</time>
      </trkpt>
      <trkpt lat="44.22477" lon="2.60736">
        <ele>756.69</ele>
        <time>2022-07-13T06:06:00Z</time>
      </trkpt>
      <trkpt lat="44.22468" lon="2.60729">
        <ele>756.69</ele>
        <time>2022-07-13T06:06:07Z</time>
      </trkpt>
      <trkpt lat="44.22459" lon="2.60721">
        <ele>757.18</ele>
        <time>2022-07-13T06:06:15Z</time>
      </trkpt>
      <trkpt lat="44.22449" lon="2.60715">
        <ele>757.18</ele>
        <time>2022-07-13T06:06:23Z</time>
      </trkpt>
      <trkpt lat="44.22439" lon="2.60708">
        <ele>757.18</ele>
        <time>2022-07-13T06:06:30Z</time>
      </trkpt>
      <trkpt lat="44.2243" lon="2.60698">
        <ele>757.18</ele>
        <time>2022-07-13T06:06:39Z</time>
      </trkpt>
      <trkpt lat="44.22423" lon="2.60683">
        <ele>756.69</ele>
        <time>2022-07-13T06:06:48Z</time>
      </trkpt>
      <trkpt lat="44.22414" lon="2.60666">
        <ele>755.25</ele>
        <time>2022-07-13T06:07:00Z</time>
      </trkpt>
      <trkpt lat="44.22406" lon="2.60649">
        <ele>756.21</ele>
        <time>2022-07-13T06:07:09Z</time>
      </trkpt>
      <trkpt lat="44.224" lon="2.60638">
        <ele>756.69</ele>
        <time>2022-07-13T06:07:15Z</time>
      </trkpt>
      <trkpt lat="44.22392" lon="2.60628">
        <ele>756.69</ele>
        <time>2022-07-13T06:07:21Z</time>
      </trkpt>
      <trkpt lat="44.22385" lon="2.60616">
        <ele>756.21</ele>
        <time>2022-07-13T06:07:29Z</time>
      </trkpt>
      <trkpt lat="44.22374" lon="2.60605">
        <ele>757.18</ele>
        <time>2022-07-13T06:07:38Z</time>
      </trkpt>
      <trkpt lat="44.22366" lon="2.60594">
        <ele>758.14</ele>
        <time>2022-07-13T06:07:48Z</time>
      </trkpt>
      <trkpt lat="44.22358" lon="2.60586">
        <ele>758.62</ele>
        <time>2022-07-13T06:07:55Z</time>
      </trkpt>
      <trkpt lat="44.22345" lon="2.60575">
        <ele>758.62</ele>
        <time>2022-07-13T06:08:07Z</time>
      </trkpt>
      <trkpt lat="44.22334" lon="2.60566">
        <ele>758.14</ele>
        <time>2022-07-13T06:08:16Z</time>
      </trkpt>
      <trkpt lat="44.22324" lon="2.60558">
        <ele>756.69</ele>
        <time>2022-07-13T06:08:23Z</time>
      </trkpt>
      <trkpt lat="44.22314" lon="2.6055">
        <ele>755.73</ele>
        <time>2022-07-13T06:08:30Z</time>
      </trkpt>
      <trkpt lat="44.22305" lon="2.60543">
        <ele>753.81</ele>
        <time>2022-07-13T06:08:37Z</time>
      </trkpt>
      <trkpt lat="44.22297" lon="2.60537">
        <ele>752.37</ele>
        <time>2022-07-13T06:08:44Z</time>
      </trkpt>
      <trkpt lat="44.22288" lon="2.6053">
        <ele>750.45</ele>
        <time>2022-07-13T06:08:52Z</time>
      </trkpt>
      <trkpt lat="44.22278" lon="2.60522">
        <ele>749</ele>
        <time>2022-07-13T06:08:59Z</time>
      </trkpt>
      <trkpt lat="44.22267" lon="2.60516">
        <ele>748.04</ele>
        <time>2022-07-13T06:09:06Z</time>
      </trkpt>
      <trkpt lat="44.22258" lon="2.6051">
        <ele>747.56</ele>
        <time>2022-07-13T06:09:12Z</time>
      </trkpt>
      <trkpt lat="44.22248" lon="2.60507">
        <ele>747.56</ele>
        <time>2022-07-13T06:09:19Z</time>
      </trkpt>
      <trkpt lat="44.22238" lon="2.60502">
        <ele>747.56</ele>
        <time>2022-07-13T06:09:26Z</time>
      </trkpt>
      <trkpt lat="44.22228" lon="2.60498">
        <ele>746.6</ele>
        <time>2022-07-13T06:09:33Z</time>
      </trkpt>
      <trkpt lat="44.22218" lon="2.60493">
        <ele>746.12</ele>
        <time>2022-07-13T06:09:41Z</time>
      </trkpt>
      <trkpt lat="44.22207" lon="2.60488">
        <ele>745.64</ele>
        <time>2022-07-13T06:09:48Z</time>
      </trkpt>
      <trkpt lat="44.22195" lon="2.60485">
        <ele>745.16</ele>
        <time>2022-07-13T06:09:55Z</time>
      </trkpt>
      <trkpt lat="44.22185" lon="2.60482">
        <ele>744.68</ele>
        <time>2022-07-13T06:10:02Z</time>
      </trkpt>
      <trkpt lat="44.22174" lon="2.60477">
        <ele>744.68</ele>
        <time>2022-07-13T06:10:09Z</time>
      </trkpt>
      <trkpt lat="44.22165" lon="2.60474">
        <ele>743.72</ele>
        <time>2022-07-13T06:10:15Z</time>
      </trkpt>
      <trkpt lat="44.22156" lon="2.6047">
        <ele>742.76</ele>
        <time>2022-07-13T06:10:21Z</time>
      </trkpt>
      <trkpt lat="44.22145" lon="2.60467">
        <ele>742.28</ele>
        <time>2022-07-13T06:10:28Z</time>
      </trkpt>
      <trkpt lat="44.22135" lon="2.60464">
        <ele>742.28</ele>
        <time>2022-07-13T06:10:34Z</time>
      </trkpt>
      <trkpt lat="44.22125" lon="2.60461">
        <ele>741.79</ele>
        <time>2022-07-13T06:10:40Z</time>
      </trkpt>
      <trkpt lat="44.22115" lon="2.6046">
        <ele>741.79</ele>
        <time>2022-07-13T06:10:47Z</time>
      </trkpt>
      <trkpt lat="44.22105" lon="2.60456">
        <ele>741.31</ele>
        <time>2022-07-13T06:10:55Z</time>
      </trkpt>
      <trkpt lat="44.22093" lon="2.60454">
        <ele>740.83</ele>
        <time>2022-07-13T06:11:02Z</time>
      </trkpt>
      <trkpt lat="44.22083" lon="2.60452">
        <ele>739.39</ele>
        <time>2022-07-13T06:11:08Z</time>
      </trkpt>
      <trkpt lat="44.22073" lon="2.6045">
        <ele>737.95</ele>
        <time>2022-07-13T06:11:14Z</time>
      </trkpt>
      <trkpt lat="44.22063" lon="2.60447">
        <ele>736.99</ele>
        <time>2022-07-13T06:11:21Z</time>
      </trkpt>
      <trkpt lat="44.22054" lon="2.60445">
        <ele>735.07</ele>
        <time>2022-07-13T06:11:28Z</time>
      </trkpt>
      <trkpt lat="44.22043" lon="2.60445">
        <ele>734.1</ele>
        <time>2022-07-13T06:11:35Z</time>
      </trkpt>
      <trkpt lat="44.22034" lon="2.6045">
        <ele>734.1</ele>
        <time>2022-07-13T06:11:43Z</time>
      </trkpt>
      <trkpt lat="44.22024" lon="2.6046">
        <ele>733.62</ele>
        <time>2022-07-13T06:11:51Z</time>
      </trkpt>
      <trkpt lat="44.22016" lon="2.6047">
        <ele>733.14</ele>
        <time>2022-07-13T06:11:58Z</time>
      </trkpt>
      <trkpt lat="44.22009" lon="2.60479">
        <ele>733.14</ele>
        <time>2022-07-13T06:12:05Z</time>
      </trkpt>
      <trkpt lat="44.22001" lon="2.60491">
        <ele>732.18</ele>
        <time>2022-07-13T06:12:12Z</time>
      </trkpt>
      <trkpt lat="44.21993" lon="2.60504">
        <ele>731.7</ele>
        <time>2022-07-13T06:12:20Z</time>
      </trkpt>
      <trkpt lat="44.21976" lon="2.60537">
        <ele>728.82</ele>
        <time>2022-07-13T06:12:41Z</time>
      </trkpt>
      <trkpt lat="44.21962" lon="2.60543">
        <ele>727.86</ele>
        <time>2022-07-13T06:12:50Z</time>
      </trkpt>
      <trkpt lat="44.2195" lon="2.60536">
        <ele>725.45</ele>
        <time>2022-07-13T06:12:58Z</time>
      </trkpt>
      <trkpt lat="44.2194" lon="2.60525">
        <ele>724.49</ele>
        <time>2022-07-13T06:13:06Z</time>
      </trkpt>
      <trkpt lat="44.21931" lon="2.60513">
        <ele>723.05</ele>
        <time>2022-07-13T06:13:14Z</time>
      </trkpt>
      <trkpt lat="44.21923" lon="2.60503">
        <ele>722.57</ele>
        <time>2022-07-13T06:13:23Z</time>
      </trkpt>
      <trkpt lat="44.21912" lon="2.60494">
        <ele>722.09</ele>
        <time>2022-07-13T06:13:30Z</time>
      </trkpt>
      <trkpt lat="44.21904" lon="2.60489">
        <ele>724.97</ele>
        <time>2022-07-13T06:13:36Z</time>
      </trkpt>
      <trkpt lat="44.21896" lon="2.60485">
        <ele>725.45</ele>
        <time>2022-07-13T06:13:43Z</time>
      </trkpt>
      <trkpt lat="44.21886" lon="2.60481">
        <ele>724.49</ele>
        <time>2022-07-13T06:13:51Z</time>
      </trkpt>
      <trkpt lat="44.21875" lon="2.60478">
        <ele>725.45</ele>
        <time>2022-07-13T06:13:59Z</time>
      </trkpt>
      <trkpt lat="44.21865" lon="2.60483">
        <ele>724.97</ele>
        <time>2022-07-13T06:14:09Z</time>
      </trkpt>
      <trkpt lat="44.21877" lon="2.60543">
        <ele>723.53</ele>
        <time>2022-07-13T06:14:41Z</time>
      </trkpt>
      <trkpt lat="44.219" lon="2.60609">
        <ele>733.14</ele>
        <time>2022-07-13T06:15:32Z</time>
      </trkpt>
      <trkpt lat="44.21899" lon="2.60745">
        <ele>735.07</ele>
        <time>2022-07-13T06:16:38Z</time>
      </trkpt>
      <trkpt lat="44.21893" lon="2.60777">
        <ele>734.1</ele>
        <time>2022-07-13T06:16:56Z</time>
      </trkpt>
      <trkpt lat="44.21881" lon="2.6081">
        <ele>732.66</ele>
        <time>2022-07-13T06:17:13Z</time>
      </trkpt>
      <trkpt lat="44.21865" lon="2.60844">
        <ele>735.55</ele>
        <time>2022-07-13T06:17:34Z</time>
      </trkpt>
      <trkpt lat="44.21848" lon="2.60859">
        <ele>734.58</ele>
        <time>2022-07-13T06:17:46Z</time>
      </trkpt>
      <trkpt lat="44.21823" lon="2.61027">
        <ele>735.55</ele>
        <time>2022-07-13T06:19:15Z</time>
      </trkpt>
      <trkpt lat="44.21837" lon="2.61158">
        <ele>751.89</ele>
        <time>2022-07-13T06:20:19Z</time>
      </trkpt>
      <trkpt lat="44.21811" lon="2.61289">
        <ele>748.52</ele>
        <time>2022-07-13T06:21:32Z</time>
      </trkpt>
      <trkpt lat="44.21801" lon="2.61302">
        <ele>750.45</ele>
        <time>2022-07-13T06:21:39Z</time>
      </trkpt>
      <trkpt lat="44.2179" lon="2.61309">
        <ele>750.93</ele>
        <time>2022-07-13T06:21:46Z</time>
      </trkpt>
      <trkpt lat="44.21777" lon="2.61319">
        <ele>752.85</ele>
        <time>2022-07-13T06:21:58Z</time>
      </trkpt>
      <trkpt lat="44.21741" lon="2.61307">
        <ele>759.1</ele>
        <time>2022-07-13T06:24:03Z</time>
      </trkpt>
      <trkpt lat="44.21732" lon="2.61286">
        <ele>759.1</ele>
        <time>2022-07-13T06:24:15Z</time>
      </trkpt>
      <trkpt lat="44.21729" lon="2.61267">
        <ele>760.06</ele>
        <time>2022-07-13T06:24:25Z</time>
      </trkpt>
      <trkpt lat="44.21649" lon="2.61126">
        <ele>749.97</ele>
        <time>2022-07-13T06:25:49Z</time>
      </trkpt>
      <trkpt lat="44.2163" lon="2.61102">
        <ele>748.04</ele>
        <time>2022-07-13T06:26:07Z</time>
      </trkpt>
      <trkpt lat="44.21595" lon="2.61061">
        <ele>749</ele>
        <time>2022-07-13T06:26:39Z</time>
      </trkpt>
      <trkpt lat="44.21583" lon="2.61044">
        <ele>748.52</ele>
        <time>2022-07-13T06:26:48Z</time>
      </trkpt>
      <trkpt lat="44.21543" lon="2.61002">
        <ele>745.64</ele>
        <time>2022-07-13T06:27:20Z</time>
      </trkpt>
      <trkpt lat="44.21534" lon="2.6099">
        <ele>744.68</ele>
        <time>2022-07-13T06:27:25Z</time>
      </trkpt>
      <trkpt lat="44.21521" lon="2.60978">
        <ele>741.31</ele>
        <time>2022-07-13T06:27:35Z</time>
      </trkpt>
      <trkpt lat="44.21488" lon="2.60941">
        <ele>735.55</ele>
        <time>2022-07-13T06:28:02Z</time>
      </trkpt>
      <trkpt lat="44.21477" lon="2.60927">
        <ele>735.07</ele>
        <time>2022-07-13T06:28:11Z</time>
      </trkpt>
      <trkpt lat="44.21466" lon="2.60917">
        <ele>742.28</ele>
        <time>2022-07-13T06:28:20Z</time>
      </trkpt>
      <trkpt lat="44.21458" lon="2.60903">
        <ele>748.04</ele>
        <time>2022-07-13T06:28:27Z</time>
      </trkpt>
      <trkpt lat="44.21452" lon="2.60893">
        <ele>749.49</ele>
        <time>2022-07-13T06:28:34Z</time>
      </trkpt>
      <trkpt lat="44.21447" lon="2.60882">
        <ele>750.93</ele>
        <time>2022-07-13T06:28:41Z</time>
      </trkpt>
      <trkpt lat="44.21444" lon="2.60869">
        <ele>752.85</ele>
        <time>2022-07-13T06:28:49Z</time>
      </trkpt>
      <trkpt lat="44.21441" lon="2.60856">
        <ele>753.81</ele>
        <time>2022-07-13T06:28:56Z</time>
      </trkpt>
      <trkpt lat="44.21439" lon="2.60842">
        <ele>753.81</ele>
        <time>2022-07-13T06:29:04Z</time>
      </trkpt>
      <trkpt lat="44.21436" lon="2.60827">
        <ele>753.81</ele>
        <time>2022-07-13T06:29:12Z</time>
      </trkpt>
      <trkpt lat="44.21435" lon="2.6081">
        <ele>754.77</ele>
        <time>2022-07-13T06:29:21Z</time>
      </trkpt>
      <trkpt lat="44.21432" lon="2.60792">
        <ele>755.25</ele>
        <time>2022-07-13T06:29:32Z</time>
      </trkpt>
      <trkpt lat="44.2143" lon="2.60774">
        <ele>756.21</ele>
        <time>2022-07-13T06:29:41Z</time>
      </trkpt>
      <trkpt lat="44.21427" lon="2.60756">
        <ele>757.66</ele>
        <time>2022-07-13T06:29:50Z</time>
      </trkpt>
      <trkpt lat="44.21424" lon="2.60738">
        <ele>758.14</ele>
        <time>2022-07-13T06:29:58Z</time>
      </trkpt>
      <trkpt lat="44.21422" lon="2.60715">
        <ele>759.58</ele>
        <time>2022-07-13T06:30:10Z</time>
      </trkpt>
      <trkpt lat="44.2142" lon="2.60697">
        <ele>759.1</ele>
        <time>2022-07-13T06:30:18Z</time>
      </trkpt>
      <trkpt lat="44.21417" lon="2.6068">
        <ele>759.1</ele>
        <time>2022-07-13T06:30:26Z</time>
      </trkpt>
      <trkpt lat="44.21415" lon="2.60664">
        <ele>759.58</ele>
        <time>2022-07-13T06:30:34Z</time>
      </trkpt>
      <trkpt lat="44.21414" lon="2.60649">
        <ele>760.06</ele>
        <time>2022-07-13T06:30:42Z</time>
      </trkpt>
      <trkpt lat="44.21415" lon="2.60636">
        <ele>760.06</ele>
        <time>2022-07-13T06:30:51Z</time>
      </trkpt>
      <trkpt lat="44.21411" lon="2.6062">
        <ele>759.58</ele>
        <time>2022-07-13T06:31:01Z</time>
      </trkpt>
      <trkpt lat="44.21407" lon="2.606">
        <ele>758.14</ele>
        <time>2022-07-13T06:31:09Z</time>
      </trkpt>
      <trkpt lat="44.21404" lon="2.6058">
        <ele>758.62</ele>
        <time>2022-07-13T06:31:17Z</time>
      </trkpt>
      <trkpt lat="44.21401" lon="2.60562">
        <ele>759.58</ele>
        <time>2022-07-13T06:31:26Z</time>
      </trkpt>
      <trkpt lat="44.21399" lon="2.60546">
        <ele>759.1</ele>
        <time>2022-07-13T06:31:36Z</time>
      </trkpt>
      <trkpt lat="44.21394" lon="2.60526">
        <ele>759.58</ele>
        <time>2022-07-13T06:31:45Z</time>
      </trkpt>
      <trkpt lat="44.21391" lon="2.60504">
        <ele>760.54</ele>
        <time>2022-07-13T06:31:53Z</time>
      </trkpt>
      <trkpt lat="44.21388" lon="2.60488">
        <ele>760.06</ele>
        <time>2022-07-13T06:32:01Z</time>
      </trkpt>
      <trkpt lat="44.21387" lon="2.60474">
        <ele>759.58</ele>
        <time>2022-07-13T06:32:09Z</time>
      </trkpt>
      <trkpt lat="44.21385" lon="2.60461">
        <ele>758.14</ele>
        <time>2022-07-13T06:32:16Z</time>
      </trkpt>
      <trkpt lat="44.21384" lon="2.60447">
        <ele>758.62</ele>
        <time>2022-07-13T06:32:22Z</time>
      </trkpt>
      <trkpt lat="44.21382" lon="2.60433">
        <ele>757.66</ele>
        <time>2022-07-13T06:32:29Z</time>
      </trkpt>
      <trkpt lat="44.21379" lon="2.6042">
        <ele>757.18</ele>
        <time>2022-07-13T06:32:36Z</time>
      </trkpt>
      <trkpt lat="44.21377" lon="2.60406">
        <ele>757.18</ele>
        <time>2022-07-13T06:32:43Z</time>
      </trkpt>
      <trkpt lat="44.21374" lon="2.60394">
        <ele>757.18</ele>
        <time>2022-07-13T06:32:50Z</time>
      </trkpt>
      <trkpt lat="44.21372" lon="2.60381">
        <ele>756.69</ele>
        <time>2022-07-13T06:32:58Z</time>
      </trkpt>
      <trkpt lat="44.21372" lon="2.60366">
        <ele>756.21</ele>
        <time>2022-07-13T06:33:06Z</time>
      </trkpt>
      <trkpt lat="44.21377" lon="2.60354">
        <ele>756.21</ele>
        <time>2022-07-13T06:33:13Z</time>
      </trkpt>
      <trkpt lat="44.21381" lon="2.60341">
        <ele>755.73</ele>
        <time>2022-07-13T06:33:20Z</time>
      </trkpt>
      <trkpt lat="44.21387" lon="2.60327">
        <ele>755.73</ele>
        <time>2022-07-13T06:33:28Z</time>
      </trkpt>
      <trkpt lat="44.21392" lon="2.60313">
        <ele>754.77</ele>
        <time>2022-07-13T06:33:35Z</time>
      </trkpt>
      <trkpt lat="44.21398" lon="2.60299">
        <ele>753.33</ele>
        <time>2022-07-13T06:33:43Z</time>
      </trkpt>
      <trkpt lat="44.21404" lon="2.60285">
        <ele>751.89</ele>
        <time>2022-07-13T06:33:51Z</time>
      </trkpt>
      <trkpt lat="44.2141" lon="2.60268">
        <ele>750.45</ele>
        <time>2022-07-13T06:34:00Z</time>
      </trkpt>
      <trkpt lat="44.21416" lon="2.60246">
        <ele>749.49</ele>
        <time>2022-07-13T06:34:09Z</time>
      </trkpt>
      <trkpt lat="44.21423" lon="2.60232">
        <ele>747.56</ele>
        <time>2022-07-13T06:34:18Z</time>
      </trkpt>
      <trkpt lat="44.21429" lon="2.60221">
        <ele>745.16</ele>
        <time>2022-07-13T06:34:27Z</time>
      </trkpt>
      <trkpt lat="44.21434" lon="2.60208">
        <ele>742.76</ele>
        <time>2022-07-13T06:34:36Z</time>
      </trkpt>
      <trkpt lat="44.21439" lon="2.60194">
        <ele>740.83</ele>
        <time>2022-07-13T06:34:44Z</time>
      </trkpt>
      <trkpt lat="44.2143" lon="2.60169">
        <ele>742.76</ele>
        <time>2022-07-13T06:35:10Z</time>
      </trkpt>
      <trkpt lat="44.21417" lon="2.60164">
        <ele>742.76</ele>
        <time>2022-07-13T06:35:18Z</time>
      </trkpt>
      <trkpt lat="44.21408" lon="2.60158">
        <ele>744.2</ele>
        <time>2022-07-13T06:35:27Z</time>
      </trkpt>
      <trkpt lat="44.21374" lon="2.60151">
        <ele>742.76</ele>
        <time>2022-07-13T06:35:54Z</time>
      </trkpt>
      <trkpt lat="44.21362" lon="2.60155">
        <ele>742.28</ele>
        <time>2022-07-13T06:36:02Z</time>
      </trkpt>
      <trkpt lat="44.21351" lon="2.60155">
        <ele>741.31</ele>
        <time>2022-07-13T06:36:10Z</time>
      </trkpt>
      <trkpt lat="44.21341" lon="2.60155">
        <ele>741.31</ele>
        <time>2022-07-13T06:36:17Z</time>
      </trkpt>
      <trkpt lat="44.2133" lon="2.6015">
        <ele>740.83</ele>
        <time>2022-07-13T06:36:25Z</time>
      </trkpt>
      <trkpt lat="44.21321" lon="2.60142">
        <ele>740.35</ele>
        <time>2022-07-13T06:36:33Z</time>
      </trkpt>
      <trkpt lat="44.21312" lon="2.60139">
        <ele>740.35</ele>
        <time>2022-07-13T06:36:41Z</time>
      </trkpt>
      <trkpt lat="44.21265" lon="2.60147">
        <ele>746.12</ele>
        <time>2022-07-13T06:38:27Z</time>
      </trkpt>
      <trkpt lat="44.21252" lon="2.60154">
        <ele>746.12</ele>
        <time>2022-07-13T06:38:36Z</time>
      </trkpt>
      <trkpt lat="44.21234" lon="2.60165">
        <ele>746.12</ele>
        <time>2022-07-13T06:38:51Z</time>
      </trkpt>
      <trkpt lat="44.21223" lon="2.60178">
        <ele>746.6</ele>
        <time>2022-07-13T06:39:02Z</time>
      </trkpt>
      <trkpt lat="44.21212" lon="2.6019">
        <ele>746.6</ele>
        <time>2022-07-13T06:39:12Z</time>
      </trkpt>
      <trkpt lat="44.21204" lon="2.60204">
        <ele>746.6</ele>
        <time>2022-07-13T06:39:21Z</time>
      </trkpt>
      <trkpt lat="44.21192" lon="2.60267">
        <ele>749</ele>
        <time>2022-07-13T06:39:59Z</time>
      </trkpt>
      <trkpt lat="44.21195" lon="2.6028">
        <ele>747.56</ele>
        <time>2022-07-13T06:40:06Z</time>
      </trkpt>
      <trkpt lat="44.21199" lon="2.60288">
        <ele>746.6</ele>
        <time>2022-07-13T06:40:12Z</time>
      </trkpt>
      <trkpt lat="44.21179" lon="2.60317">
        <ele>742.76</ele>
        <time>2022-07-13T06:40:33Z</time>
      </trkpt>
      <trkpt lat="44.21154" lon="2.60331">
        <ele>740.83</ele>
        <time>2022-07-13T06:40:41Z</time>
      </trkpt>
      <trkpt lat="44.21141" lon="2.60343">
        <ele>738.91</ele>
        <time>2022-07-13T06:40:48Z</time>
      </trkpt>
      <trkpt lat="44.2113" lon="2.60349">
        <ele>736.51</ele>
        <time>2022-07-13T06:40:55Z</time>
      </trkpt>
      <trkpt lat="44.21119" lon="2.60352">
        <ele>734.1</ele>
        <time>2022-07-13T06:41:04Z</time>
      </trkpt>
      <trkpt lat="44.21102" lon="2.60354">
        <ele>728.34</ele>
        <time>2022-07-13T06:41:33Z</time>
      </trkpt>
      <trkpt lat="44.21091" lon="2.6035">
        <ele>727.37</ele>
        <time>2022-07-13T06:41:43Z</time>
      </trkpt>
      <trkpt lat="44.21063" lon="2.60347">
        <ele>726.41</ele>
        <time>2022-07-13T06:42:10Z</time>
      </trkpt>
      <trkpt lat="44.21044" lon="2.60346">
        <ele>728.34</ele>
        <time>2022-07-13T06:42:18Z</time>
      </trkpt>
      <trkpt lat="44.21034" lon="2.60344">
        <ele>728.34</ele>
        <time>2022-07-13T06:42:25Z</time>
      </trkpt>
      <trkpt lat="44.21024" lon="2.60342">
        <ele>728.34</ele>
        <time>2022-07-13T06:42:33Z</time>
      </trkpt>
      <trkpt lat="44.21015" lon="2.60342">
        <ele>727.86</ele>
        <time>2022-07-13T06:42:41Z</time>
      </trkpt>
      <trkpt lat="44.21002" lon="2.60344">
        <ele>726.89</ele>
        <time>2022-07-13T06:42:51Z</time>
      </trkpt>
      <trkpt lat="44.20991" lon="2.60347">
        <ele>725.45</ele>
        <time>2022-07-13T06:43:00Z</time>
      </trkpt>
      <trkpt lat="44.20979" lon="2.60349">
        <ele>723.53</ele>
        <time>2022-07-13T06:43:08Z</time>
      </trkpt>
      <trkpt lat="44.20967" lon="2.60351">
        <ele>722.09</ele>
        <time>2022-07-13T06:43:15Z</time>
      </trkpt>
      <trkpt lat="44.20955" lon="2.60354">
        <ele>720.65</ele>
        <time>2022-07-13T06:43:22Z</time>
      </trkpt>
      <trkpt lat="44.20943" lon="2.60356">
        <ele>718.72</ele>
        <time>2022-07-13T06:43:30Z</time>
      </trkpt>
      <trkpt lat="44.20932" lon="2.60354">
        <ele>716.32</ele>
        <time>2022-07-13T06:43:38Z</time>
      </trkpt>
      <trkpt lat="44.20912" lon="2.60353">
        <ele>711.03</ele>
        <time>2022-07-13T06:43:53Z</time>
      </trkpt>
      <trkpt lat="44.20901" lon="2.60354">
        <ele>707.67</ele>
        <time>2022-07-13T06:44:00Z</time>
      </trkpt>
      <trkpt lat="44.20884" lon="2.60357">
        <ele>705.26</ele>
        <time>2022-07-13T06:44:09Z</time>
      </trkpt>
      <trkpt lat="44.20871" lon="2.60359">
        <ele>709.11</ele>
        <time>2022-07-13T06:44:17Z</time>
      </trkpt>
      <trkpt lat="44.20861" lon="2.60353">
        <ele>708.63</ele>
        <time>2022-07-13T06:44:24Z</time>
      </trkpt>
      <trkpt lat="44.20851" lon="2.60346">
        <ele>707.19</ele>
        <time>2022-07-13T06:44:32Z</time>
      </trkpt>
      <trkpt lat="44.20841" lon="2.60343">
        <ele>706.71</ele>
        <time>2022-07-13T06:44:39Z</time>
      </trkpt>
      <trkpt lat="44.20831" lon="2.6034">
        <ele>704.78</ele>
        <time>2022-07-13T06:44:46Z</time>
      </trkpt>
      <trkpt lat="44.2082" lon="2.60336">
        <ele>702.38</ele>
        <time>2022-07-13T06:44:55Z</time>
      </trkpt>
      <trkpt lat="44.20808" lon="2.60333">
        <ele>700.94</ele>
        <time>2022-07-13T06:45:02Z</time>
      </trkpt>
      <trkpt lat="44.20796" lon="2.6033">
        <ele>699.98</ele>
        <time>2022-07-13T06:45:09Z</time>
      </trkpt>
      <trkpt lat="44.20786" lon="2.60329">
        <ele>699.98</ele>
        <time>2022-07-13T06:45:16Z</time>
      </trkpt>
      <trkpt lat="44.20776" lon="2.60324">
        <ele>700.94</ele>
        <time>2022-07-13T06:45:24Z</time>
      </trkpt>
      <trkpt lat="44.20766" lon="2.60318">
        <ele>701.42</ele>
        <time>2022-07-13T06:45:32Z</time>
      </trkpt>
      <trkpt lat="44.20755" lon="2.60315">
        <ele>702.38</ele>
        <time>2022-07-13T06:45:39Z</time>
      </trkpt>
      <trkpt lat="44.20744" lon="2.6031">
        <ele>702.86</ele>
        <time>2022-07-13T06:45:46Z</time>
      </trkpt>
      <trkpt lat="44.20732" lon="2.60307">
        <ele>703.82</ele>
        <time>2022-07-13T06:45:54Z</time>
      </trkpt>
      <trkpt lat="44.20722" lon="2.60303">
        <ele>703.82</ele>
        <time>2022-07-13T06:46:03Z</time>
      </trkpt>
      <trkpt lat="44.20711" lon="2.60299">
        <ele>703.34</ele>
        <time>2022-07-13T06:46:11Z</time>
      </trkpt>
      <trkpt lat="44.20698" lon="2.60296">
        <ele>702.38</ele>
        <time>2022-07-13T06:46:19Z</time>
      </trkpt>
      <trkpt lat="44.20685" lon="2.60289">
        <ele>701.9</ele>
        <time>2022-07-13T06:46:26Z</time>
      </trkpt>
      <trkpt lat="44.20674" lon="2.60289">
        <ele>701.9</ele>
        <time>2022-07-13T06:46:33Z</time>
      </trkpt>
      <trkpt lat="44.20664" lon="2.60287">
        <ele>702.38</ele>
        <time>2022-07-13T06:46:40Z</time>
      </trkpt>
      <trkpt lat="44.20651" lon="2.60282">
        <ele>702.38</ele>
        <time>2022-07-13T06:46:47Z</time>
      </trkpt>
      <trkpt lat="44.2064" lon="2.60277">
        <ele>702.86</ele>
        <time>2022-07-13T06:46:54Z</time>
      </trkpt>
      <trkpt lat="44.2063" lon="2.60271">
        <ele>702.38</ele>
        <time>2022-07-13T06:47:01Z</time>
      </trkpt>
      <trkpt lat="44.20618" lon="2.60268">
        <ele>701.9</ele>
        <time>2022-07-13T06:47:08Z</time>
      </trkpt>
      <trkpt lat="44.20606" lon="2.60265">
        <ele>701.42</ele>
        <time>2022-07-13T06:47:15Z</time>
      </trkpt>
      <trkpt lat="44.20596" lon="2.6026">
        <ele>700.46</ele>
        <time>2022-07-13T06:47:22Z</time>
      </trkpt>
      <trkpt lat="44.20585" lon="2.60256">
        <ele>700.46</ele>
        <time>2022-07-13T06:47:29Z</time>
      </trkpt>
      <trkpt lat="44.20575" lon="2.60252">
        <ele>699.98</ele>
        <time>2022-07-13T06:47:36Z</time>
      </trkpt>
      <trkpt lat="44.20564" lon="2.60247">
        <ele>698.05</ele>
        <time>2022-07-13T06:47:44Z</time>
      </trkpt>
      <trkpt lat="44.20553" lon="2.60243">
        <ele>697.57</ele>
        <time>2022-07-13T06:47:51Z</time>
      </trkpt>
      <trkpt lat="44.20543" lon="2.60242">
        <ele>697.09</ele>
        <time>2022-07-13T06:47:58Z</time>
      </trkpt>
      <trkpt lat="44.20533" lon="2.6024">
        <ele>697.57</ele>
        <time>2022-07-13T06:48:05Z</time>
      </trkpt>
      <trkpt lat="44.20522" lon="2.60239">
        <ele>698.05</ele>
        <time>2022-07-13T06:48:12Z</time>
      </trkpt>
      <trkpt lat="44.20512" lon="2.60236">
        <ele>697.57</ele>
        <time>2022-07-13T06:48:19Z</time>
      </trkpt>
      <trkpt lat="44.20502" lon="2.60235">
        <ele>697.09</ele>
        <time>2022-07-13T06:48:26Z</time>
      </trkpt>
      <trkpt lat="44.20491" lon="2.60232">
        <ele>696.61</ele>
        <time>2022-07-13T06:48:33Z</time>
      </trkpt>
      <trkpt lat="44.20481" lon="2.6023">
        <ele>696.61</ele>
        <time>2022-07-13T06:48:40Z</time>
      </trkpt>
      <trkpt lat="44.2047" lon="2.60227">
        <ele>696.61</ele>
        <time>2022-07-13T06:48:47Z</time>
      </trkpt>
      <trkpt lat="44.2046" lon="2.60227">
        <ele>696.13</ele>
        <time>2022-07-13T06:48:54Z</time>
      </trkpt>
      <trkpt lat="44.2045" lon="2.60226">
        <ele>695.65</ele>
        <time>2022-07-13T06:49:01Z</time>
      </trkpt>
      <trkpt lat="44.20439" lon="2.60224">
        <ele>696.13</ele>
        <time>2022-07-13T06:49:08Z</time>
      </trkpt>
      <trkpt lat="44.20428" lon="2.60221">
        <ele>696.13</ele>
        <time>2022-07-13T06:49:15Z</time>
      </trkpt>
      <trkpt lat="44.20417" lon="2.60221">
        <ele>696.61</ele>
        <time>2022-07-13T06:49:22Z</time>
      </trkpt>
      <trkpt lat="44.20408" lon="2.60216">
        <ele>696.13</ele>
        <time>2022-07-13T06:49:29Z</time>
      </trkpt>
      <trkpt lat="44.20398" lon="2.60212">
        <ele>696.13</ele>
        <time>2022-07-13T06:49:37Z</time>
      </trkpt>
      <trkpt lat="44.20388" lon="2.60208">
        <ele>695.65</ele>
        <time>2022-07-13T06:49:43Z</time>
      </trkpt>
      <trkpt lat="44.20377" lon="2.60203">
        <ele>696.13</ele>
        <time>2022-07-13T06:49:50Z</time>
      </trkpt>
      <trkpt lat="44.20367" lon="2.602">
        <ele>697.09</ele>
        <time>2022-07-13T06:49:57Z</time>
      </trkpt>
      <trkpt lat="44.20357" lon="2.60198">
        <ele>696.61</ele>
        <time>2022-07-13T06:50:04Z</time>
      </trkpt>
      <trkpt lat="44.20346" lon="2.60196">
        <ele>696.61</ele>
        <time>2022-07-13T06:50:11Z</time>
      </trkpt>
      <trkpt lat="44.20337" lon="2.60194">
        <ele>696.13</ele>
        <time>2022-07-13T06:50:17Z</time>
      </trkpt>
      <trkpt lat="44.20326" lon="2.60195">
        <ele>695.65</ele>
        <time>2022-07-13T06:50:25Z</time>
      </trkpt>
      <trkpt lat="44.20317" lon="2.60195">
        <ele>695.65</ele>
        <time>2022-07-13T06:50:32Z</time>
      </trkpt>
      <trkpt lat="44.20308" lon="2.60192">
        <ele>695.17</ele>
        <time>2022-07-13T06:50:39Z</time>
      </trkpt>
      <trkpt lat="44.20293" lon="2.60184">
        <ele>691.33</ele>
        <time>2022-07-13T06:51:34Z</time>
      </trkpt>
      <trkpt lat="44.20288" lon="2.60197">
        <ele>690.84</ele>
        <time>2022-07-13T06:51:44Z</time>
      </trkpt>
      <trkpt lat="44.20279" lon="2.60203">
        <ele>689.88</ele>
        <time>2022-07-13T06:51:52Z</time>
      </trkpt>
      <trkpt lat="44.2027" lon="2.60209">
        <ele>688.92</ele>
        <time>2022-07-13T06:52:00Z</time>
      </trkpt>
      <trkpt lat="44.20259" lon="2.60213">
        <ele>687.48</ele>
        <time>2022-07-13T06:52:08Z</time>
      </trkpt>
      <trkpt lat="44.20248" lon="2.60217">
        <ele>686.52</ele>
        <time>2022-07-13T06:52:16Z</time>
      </trkpt>
      <trkpt lat="44.20237" lon="2.6022">
        <ele>686.04</ele>
        <time>2022-07-13T06:52:24Z</time>
      </trkpt>
      <trkpt lat="44.20226" lon="2.60222">
        <ele>685.08</ele>
        <time>2022-07-13T06:52:33Z</time>
      </trkpt>
      <trkpt lat="44.20215" lon="2.60226">
        <ele>684.12</ele>
        <time>2022-07-13T06:52:41Z</time>
      </trkpt>
      <trkpt lat="44.20204" lon="2.60229">
        <ele>684.12</ele>
        <time>2022-07-13T06:52:48Z</time>
      </trkpt>
      <trkpt lat="44.20193" lon="2.60232">
        <ele>683.63</ele>
        <time>2022-07-13T06:52:56Z</time>
      </trkpt>
      <trkpt lat="44.20182" lon="2.60233">
        <ele>683.63</ele>
        <time>2022-07-13T06:53:04Z</time>
      </trkpt>
      <trkpt lat="44.20172" lon="2.6023">
        <ele>682.67</ele>
        <time>2022-07-13T06:53:13Z</time>
      </trkpt>
      <trkpt lat="44.20162" lon="2.60227">
        <ele>681.23</ele>
        <time>2022-07-13T06:53:22Z</time>
      </trkpt>
      <trkpt lat="44.2015" lon="2.60225">
        <ele>680.75</ele>
        <time>2022-07-13T06:53:30Z</time>
      </trkpt>
      <trkpt lat="44.20139" lon="2.60219">
        <ele>680.75</ele>
        <time>2022-07-13T06:53:38Z</time>
      </trkpt>
      <trkpt lat="44.20122" lon="2.60213">
        <ele>680.75</ele>
        <time>2022-07-13T06:53:56Z</time>
      </trkpt>
      <trkpt lat="44.20111" lon="2.60212">
        <ele>680.75</ele>
        <time>2022-07-13T06:54:03Z</time>
      </trkpt>
      <trkpt lat="44.20101" lon="2.60209">
        <ele>680.75</ele>
        <time>2022-07-13T06:54:11Z</time>
      </trkpt>
      <trkpt lat="44.2009" lon="2.60205">
        <ele>680.75</ele>
        <time>2022-07-13T06:54:19Z</time>
      </trkpt>
      <trkpt lat="44.20081" lon="2.60201">
        <ele>680.75</ele>
        <time>2022-07-13T06:54:26Z</time>
      </trkpt>
      <trkpt lat="44.2007" lon="2.60198">
        <ele>681.23</ele>
        <time>2022-07-13T06:54:34Z</time>
      </trkpt>
      <trkpt lat="44.20061" lon="2.60192">
        <ele>681.71</ele>
        <time>2022-07-13T06:54:41Z</time>
      </trkpt>
      <trkpt lat="44.20051" lon="2.60185">
        <ele>682.67</ele>
        <time>2022-07-13T06:54:49Z</time>
      </trkpt>
      <trkpt lat="44.20043" lon="2.60175">
        <ele>682.19</ele>
        <time>2022-07-13T06:54:57Z</time>
      </trkpt>
      <trkpt lat="44.20036" lon="2.60164">
        <ele>681.71</ele>
        <time>2022-07-13T06:55:05Z</time>
      </trkpt>
      <trkpt lat="44.20029" lon="2.60152">
        <ele>682.19</ele>
        <time>2022-07-13T06:55:12Z</time>
      </trkpt>
      <trkpt lat="44.20022" lon="2.60141">
        <ele>686.04</ele>
        <time>2022-07-13T06:55:19Z</time>
      </trkpt>
      <trkpt lat="44.20016" lon="2.60131">
        <ele>685.56</ele>
        <time>2022-07-13T06:55:27Z</time>
      </trkpt>
      <trkpt lat="44.20009" lon="2.60122">
        <ele>685.08</ele>
        <time>2022-07-13T06:55:34Z</time>
      </trkpt>
      <trkpt lat="44.20003" lon="2.60111">
        <ele>684.12</ele>
        <time>2022-07-13T06:55:41Z</time>
      </trkpt>
      <trkpt lat="44.19996" lon="2.601">
        <ele>683.15</ele>
        <time>2022-07-13T06:55:48Z</time>
      </trkpt>
      <trkpt lat="44.19989" lon="2.60088">
        <ele>682.67</ele>
        <time>2022-07-13T06:55:55Z</time>
      </trkpt>
      <trkpt lat="44.19982" lon="2.60079">
        <ele>681.71</ele>
        <time>2022-07-13T06:56:02Z</time>
      </trkpt>
      <trkpt lat="44.19974" lon="2.60069">
        <ele>680.75</ele>
        <time>2022-07-13T06:56:09Z</time>
      </trkpt>
      <trkpt lat="44.19966" lon="2.60058">
        <ele>679.79</ele>
        <time>2022-07-13T06:56:16Z</time>
      </trkpt>
      <trkpt lat="44.19958" lon="2.60049">
        <ele>679.31</ele>
        <time>2022-07-13T06:56:23Z</time>
      </trkpt>
      <trkpt lat="44.19946" lon="2.6004">
        <ele>678.35</ele>
        <time>2022-07-13T06:56:33Z</time>
      </trkpt>
      <trkpt lat="44.19935" lon="2.60033">
        <ele>678.35</ele>
        <time>2022-07-13T06:56:40Z</time>
      </trkpt>
      <trkpt lat="44.19925" lon="2.60029">
        <ele>677.39</ele>
        <time>2022-07-13T06:56:47Z</time>
      </trkpt>
      <trkpt lat="44.19916" lon="2.60026">
        <ele>676.42</ele>
        <time>2022-07-13T06:56:55Z</time>
      </trkpt>
      <trkpt lat="44.19904" lon="2.60024">
        <ele>674.5</ele>
        <time>2022-07-13T06:57:04Z</time>
      </trkpt>
      <trkpt lat="44.19892" lon="2.60022">
        <ele>673.06</ele>
        <time>2022-07-13T06:57:12Z</time>
      </trkpt>
      <trkpt lat="44.19882" lon="2.6002">
        <ele>671.62</ele>
        <time>2022-07-13T06:57:19Z</time>
      </trkpt>
      <trkpt lat="44.19872" lon="2.60018">
        <ele>670.66</ele>
        <time>2022-07-13T06:57:26Z</time>
      </trkpt>
      <trkpt lat="44.1986" lon="2.60016">
        <ele>669.22</ele>
        <time>2022-07-13T06:57:34Z</time>
      </trkpt>
      <trkpt lat="44.19849" lon="2.60014">
        <ele>668.25</ele>
        <time>2022-07-13T06:57:41Z</time>
      </trkpt>
      <trkpt lat="44.19838" lon="2.60011">
        <ele>667.77</ele>
        <time>2022-07-13T06:57:48Z</time>
      </trkpt>
      <trkpt lat="44.19828" lon="2.60009">
        <ele>667.77</ele>
        <time>2022-07-13T06:57:55Z</time>
      </trkpt>
      <trkpt lat="44.19818" lon="2.60007">
        <ele>667.29</ele>
        <time>2022-07-13T06:58:02Z</time>
      </trkpt>
      <trkpt lat="44.19805" lon="2.60002">
        <ele>668.25</ele>
        <time>2022-07-13T06:58:09Z</time>
      </trkpt>
      <trkpt lat="44.19795" lon="2.60002">
        <ele>670.66</ele>
        <time>2022-07-13T06:58:16Z</time>
      </trkpt>
      <trkpt lat="44.19784" lon="2.6">
        <ele>670.18</ele>
        <time>2022-07-13T06:58:30Z</time>
      </trkpt>
      <trkpt lat="44.19775" lon="2.6">
        <ele>669.7</ele>
        <time>2022-07-13T06:58:37Z</time>
      </trkpt>
      <trkpt lat="44.19766" lon="2.60001">
        <ele>669.22</ele>
        <time>2022-07-13T06:58:44Z</time>
      </trkpt>
      <trkpt lat="44.19757" lon="2.59999">
        <ele>668.73</ele>
        <time>2022-07-13T06:58:50Z</time>
      </trkpt>
      <trkpt lat="44.19747" lon="2.59998">
        <ele>668.73</ele>
        <time>2022-07-13T06:58:57Z</time>
      </trkpt>
      <trkpt lat="44.19736" lon="2.59993">
        <ele>670.18</ele>
        <time>2022-07-13T06:59:04Z</time>
      </trkpt>
      <trkpt lat="44.19725" lon="2.59991">
        <ele>670.66</ele>
        <time>2022-07-13T06:59:11Z</time>
      </trkpt>
      <trkpt lat="44.19715" lon="2.59989">
        <ele>670.18</ele>
        <time>2022-07-13T06:59:18Z</time>
      </trkpt>
      <trkpt lat="44.19704" lon="2.59987">
        <ele>670.18</ele>
        <time>2022-07-13T06:59:25Z</time>
      </trkpt>
      <trkpt lat="44.19693" lon="2.59986">
        <ele>670.66</ele>
        <time>2022-07-13T06:59:32Z</time>
      </trkpt>
      <trkpt lat="44.19683" lon="2.59985">
        <ele>669.7</ele>
        <time>2022-07-13T06:59:39Z</time>
      </trkpt>
      <trkpt lat="44.19673" lon="2.59984">
        <ele>668.25</ele>
        <time>2022-07-13T06:59:47Z</time>
      </trkpt>
      <trkpt lat="44.19663" lon="2.59983">
        <ele>666.81</ele>
        <time>2022-07-13T06:59:54Z</time>
      </trkpt>
      <trkpt lat="44.19653" lon="2.59982">
        <ele>665.85</ele>
        <time>2022-07-13T07:00:01Z</time>
      </trkpt>
      <trkpt lat="44.19642" lon="2.59981">
        <ele>663.93</ele>
        <time>2022-07-13T07:00:10Z</time>
      </trkpt>
      <trkpt lat="44.19631" lon="2.5998">
        <ele>662.97</ele>
        <time>2022-07-13T07:00:17Z</time>
      </trkpt>
      <trkpt lat="44.1962" lon="2.59978">
        <ele>661.52</ele>
        <time>2022-07-13T07:00:25Z</time>
      </trkpt>
      <trkpt lat="44.1961" lon="2.59976">
        <ele>660.08</ele>
        <time>2022-07-13T07:00:33Z</time>
      </trkpt>
      <trkpt lat="44.19598" lon="2.59975">
        <ele>658.64</ele>
        <time>2022-07-13T07:00:41Z</time>
      </trkpt>
      <trkpt lat="44.19587" lon="2.59974">
        <ele>657.68</ele>
        <time>2022-07-13T07:00:48Z</time>
      </trkpt>
      <trkpt lat="44.19576" lon="2.59973">
        <ele>658.16</ele>
        <time>2022-07-13T07:00:55Z</time>
      </trkpt>
      <trkpt lat="44.19567" lon="2.59973">
        <ele>659.12</ele>
        <time>2022-07-13T07:01:03Z</time>
      </trkpt>
      <trkpt lat="44.19556" lon="2.59972">
        <ele>659.6</ele>
        <time>2022-07-13T07:01:11Z</time>
      </trkpt>
      <trkpt lat="44.19544" lon="2.59971">
        <ele>659.6</ele>
        <time>2022-07-13T07:01:18Z</time>
      </trkpt>
      <trkpt lat="44.19533" lon="2.59971">
        <ele>659.6</ele>
        <time>2022-07-13T07:01:25Z</time>
      </trkpt>
      <trkpt lat="44.19523" lon="2.59971">
        <ele>659.6</ele>
        <time>2022-07-13T07:01:32Z</time>
      </trkpt>
      <trkpt lat="44.19512" lon="2.59971">
        <ele>658.64</ele>
        <time>2022-07-13T07:01:40Z</time>
      </trkpt>
      <trkpt lat="44.19502" lon="2.59968">
        <ele>658.16</ele>
        <time>2022-07-13T07:01:47Z</time>
      </trkpt>
      <trkpt lat="44.19491" lon="2.59968">
        <ele>657.68</ele>
        <time>2022-07-13T07:01:54Z</time>
      </trkpt>
      <trkpt lat="44.1948" lon="2.59968">
        <ele>657.68</ele>
        <time>2022-07-13T07:02:01Z</time>
      </trkpt>
      <trkpt lat="44.1947" lon="2.59967">
        <ele>657.2</ele>
        <time>2022-07-13T07:02:08Z</time>
      </trkpt>
      <trkpt lat="44.1946" lon="2.59965">
        <ele>658.16</ele>
        <time>2022-07-13T07:02:16Z</time>
      </trkpt>
      <trkpt lat="44.1945" lon="2.59963">
        <ele>658.16</ele>
        <time>2022-07-13T07:02:24Z</time>
      </trkpt>
      <trkpt lat="44.19436" lon="2.59959">
        <ele>662.01</ele>
        <time>2022-07-13T07:02:33Z</time>
      </trkpt>
      <trkpt lat="44.19423" lon="2.59958">
        <ele>668.73</ele>
        <time>2022-07-13T07:02:42Z</time>
      </trkpt>
      <trkpt lat="44.19413" lon="2.59963">
        <ele>674.02</ele>
        <time>2022-07-13T07:02:49Z</time>
      </trkpt>
      <trkpt lat="44.19404" lon="2.59968">
        <ele>675.46</ele>
        <time>2022-07-13T07:02:56Z</time>
      </trkpt>
      <trkpt lat="44.19394" lon="2.59969">
        <ele>676.91</ele>
        <time>2022-07-13T07:03:03Z</time>
      </trkpt>
      <trkpt lat="44.19385" lon="2.59975">
        <ele>678.83</ele>
        <time>2022-07-13T07:03:10Z</time>
      </trkpt>
      <trkpt lat="44.19377" lon="2.59984">
        <ele>679.79</ele>
        <time>2022-07-13T07:03:17Z</time>
      </trkpt>
      <trkpt lat="44.19367" lon="2.59991">
        <ele>680.27</ele>
        <time>2022-07-13T07:03:25Z</time>
      </trkpt>
      <trkpt lat="44.19358" lon="2.59996">
        <ele>681.71</ele>
        <time>2022-07-13T07:03:32Z</time>
      </trkpt>
      <trkpt lat="44.19348" lon="2.59998">
        <ele>683.15</ele>
        <time>2022-07-13T07:03:39Z</time>
      </trkpt>
      <trkpt lat="44.19339" lon="2.59999">
        <ele>684.12</ele>
        <time>2022-07-13T07:03:46Z</time>
      </trkpt>
      <trkpt lat="44.19329" lon="2.59998">
        <ele>684.6</ele>
        <time>2022-07-13T07:03:53Z</time>
      </trkpt>
      <trkpt lat="44.19319" lon="2.59997">
        <ele>685.56</ele>
        <time>2022-07-13T07:04:00Z</time>
      </trkpt>
      <trkpt lat="44.19309" lon="2.59995">
        <ele>686.04</ele>
        <time>2022-07-13T07:04:07Z</time>
      </trkpt>
      <trkpt lat="44.19299" lon="2.59995">
        <ele>686.52</ele>
        <time>2022-07-13T07:04:14Z</time>
      </trkpt>
      <trkpt lat="44.19289" lon="2.59993">
        <ele>687</ele>
        <time>2022-07-13T07:04:21Z</time>
      </trkpt>
      <trkpt lat="44.1928" lon="2.59991">
        <ele>687</ele>
        <time>2022-07-13T07:04:28Z</time>
      </trkpt>
      <trkpt lat="44.19269" lon="2.59987">
        <ele>685.56</ele>
        <time>2022-07-13T07:04:35Z</time>
      </trkpt>
      <trkpt lat="44.19259" lon="2.59984">
        <ele>686.52</ele>
        <time>2022-07-13T07:04:42Z</time>
      </trkpt>
      <trkpt lat="44.19248" lon="2.59982">
        <ele>686.52</ele>
        <time>2022-07-13T07:04:49Z</time>
      </trkpt>
      <trkpt lat="44.19239" lon="2.59978">
        <ele>686.52</ele>
        <time>2022-07-13T07:04:57Z</time>
      </trkpt>
      <trkpt lat="44.19228" lon="2.59974">
        <ele>687.48</ele>
        <time>2022-07-13T07:05:05Z</time>
      </trkpt>
      <trkpt lat="44.19218" lon="2.59971">
        <ele>687</ele>
        <time>2022-07-13T07:05:12Z</time>
      </trkpt>
      <trkpt lat="44.19209" lon="2.59967">
        <ele>686.52</ele>
        <time>2022-07-13T07:05:19Z</time>
      </trkpt>
      <trkpt lat="44.192" lon="2.59961">
        <ele>686.04</ele>
        <time>2022-07-13T07:05:26Z</time>
      </trkpt>
      <trkpt lat="44.19192" lon="2.59953">
        <ele>685.08</ele>
        <time>2022-07-13T07:05:34Z</time>
      </trkpt>
      <trkpt lat="44.19182" lon="2.59945">
        <ele>684.12</ele>
        <time>2022-07-13T07:05:42Z</time>
      </trkpt>
      <trkpt lat="44.19173" lon="2.59938">
        <ele>683.63</ele>
        <time>2022-07-13T07:05:49Z</time>
      </trkpt>
      <trkpt lat="44.19164" lon="2.5993">
        <ele>683.63</ele>
        <time>2022-07-13T07:05:56Z</time>
      </trkpt>
      <trkpt lat="44.19155" lon="2.59922">
        <ele>683.15</ele>
        <time>2022-07-13T07:06:04Z</time>
      </trkpt>
      <trkpt lat="44.19144" lon="2.59915">
        <ele>683.15</ele>
        <time>2022-07-13T07:06:11Z</time>
      </trkpt>
      <trkpt lat="44.19135" lon="2.5991">
        <ele>682.67</ele>
        <time>2022-07-13T07:06:18Z</time>
      </trkpt>
      <trkpt lat="44.19125" lon="2.59904">
        <ele>682.67</ele>
        <time>2022-07-13T07:06:25Z</time>
      </trkpt>
      <trkpt lat="44.19115" lon="2.59896">
        <ele>682.67</ele>
        <time>2022-07-13T07:06:33Z</time>
      </trkpt>
      <trkpt lat="44.19107" lon="2.59888">
        <ele>681.71</ele>
        <time>2022-07-13T07:06:41Z</time>
      </trkpt>
      <trkpt lat="44.19098" lon="2.59881">
        <ele>680.27</ele>
        <time>2022-07-13T07:06:49Z</time>
      </trkpt>
      <trkpt lat="44.19088" lon="2.59874">
        <ele>679.79</ele>
        <time>2022-07-13T07:06:57Z</time>
      </trkpt>
      <trkpt lat="44.19076" lon="2.59868">
        <ele>679.31</ele>
        <time>2022-07-13T07:07:06Z</time>
      </trkpt>
      <trkpt lat="44.19067" lon="2.59862">
        <ele>677.87</ele>
        <time>2022-07-13T07:07:14Z</time>
      </trkpt>
      <trkpt lat="44.19057" lon="2.59855">
        <ele>676.42</ele>
        <time>2022-07-13T07:07:22Z</time>
      </trkpt>
      <trkpt lat="44.19048" lon="2.59849">
        <ele>674.98</ele>
        <time>2022-07-13T07:07:31Z</time>
      </trkpt>
      <trkpt lat="44.19037" lon="2.59846">
        <ele>673.06</ele>
        <time>2022-07-13T07:07:41Z</time>
      </trkpt>
      <trkpt lat="44.19024" lon="2.5984">
        <ele>671.14</ele>
        <time>2022-07-13T07:07:49Z</time>
      </trkpt>
      <trkpt lat="44.19014" lon="2.59834">
        <ele>669.7</ele>
        <time>2022-07-13T07:07:56Z</time>
      </trkpt>
      <trkpt lat="44.19005" lon="2.59827">
        <ele>668.73</ele>
        <time>2022-07-13T07:08:04Z</time>
      </trkpt>
      <trkpt lat="44.18997" lon="2.59819">
        <ele>669.22</ele>
        <time>2022-07-13T07:08:12Z</time>
      </trkpt>
      <trkpt lat="44.18986" lon="2.59817">
        <ele>669.7</ele>
        <time>2022-07-13T07:08:20Z</time>
      </trkpt>
      <trkpt lat="44.18974" lon="2.59814">
        <ele>670.18</ele>
        <time>2022-07-13T07:08:28Z</time>
      </trkpt>
      <trkpt lat="44.18964" lon="2.59809">
        <ele>670.18</ele>
        <time>2022-07-13T07:08:36Z</time>
      </trkpt>
      <trkpt lat="44.18953" lon="2.59805">
        <ele>670.66</ele>
        <time>2022-07-13T07:08:44Z</time>
      </trkpt>
      <trkpt lat="44.18943" lon="2.59801">
        <ele>671.62</ele>
        <time>2022-07-13T07:08:51Z</time>
      </trkpt>
      <trkpt lat="44.18932" lon="2.59798">
        <ele>671.62</ele>
        <time>2022-07-13T07:08:59Z</time>
      </trkpt>
      <trkpt lat="44.18922" lon="2.59795">
        <ele>671.14</ele>
        <time>2022-07-13T07:09:07Z</time>
      </trkpt>
      <trkpt lat="44.18912" lon="2.59793">
        <ele>670.66</ele>
        <time>2022-07-13T07:09:15Z</time>
      </trkpt>
      <trkpt lat="44.189" lon="2.59789">
        <ele>670.66</ele>
        <time>2022-07-13T07:09:23Z</time>
      </trkpt>
      <trkpt lat="44.18889" lon="2.59786">
        <ele>670.66</ele>
        <time>2022-07-13T07:09:31Z</time>
      </trkpt>
      <trkpt lat="44.18878" lon="2.59785">
        <ele>670.66</ele>
        <time>2022-07-13T07:09:39Z</time>
      </trkpt>
      <trkpt lat="44.18867" lon="2.59784">
        <ele>670.66</ele>
        <time>2022-07-13T07:09:47Z</time>
      </trkpt>
      <trkpt lat="44.18856" lon="2.59781">
        <ele>669.7</ele>
        <time>2022-07-13T07:09:56Z</time>
      </trkpt>
      <trkpt lat="44.18846" lon="2.59777">
        <ele>669.7</ele>
        <time>2022-07-13T07:10:04Z</time>
      </trkpt>
      <trkpt lat="44.18836" lon="2.59773">
        <ele>670.18</ele>
        <time>2022-07-13T07:10:11Z</time>
      </trkpt>
      <trkpt lat="44.18825" lon="2.59768">
        <ele>670.18</ele>
        <time>2022-07-13T07:10:18Z</time>
      </trkpt>
      <trkpt lat="44.18815" lon="2.59764">
        <ele>669.7</ele>
        <time>2022-07-13T07:10:25Z</time>
      </trkpt>
      <trkpt lat="44.18802" lon="2.59758">
        <ele>669.22</ele>
        <time>2022-07-13T07:10:37Z</time>
      </trkpt>
      <trkpt lat="44.18794" lon="2.59752">
        <ele>668.25</ele>
        <time>2022-07-13T07:10:45Z</time>
      </trkpt>
      <trkpt lat="44.18784" lon="2.59747">
        <ele>667.77</ele>
        <time>2022-07-13T07:10:52Z</time>
      </trkpt>
      <trkpt lat="44.18774" lon="2.59743">
        <ele>668.25</ele>
        <time>2022-07-13T07:10:59Z</time>
      </trkpt>
      <trkpt lat="44.18765" lon="2.59738">
        <ele>668.25</ele>
        <time>2022-07-13T07:11:06Z</time>
      </trkpt>
      <trkpt lat="44.18756" lon="2.59733">
        <ele>668.73</ele>
        <time>2022-07-13T07:11:13Z</time>
      </trkpt>
      <trkpt lat="44.18747" lon="2.59726">
        <ele>668.73</ele>
        <time>2022-07-13T07:11:21Z</time>
      </trkpt>
      <trkpt lat="44.18738" lon="2.59719">
        <ele>667.29</ele>
        <time>2022-07-13T07:11:28Z</time>
      </trkpt>
      <trkpt lat="44.1873" lon="2.59709">
        <ele>666.33</ele>
        <time>2022-07-13T07:11:36Z</time>
      </trkpt>
      <trkpt lat="44.18722" lon="2.59702">
        <ele>664.89</ele>
        <time>2022-07-13T07:11:43Z</time>
      </trkpt>
      <trkpt lat="44.18712" lon="2.59693">
        <ele>664.89</ele>
        <time>2022-07-13T07:11:50Z</time>
      </trkpt>
      <trkpt lat="44.18702" lon="2.59688">
        <ele>664.41</ele>
        <time>2022-07-13T07:11:58Z</time>
      </trkpt>
      <trkpt lat="44.18694" lon="2.5968">
        <ele>663.45</ele>
        <time>2022-07-13T07:12:06Z</time>
      </trkpt>
      <trkpt lat="44.18686" lon="2.59671">
        <ele>661.52</ele>
        <time>2022-07-13T07:12:14Z</time>
      </trkpt>
      <trkpt lat="44.18678" lon="2.59661">
        <ele>660.08</ele>
        <time>2022-07-13T07:12:22Z</time>
      </trkpt>
      <trkpt lat="44.18671" lon="2.59652">
        <ele>658.64</ele>
        <time>2022-07-13T07:12:29Z</time>
      </trkpt>
      <trkpt lat="44.18662" lon="2.5964">
        <ele>656.72</ele>
        <time>2022-07-13T07:12:38Z</time>
      </trkpt>
      <trkpt lat="44.18654" lon="2.59626">
        <ele>654.8</ele>
        <time>2022-07-13T07:12:47Z</time>
      </trkpt>
      <trkpt lat="44.18645" lon="2.59613">
        <ele>653.83</ele>
        <time>2022-07-13T07:12:55Z</time>
      </trkpt>
      <trkpt lat="44.18635" lon="2.59604">
        <ele>654.8</ele>
        <time>2022-07-13T07:13:03Z</time>
      </trkpt>
      <trkpt lat="44.18626" lon="2.59596">
        <ele>653.35</ele>
        <time>2022-07-13T07:13:10Z</time>
      </trkpt>
      <trkpt lat="44.18619" lon="2.59587">
        <ele>650.95</ele>
        <time>2022-07-13T07:13:18Z</time>
      </trkpt>
      <trkpt lat="44.18614" lon="2.59575">
        <ele>649.03</ele>
        <time>2022-07-13T07:13:26Z</time>
      </trkpt>
      <trkpt lat="44.18602" lon="2.5956">
        <ele>648.07</ele>
        <time>2022-07-13T07:14:40Z</time>
      </trkpt>
      <trkpt lat="44.18594" lon="2.59554">
        <ele>650.47</ele>
        <time>2022-07-13T07:14:48Z</time>
      </trkpt>
      <trkpt lat="44.18593" lon="2.59539">
        <ele>650.95</ele>
        <time>2022-07-13T07:14:55Z</time>
      </trkpt>
      <trkpt lat="44.18589" lon="2.59526">
        <ele>651.43</ele>
        <time>2022-07-13T07:15:02Z</time>
      </trkpt>
      <trkpt lat="44.18583" lon="2.59513">
        <ele>650.95</ele>
        <time>2022-07-13T07:15:11Z</time>
      </trkpt>
      <trkpt lat="44.18578" lon="2.59495">
        <ele>650.47</ele>
        <time>2022-07-13T07:15:21Z</time>
      </trkpt>
      <trkpt lat="44.18574" lon="2.59482">
        <ele>649.99</ele>
        <time>2022-07-13T07:15:29Z</time>
      </trkpt>
      <trkpt lat="44.18568" lon="2.59468">
        <ele>649.51</ele>
        <time>2022-07-13T07:15:39Z</time>
      </trkpt>
      <trkpt lat="44.18564" lon="2.59454">
        <ele>649.03</ele>
        <time>2022-07-13T07:15:46Z</time>
      </trkpt>
      <trkpt lat="44.18558" lon="2.59441">
        <ele>648.55</ele>
        <time>2022-07-13T07:15:53Z</time>
      </trkpt>
      <trkpt lat="44.18554" lon="2.59427">
        <ele>647.1</ele>
        <time>2022-07-13T07:16:00Z</time>
      </trkpt>
      <trkpt lat="44.1855" lon="2.59414">
        <ele>645.66</ele>
        <time>2022-07-13T07:16:08Z</time>
      </trkpt>
      <trkpt lat="44.18546" lon="2.594">
        <ele>643.74</ele>
        <time>2022-07-13T07:16:16Z</time>
      </trkpt>
      <trkpt lat="44.18533" lon="2.59346">
        <ele>640.38</ele>
        <time>2022-07-13T07:16:55Z</time>
      </trkpt>
      <trkpt lat="44.18528" lon="2.59319">
        <ele>639.89</ele>
        <time>2022-07-13T07:17:03Z</time>
      </trkpt>
      <trkpt lat="44.1852" lon="2.59275">
        <ele>630.76</ele>
        <time>2022-07-13T07:17:29Z</time>
      </trkpt>
      <trkpt lat="44.18506" lon="2.59248">
        <ele>625.96</ele>
        <time>2022-07-13T07:17:47Z</time>
      </trkpt>
      <trkpt lat="44.18496" lon="2.59232">
        <ele>624.51</ele>
        <time>2022-07-13T07:17:55Z</time>
      </trkpt>
      <trkpt lat="44.1849" lon="2.5922">
        <ele>621.15</ele>
        <time>2022-07-13T07:18:03Z</time>
      </trkpt>
      <trkpt lat="44.18486" lon="2.59207">
        <ele>617.78</ele>
        <time>2022-07-13T07:18:11Z</time>
      </trkpt>
      <trkpt lat="44.1848" lon="2.59193">
        <ele>613.94</ele>
        <time>2022-07-13T07:18:20Z</time>
      </trkpt>
      <trkpt lat="44.18481" lon="2.59174">
        <ele>610.09</ele>
        <time>2022-07-13T07:18:30Z</time>
      </trkpt>
      <trkpt lat="44.18472" lon="2.59148">
        <ele>604.33</ele>
        <time>2022-07-13T07:18:46Z</time>
      </trkpt>
      <trkpt lat="44.18466" lon="2.5913">
        <ele>601.92</ele>
        <time>2022-07-13T07:18:54Z</time>
      </trkpt>
      <trkpt lat="44.18461" lon="2.59115">
        <ele>599.52</ele>
        <time>2022-07-13T07:19:02Z</time>
      </trkpt>
      <trkpt lat="44.18452" lon="2.5909">
        <ele>594.71</ele>
        <time>2022-07-13T07:19:19Z</time>
      </trkpt>
      <trkpt lat="44.18446" lon="2.59072">
        <ele>592.79</ele>
        <time>2022-07-13T07:19:27Z</time>
      </trkpt>
      <trkpt lat="44.1843" lon="2.59049">
        <ele>602.88</ele>
        <time>2022-07-13T07:20:06Z</time>
      </trkpt>
      <trkpt lat="44.18414" lon="2.59032">
        <ele>601.44</ele>
        <time>2022-07-13T07:20:22Z</time>
      </trkpt>
      <trkpt lat="44.18399" lon="2.59018">
        <ele>600.48</ele>
        <time>2022-07-13T07:20:33Z</time>
      </trkpt>
      <trkpt lat="44.18387" lon="2.59008">
        <ele>599.52</ele>
        <time>2022-07-13T07:20:41Z</time>
      </trkpt>
      <trkpt lat="44.18378" lon="2.58996">
        <ele>598.56</ele>
        <time>2022-07-13T07:20:49Z</time>
      </trkpt>
      <trkpt lat="44.18368" lon="2.58984">
        <ele>597.6</ele>
        <time>2022-07-13T07:20:59Z</time>
      </trkpt>
      <trkpt lat="44.18329" lon="2.5894">
        <ele>611.06</ele>
        <time>2022-07-13T07:31:27Z</time>
      </trkpt>
      <trkpt lat="44.18242" lon="2.59249">
        <ele>615.38</ele>
        <time>2022-07-13T07:34:57Z</time>
      </trkpt>
      <trkpt lat="44.1821" lon="2.5929">
        <ele>622.11</ele>
        <time>2022-07-13T07:35:27Z</time>
      </trkpt>
      <trkpt lat="44.18201" lon="2.59302">
        <ele>623.55</ele>
        <time>2022-07-13T07:35:37Z</time>
      </trkpt>
      <trkpt lat="44.1819" lon="2.59315">
        <ele>623.55</ele>
        <time>2022-07-13T07:35:48Z</time>
      </trkpt>
      <trkpt lat="44.18181" lon="2.59326">
        <ele>625.47</ele>
        <time>2022-07-13T07:35:58Z</time>
      </trkpt>
      <trkpt lat="44.18171" lon="2.59336">
        <ele>625.96</ele>
        <time>2022-07-13T07:36:06Z</time>
      </trkpt>
      <trkpt lat="44.18163" lon="2.59346">
        <ele>625.47</ele>
        <time>2022-07-13T07:36:14Z</time>
      </trkpt>
      <trkpt lat="44.18153" lon="2.59352">
        <ele>624.99</ele>
        <time>2022-07-13T07:36:22Z</time>
      </trkpt>
      <trkpt lat="44.18144" lon="2.59359">
        <ele>625.47</ele>
        <time>2022-07-13T07:36:27Z</time>
      </trkpt>
      <trkpt lat="44.18133" lon="2.59369">
        <ele>626.44</ele>
        <time>2022-07-13T07:36:35Z</time>
      </trkpt>
      <trkpt lat="44.18122" lon="2.59377">
        <ele>628.36</ele>
        <time>2022-07-13T07:36:44Z</time>
      </trkpt>
      <trkpt lat="44.18111" lon="2.59384">
        <ele>629.32</ele>
        <time>2022-07-13T07:36:53Z</time>
      </trkpt>
      <trkpt lat="44.18101" lon="2.59389">
        <ele>629.8</ele>
        <time>2022-07-13T07:37:00Z</time>
      </trkpt>
      <trkpt lat="44.1809" lon="2.59397">
        <ele>630.76</ele>
        <time>2022-07-13T07:37:07Z</time>
      </trkpt>
      <trkpt lat="44.1808" lon="2.59406">
        <ele>633.17</ele>
        <time>2022-07-13T07:37:17Z</time>
      </trkpt>
      <trkpt lat="44.1807" lon="2.59413">
        <ele>634.61</ele>
        <time>2022-07-13T07:37:24Z</time>
      </trkpt>
      <trkpt lat="44.18062" lon="2.5942">
        <ele>635.09</ele>
        <time>2022-07-13T07:37:31Z</time>
      </trkpt>
      <trkpt lat="44.18054" lon="2.59427">
        <ele>635.57</ele>
        <time>2022-07-13T07:37:38Z</time>
      </trkpt>
      <trkpt lat="44.18044" lon="2.59432">
        <ele>636.05</ele>
        <time>2022-07-13T07:37:46Z</time>
      </trkpt>
      <trkpt lat="44.18033" lon="2.59435">
        <ele>636.53</ele>
        <time>2022-07-13T07:37:54Z</time>
      </trkpt>
      <trkpt lat="44.18021" lon="2.59439">
        <ele>637.49</ele>
        <time>2022-07-13T07:38:02Z</time>
      </trkpt>
      <trkpt lat="44.1801" lon="2.5944">
        <ele>637.97</ele>
        <time>2022-07-13T07:38:09Z</time>
      </trkpt>
      <trkpt lat="44.18" lon="2.5944">
        <ele>638.45</ele>
        <time>2022-07-13T07:38:16Z</time>
      </trkpt>
      <trkpt lat="44.17988" lon="2.59436">
        <ele>638.93</ele>
        <time>2022-07-13T07:38:23Z</time>
      </trkpt>
      <trkpt lat="44.17977" lon="2.59435">
        <ele>638.93</ele>
        <time>2022-07-13T07:38:30Z</time>
      </trkpt>
      <trkpt lat="44.17966" lon="2.59435">
        <ele>639.41</ele>
        <time>2022-07-13T07:38:38Z</time>
      </trkpt>
      <trkpt lat="44.17955" lon="2.59434">
        <ele>639.89</ele>
        <time>2022-07-13T07:38:45Z</time>
      </trkpt>
      <trkpt lat="44.17944" lon="2.59433">
        <ele>639.89</ele>
        <time>2022-07-13T07:38:52Z</time>
      </trkpt>
      <trkpt lat="44.17932" lon="2.59431">
        <ele>640.38</ele>
        <time>2022-07-13T07:38:59Z</time>
      </trkpt>
      <trkpt lat="44.17923" lon="2.59429">
        <ele>639.89</ele>
        <time>2022-07-13T07:39:06Z</time>
      </trkpt>
      <trkpt lat="44.17911" lon="2.59429">
        <ele>639.89</ele>
        <time>2022-07-13T07:39:13Z</time>
      </trkpt>
      <trkpt lat="44.179" lon="2.59431">
        <ele>640.86</ele>
        <time>2022-07-13T07:39:20Z</time>
      </trkpt>
      <trkpt lat="44.1789" lon="2.59432">
        <ele>641.34</ele>
        <time>2022-07-13T07:39:27Z</time>
      </trkpt>
      <trkpt lat="44.17881" lon="2.59432">
        <ele>641.82</ele>
        <time>2022-07-13T07:39:33Z</time>
      </trkpt>
      <trkpt lat="44.1787" lon="2.59432">
        <ele>642.78</ele>
        <time>2022-07-13T07:39:39Z</time>
      </trkpt>
      <trkpt lat="44.1786" lon="2.59432">
        <ele>643.26</ele>
        <time>2022-07-13T07:39:46Z</time>
      </trkpt>
      <trkpt lat="44.1785" lon="2.59433">
        <ele>643.74</ele>
        <time>2022-07-13T07:39:53Z</time>
      </trkpt>
      <trkpt lat="44.17839" lon="2.59433">
        <ele>644.7</ele>
        <time>2022-07-13T07:40:00Z</time>
      </trkpt>
      <trkpt lat="44.17829" lon="2.59433">
        <ele>649.03</ele>
        <time>2022-07-13T07:40:07Z</time>
      </trkpt>
      <trkpt lat="44.17819" lon="2.59436">
        <ele>654.8</ele>
        <time>2022-07-13T07:40:18Z</time>
      </trkpt>
      <trkpt lat="44.17809" lon="2.59436">
        <ele>656.24</ele>
        <time>2022-07-13T07:40:42Z</time>
      </trkpt>
      <trkpt lat="44.17798" lon="2.59436">
        <ele>657.2</ele>
        <time>2022-07-13T07:40:49Z</time>
      </trkpt>
      <trkpt lat="44.17789" lon="2.59435">
        <ele>658.16</ele>
        <time>2022-07-13T07:40:55Z</time>
      </trkpt>
      <trkpt lat="44.1778" lon="2.59436">
        <ele>659.12</ele>
        <time>2022-07-13T07:41:01Z</time>
      </trkpt>
      <trkpt lat="44.1777" lon="2.59439">
        <ele>660.08</ele>
        <time>2022-07-13T07:41:08Z</time>
      </trkpt>
      <trkpt lat="44.1776" lon="2.59442">
        <ele>661.04</ele>
        <time>2022-07-13T07:41:15Z</time>
      </trkpt>
      <trkpt lat="44.17751" lon="2.59447">
        <ele>662.01</ele>
        <time>2022-07-13T07:41:22Z</time>
      </trkpt>
      <trkpt lat="44.17741" lon="2.59451">
        <ele>662.97</ele>
        <time>2022-07-13T07:41:29Z</time>
      </trkpt>
      <trkpt lat="44.17731" lon="2.59455">
        <ele>663.45</ele>
        <time>2022-07-13T07:41:36Z</time>
      </trkpt>
      <trkpt lat="44.17721" lon="2.59459">
        <ele>663.45</ele>
        <time>2022-07-13T07:41:43Z</time>
      </trkpt>
      <trkpt lat="44.1771" lon="2.59462">
        <ele>662.97</ele>
        <time>2022-07-13T07:41:51Z</time>
      </trkpt>
      <trkpt lat="44.177" lon="2.59464">
        <ele>662.01</ele>
        <time>2022-07-13T07:41:59Z</time>
      </trkpt>
      <trkpt lat="44.1769" lon="2.59467">
        <ele>661.04</ele>
        <time>2022-07-13T07:42:06Z</time>
      </trkpt>
      <trkpt lat="44.17679" lon="2.59469">
        <ele>661.04</ele>
        <time>2022-07-13T07:42:13Z</time>
      </trkpt>
      <trkpt lat="44.17668" lon="2.59468">
        <ele>661.04</ele>
        <time>2022-07-13T07:42:20Z</time>
      </trkpt>
      <trkpt lat="44.17658" lon="2.59466">
        <ele>661.52</ele>
        <time>2022-07-13T07:42:27Z</time>
      </trkpt>
      <trkpt lat="44.17649" lon="2.59462">
        <ele>662.01</ele>
        <time>2022-07-13T07:42:34Z</time>
      </trkpt>
      <trkpt lat="44.17638" lon="2.59458">
        <ele>662.01</ele>
        <time>2022-07-13T07:42:41Z</time>
      </trkpt>
      <trkpt lat="44.17628" lon="2.59455">
        <ele>662.97</ele>
        <time>2022-07-13T07:42:48Z</time>
      </trkpt>
      <trkpt lat="44.17617" lon="2.59451">
        <ele>662.97</ele>
        <time>2022-07-13T07:42:55Z</time>
      </trkpt>
      <trkpt lat="44.17607" lon="2.59445">
        <ele>664.41</ele>
        <time>2022-07-13T07:43:02Z</time>
      </trkpt>
      <trkpt lat="44.17598" lon="2.59441">
        <ele>664.41</ele>
        <time>2022-07-13T07:43:09Z</time>
      </trkpt>
      <trkpt lat="44.17588" lon="2.59439">
        <ele>664.89</ele>
        <time>2022-07-13T07:43:16Z</time>
      </trkpt>
      <trkpt lat="44.17579" lon="2.59436">
        <ele>664.41</ele>
        <time>2022-07-13T07:43:22Z</time>
      </trkpt>
      <trkpt lat="44.1757" lon="2.59432">
        <ele>664.41</ele>
        <time>2022-07-13T07:43:28Z</time>
      </trkpt>
      <trkpt lat="44.1756" lon="2.5943">
        <ele>663.45</ele>
        <time>2022-07-13T07:43:36Z</time>
      </trkpt>
      <trkpt lat="44.17541" lon="2.59417">
        <ele>664.89</ele>
        <time>2022-07-13T07:44:00Z</time>
      </trkpt>
      <trkpt lat="44.1753" lon="2.59412">
        <ele>663.93</ele>
        <time>2022-07-13T07:44:08Z</time>
      </trkpt>
      <trkpt lat="44.17522" lon="2.59405">
        <ele>662.97</ele>
        <time>2022-07-13T07:44:15Z</time>
      </trkpt>
      <trkpt lat="44.17513" lon="2.59397">
        <ele>662.97</ele>
        <time>2022-07-13T07:44:23Z</time>
      </trkpt>
      <trkpt lat="44.17505" lon="2.59386">
        <ele>663.45</ele>
        <time>2022-07-13T07:44:31Z</time>
      </trkpt>
      <trkpt lat="44.17495" lon="2.59374">
        <ele>664.89</ele>
        <time>2022-07-13T07:44:40Z</time>
      </trkpt>
      <trkpt lat="44.17484" lon="2.59366">
        <ele>666.33</ele>
        <time>2022-07-13T07:44:48Z</time>
      </trkpt>
      <trkpt lat="44.17474" lon="2.59364">
        <ele>671.62</ele>
        <time>2022-07-13T07:44:57Z</time>
      </trkpt>
      <trkpt lat="44.17464" lon="2.59374">
        <ele>674.5</ele>
        <time>2022-07-13T07:45:05Z</time>
      </trkpt>
      <trkpt lat="44.17457" lon="2.59386">
        <ele>674.98</ele>
        <time>2022-07-13T07:45:15Z</time>
      </trkpt>
      <trkpt lat="44.17449" lon="2.594">
        <ele>674.98</ele>
        <time>2022-07-13T07:45:24Z</time>
      </trkpt>
      <trkpt lat="44.1744" lon="2.59412">
        <ele>678.35</ele>
        <time>2022-07-13T07:45:32Z</time>
      </trkpt>
      <trkpt lat="44.17434" lon="2.59422">
        <ele>680.27</ele>
        <time>2022-07-13T07:45:41Z</time>
      </trkpt>
      <trkpt lat="44.17417" lon="2.59442">
        <ele>682.67</ele>
        <time>2022-07-13T07:45:57Z</time>
      </trkpt>
      <trkpt lat="44.17409" lon="2.59459">
        <ele>682.67</ele>
        <time>2022-07-13T07:46:06Z</time>
      </trkpt>
      <trkpt lat="44.174" lon="2.59471">
        <ele>681.71</ele>
        <time>2022-07-13T07:46:14Z</time>
      </trkpt>
      <trkpt lat="44.17392" lon="2.59484">
        <ele>681.23</ele>
        <time>2022-07-13T07:46:23Z</time>
      </trkpt>
      <trkpt lat="44.17384" lon="2.59495">
        <ele>680.27</ele>
        <time>2022-07-13T07:46:31Z</time>
      </trkpt>
      <trkpt lat="44.17376" lon="2.59509">
        <ele>678.83</ele>
        <time>2022-07-13T07:46:40Z</time>
      </trkpt>
      <trkpt lat="44.17368" lon="2.59524">
        <ele>676.91</ele>
        <time>2022-07-13T07:46:49Z</time>
      </trkpt>
      <trkpt lat="44.17363" lon="2.59541">
        <ele>675.94</ele>
        <time>2022-07-13T07:46:58Z</time>
      </trkpt>
      <trkpt lat="44.17337" lon="2.59617">
        <ele>671.62</ele>
        <time>2022-07-13T07:47:47Z</time>
      </trkpt>
      <trkpt lat="44.17319" lon="2.5963">
        <ele>675.46</ele>
        <time>2022-07-13T07:47:56Z</time>
      </trkpt>
      <trkpt lat="44.17299" lon="2.59641">
        <ele>678.35</ele>
        <time>2022-07-13T07:48:11Z</time>
      </trkpt>
      <trkpt lat="44.17287" lon="2.59659">
        <ele>679.31</ele>
        <time>2022-07-13T07:48:21Z</time>
      </trkpt>
      <trkpt lat="44.17272" lon="2.5969">
        <ele>672.1</ele>
        <time>2022-07-13T07:48:43Z</time>
      </trkpt>
      <trkpt lat="44.17266" lon="2.59711">
        <ele>680.75</ele>
        <time>2022-07-13T07:48:51Z</time>
      </trkpt>
      <trkpt lat="44.17261" lon="2.59739">
        <ele>687.96</ele>
        <time>2022-07-13T07:49:06Z</time>
      </trkpt>
      <trkpt lat="44.17237" lon="2.59804">
        <ele>685.56</ele>
        <time>2022-07-13T07:49:40Z</time>
      </trkpt>
      <trkpt lat="44.17235" lon="2.5982">
        <ele>684.12</ele>
        <time>2022-07-13T07:49:48Z</time>
      </trkpt>
      <trkpt lat="44.17197" lon="2.59942">
        <ele>663.93</ele>
        <time>2022-07-13T07:50:58Z</time>
      </trkpt>
      <trkpt lat="44.17157" lon="2.60001">
        <ele>673.54</ele>
        <time>2022-07-13T07:52:07Z</time>
      </trkpt>
      <trkpt lat="44.17152" lon="2.60017">
        <ele>671.62</ele>
        <time>2022-07-13T07:52:16Z</time>
      </trkpt>
      <trkpt lat="44.17149" lon="2.60039">
        <ele>667.29</ele>
        <time>2022-07-13T07:52:27Z</time>
      </trkpt>
      <trkpt lat="44.17146" lon="2.60058">
        <ele>664.41</ele>
        <time>2022-07-13T07:52:37Z</time>
      </trkpt>
      <trkpt lat="44.17141" lon="2.60075">
        <ele>662.01</ele>
        <time>2022-07-13T07:52:46Z</time>
      </trkpt>
      <trkpt lat="44.17139" lon="2.6009">
        <ele>659.6</ele>
        <time>2022-07-13T07:52:54Z</time>
      </trkpt>
      <trkpt lat="44.17134" lon="2.60104">
        <ele>655.76</ele>
        <time>2022-07-13T07:53:03Z</time>
      </trkpt>
      <trkpt lat="44.1713" lon="2.60118">
        <ele>650.95</ele>
        <time>2022-07-13T07:53:12Z</time>
      </trkpt>
      <trkpt lat="44.17126" lon="2.60129">
        <ele>644.7</ele>
        <time>2022-07-13T07:53:21Z</time>
      </trkpt>
      <trkpt lat="44.17121" lon="2.6014">
        <ele>645.18</ele>
        <time>2022-07-13T07:53:27Z</time>
      </trkpt>
      <trkpt lat="44.17114" lon="2.60152">
        <ele>646.62</ele>
        <time>2022-07-13T07:53:33Z</time>
      </trkpt>
      <trkpt lat="44.17107" lon="2.60164">
        <ele>647.59</ele>
        <time>2022-07-13T07:53:39Z</time>
      </trkpt>
      <trkpt lat="44.171" lon="2.60178">
        <ele>647.59</ele>
        <time>2022-07-13T07:53:46Z</time>
      </trkpt>
      <trkpt lat="44.17096" lon="2.6019">
        <ele>647.1</ele>
        <time>2022-07-13T07:53:53Z</time>
      </trkpt>
      <trkpt lat="44.17094" lon="2.60207">
        <ele>646.62</ele>
        <time>2022-07-13T07:54:01Z</time>
      </trkpt>
      <trkpt lat="44.17092" lon="2.60223">
        <ele>646.14</ele>
        <time>2022-07-13T07:54:09Z</time>
      </trkpt>
      <trkpt lat="44.17091" lon="2.60239">
        <ele>644.22</ele>
        <time>2022-07-13T07:54:16Z</time>
      </trkpt>
      <trkpt lat="44.17086" lon="2.60253">
        <ele>643.26</ele>
        <time>2022-07-13T07:54:25Z</time>
      </trkpt>
      <trkpt lat="44.17076" lon="2.60271">
        <ele>640.38</ele>
        <time>2022-07-13T07:54:38Z</time>
      </trkpt>
      <trkpt lat="44.17066" lon="2.60303">
        <ele>634.13</ele>
        <time>2022-07-13T07:54:56Z</time>
      </trkpt>
      <trkpt lat="44.17046" lon="2.6037">
        <ele>609.13</ele>
        <time>2022-07-13T07:57:47Z</time>
      </trkpt>
      <trkpt lat="44.17032" lon="2.60384">
        <ele>612.02</ele>
        <time>2022-07-13T07:57:53Z</time>
      </trkpt>
      <trkpt lat="44.1702" lon="2.60395">
        <ele>616.34</ele>
        <time>2022-07-13T07:58:01Z</time>
      </trkpt>
      <trkpt lat="44.17006" lon="2.60408">
        <ele>623.07</ele>
        <time>2022-07-13T07:58:12Z</time>
      </trkpt>
      <trkpt lat="44.16997" lon="2.60421">
        <ele>626.44</ele>
        <time>2022-07-13T07:58:21Z</time>
      </trkpt>
      <trkpt lat="44.1699" lon="2.60435">
        <ele>628.84</ele>
        <time>2022-07-13T07:58:29Z</time>
      </trkpt>
      <trkpt lat="44.16983" lon="2.60449">
        <ele>631.24</ele>
        <time>2022-07-13T07:58:38Z</time>
      </trkpt>
      <trkpt lat="44.16974" lon="2.60461">
        <ele>633.17</ele>
        <time>2022-07-13T07:58:48Z</time>
      </trkpt>
      <trkpt lat="44.16966" lon="2.60475">
        <ele>635.09</ele>
        <time>2022-07-13T07:58:57Z</time>
      </trkpt>
      <trkpt lat="44.1696" lon="2.6049">
        <ele>636.53</ele>
        <time>2022-07-13T07:59:06Z</time>
      </trkpt>
      <trkpt lat="44.16954" lon="2.60503">
        <ele>637.01</ele>
        <time>2022-07-13T07:59:15Z</time>
      </trkpt>
      <trkpt lat="44.16949" lon="2.60518">
        <ele>636.53</ele>
        <time>2022-07-13T07:59:23Z</time>
      </trkpt>
      <trkpt lat="44.16943" lon="2.60533">
        <ele>636.05</ele>
        <time>2022-07-13T07:59:32Z</time>
      </trkpt>
      <trkpt lat="44.16938" lon="2.60548">
        <ele>636.05</ele>
        <time>2022-07-13T07:59:40Z</time>
      </trkpt>
      <trkpt lat="44.16931" lon="2.60566">
        <ele>636.05</ele>
        <time>2022-07-13T07:59:52Z</time>
      </trkpt>
      <trkpt lat="44.16924" lon="2.60588">
        <ele>638.45</ele>
        <time>2022-07-13T08:00:01Z</time>
      </trkpt>
      <trkpt lat="44.16916" lon="2.60604">
        <ele>640.86</ele>
        <time>2022-07-13T08:00:09Z</time>
      </trkpt>
      <trkpt lat="44.1691" lon="2.60621">
        <ele>641.82</ele>
        <time>2022-07-13T08:00:17Z</time>
      </trkpt>
      <trkpt lat="44.16904" lon="2.60636">
        <ele>643.26</ele>
        <time>2022-07-13T08:00:25Z</time>
      </trkpt>
      <trkpt lat="44.169" lon="2.60651">
        <ele>644.22</ele>
        <time>2022-07-13T08:00:34Z</time>
      </trkpt>
      <trkpt lat="44.16896" lon="2.60667">
        <ele>644.7</ele>
        <time>2022-07-13T08:00:43Z</time>
      </trkpt>
      <trkpt lat="44.16887" lon="2.6068">
        <ele>646.14</ele>
        <time>2022-07-13T08:00:50Z</time>
      </trkpt>
      <trkpt lat="44.16878" lon="2.60691">
        <ele>647.59</ele>
        <time>2022-07-13T08:00:57Z</time>
      </trkpt>
      <trkpt lat="44.16871" lon="2.607">
        <ele>649.03</ele>
        <time>2022-07-13T08:01:04Z</time>
      </trkpt>
      <trkpt lat="44.16862" lon="2.60711">
        <ele>651.43</ele>
        <time>2022-07-13T08:01:10Z</time>
      </trkpt>
      <trkpt lat="44.16853" lon="2.60721">
        <ele>652.87</ele>
        <time>2022-07-13T08:01:17Z</time>
      </trkpt>
      <trkpt lat="44.16846" lon="2.6073">
        <ele>654.31</ele>
        <time>2022-07-13T08:01:24Z</time>
      </trkpt>
      <trkpt lat="44.16839" lon="2.6074">
        <ele>655.76</ele>
        <time>2022-07-13T08:01:31Z</time>
      </trkpt>
      <trkpt lat="44.16832" lon="2.60751">
        <ele>657.68</ele>
        <time>2022-07-13T08:01:38Z</time>
      </trkpt>
      <trkpt lat="44.16824" lon="2.60758">
        <ele>659.12</ele>
        <time>2022-07-13T08:01:45Z</time>
      </trkpt>
      <trkpt lat="44.16817" lon="2.60768">
        <ele>661.04</ele>
        <time>2022-07-13T08:01:52Z</time>
      </trkpt>
      <trkpt lat="44.1681" lon="2.60777">
        <ele>662.97</ele>
        <time>2022-07-13T08:01:59Z</time>
      </trkpt>
      <trkpt lat="44.16802" lon="2.60786">
        <ele>664.89</ele>
        <time>2022-07-13T08:02:06Z</time>
      </trkpt>
      <trkpt lat="44.16794" lon="2.60795">
        <ele>666.81</ele>
        <time>2022-07-13T08:02:13Z</time>
      </trkpt>
      <trkpt lat="44.16787" lon="2.60804">
        <ele>668.73</ele>
        <time>2022-07-13T08:02:20Z</time>
      </trkpt>
      <trkpt lat="44.16779" lon="2.60813">
        <ele>670.18</ele>
        <time>2022-07-13T08:02:29Z</time>
      </trkpt>
      <trkpt lat="44.16763" lon="2.60845">
        <ele>674.98</ele>
        <time>2022-07-13T08:02:59Z</time>
      </trkpt>
      <trkpt lat="44.16754" lon="2.60862">
        <ele>676.42</ele>
        <time>2022-07-13T08:03:08Z</time>
      </trkpt>
      <trkpt lat="44.16743" lon="2.60876">
        <ele>677.39</ele>
        <time>2022-07-13T08:03:17Z</time>
      </trkpt>
      <trkpt lat="44.16733" lon="2.60891">
        <ele>678.35</ele>
        <time>2022-07-13T08:03:22Z</time>
      </trkpt>
      <trkpt lat="44.1672" lon="2.60907">
        <ele>681.23</ele>
        <time>2022-07-13T08:03:29Z</time>
      </trkpt>
      <trkpt lat="44.16712" lon="2.60918">
        <ele>684.6</ele>
        <time>2022-07-13T08:03:37Z</time>
      </trkpt>
      <trkpt lat="44.16703" lon="2.60925">
        <ele>687.48</ele>
        <time>2022-07-13T08:03:45Z</time>
      </trkpt>
      <trkpt lat="44.16697" lon="2.60935">
        <ele>689.88</ele>
        <time>2022-07-13T08:03:52Z</time>
      </trkpt>
      <trkpt lat="44.16692" lon="2.60949">
        <ele>691.33</ele>
        <time>2022-07-13T08:03:59Z</time>
      </trkpt>
      <trkpt lat="44.16687" lon="2.60962">
        <ele>692.29</ele>
        <time>2022-07-13T08:04:06Z</time>
      </trkpt>
      <trkpt lat="44.16682" lon="2.60975">
        <ele>692.29</ele>
        <time>2022-07-13T08:04:13Z</time>
      </trkpt>
      <trkpt lat="44.16677" lon="2.60987">
        <ele>692.29</ele>
        <time>2022-07-13T08:04:20Z</time>
      </trkpt>
      <trkpt lat="44.16673" lon="2.61">
        <ele>691.81</ele>
        <time>2022-07-13T08:04:27Z</time>
      </trkpt>
      <trkpt lat="44.16668" lon="2.61011">
        <ele>691.81</ele>
        <time>2022-07-13T08:04:34Z</time>
      </trkpt>
      <trkpt lat="44.16664" lon="2.61024">
        <ele>692.29</ele>
        <time>2022-07-13T08:04:41Z</time>
      </trkpt>
      <trkpt lat="44.1666" lon="2.61039">
        <ele>692.77</ele>
        <time>2022-07-13T08:04:48Z</time>
      </trkpt>
      <trkpt lat="44.16657" lon="2.61051">
        <ele>693.25</ele>
        <time>2022-07-13T08:04:55Z</time>
      </trkpt>
      <trkpt lat="44.16655" lon="2.61066">
        <ele>693.73</ele>
        <time>2022-07-13T08:05:03Z</time>
      </trkpt>
      <trkpt lat="44.16652" lon="2.6108">
        <ele>694.69</ele>
        <time>2022-07-13T08:05:10Z</time>
      </trkpt>
      <trkpt lat="44.16647" lon="2.61092">
        <ele>695.17</ele>
        <time>2022-07-13T08:05:17Z</time>
      </trkpt>
      <trkpt lat="44.16643" lon="2.61104">
        <ele>695.17</ele>
        <time>2022-07-13T08:05:24Z</time>
      </trkpt>
      <trkpt lat="44.16638" lon="2.6112">
        <ele>695.17</ele>
        <time>2022-07-13T08:05:36Z</time>
      </trkpt>
      <trkpt lat="44.16633" lon="2.61132">
        <ele>695.17</ele>
        <time>2022-07-13T08:05:42Z</time>
      </trkpt>
      <trkpt lat="44.16629" lon="2.61145">
        <ele>695.65</ele>
        <time>2022-07-13T08:05:49Z</time>
      </trkpt>
      <trkpt lat="44.16625" lon="2.61158">
        <ele>696.13</ele>
        <time>2022-07-13T08:05:55Z</time>
      </trkpt>
      <trkpt lat="44.16622" lon="2.61171">
        <ele>696.13</ele>
        <time>2022-07-13T08:06:02Z</time>
      </trkpt>
      <trkpt lat="44.16619" lon="2.61185">
        <ele>697.09</ele>
        <time>2022-07-13T08:06:10Z</time>
      </trkpt>
      <trkpt lat="44.16616" lon="2.612">
        <ele>697.57</ele>
        <time>2022-07-13T08:06:18Z</time>
      </trkpt>
      <trkpt lat="44.16612" lon="2.61214">
        <ele>698.53</ele>
        <time>2022-07-13T08:06:25Z</time>
      </trkpt>
      <trkpt lat="44.16608" lon="2.61228">
        <ele>699.5</ele>
        <time>2022-07-13T08:06:31Z</time>
      </trkpt>
      <trkpt lat="44.16602" lon="2.6124">
        <ele>699.98</ele>
        <time>2022-07-13T08:06:35Z</time>
      </trkpt>
      <trkpt lat="44.16596" lon="2.61251">
        <ele>700.46</ele>
        <time>2022-07-13T08:06:40Z</time>
      </trkpt>
      <trkpt lat="44.16591" lon="2.61263">
        <ele>701.42</ele>
        <time>2022-07-13T08:06:47Z</time>
      </trkpt>
      <trkpt lat="44.16584" lon="2.61275">
        <ele>702.38</ele>
        <time>2022-07-13T08:06:54Z</time>
      </trkpt>
      <trkpt lat="44.16578" lon="2.61286">
        <ele>702.86</ele>
        <time>2022-07-13T08:07:01Z</time>
      </trkpt>
      <trkpt lat="44.16573" lon="2.61299">
        <ele>704.3</ele>
        <time>2022-07-13T08:07:09Z</time>
      </trkpt>
      <trkpt lat="44.16568" lon="2.61313">
        <ele>705.75</ele>
        <time>2022-07-13T08:07:17Z</time>
      </trkpt>
      <trkpt lat="44.16564" lon="2.61327">
        <ele>707.19</ele>
        <time>2022-07-13T08:07:25Z</time>
      </trkpt>
      <trkpt lat="44.16558" lon="2.6134">
        <ele>708.15</ele>
        <time>2022-07-13T08:07:32Z</time>
      </trkpt>
      <trkpt lat="44.1655" lon="2.61352">
        <ele>710.07</ele>
        <time>2022-07-13T08:07:40Z</time>
      </trkpt>
      <trkpt lat="44.16543" lon="2.61364">
        <ele>711.03</ele>
        <time>2022-07-13T08:07:47Z</time>
      </trkpt>
      <trkpt lat="44.16536" lon="2.61376">
        <ele>711.03</ele>
        <time>2022-07-13T08:07:56Z</time>
      </trkpt>
      <trkpt lat="44.16519" lon="2.61394">
        <ele>713.92</ele>
        <time>2022-07-13T08:08:13Z</time>
      </trkpt>
      <trkpt lat="44.16509" lon="2.61406">
        <ele>714.88</ele>
        <time>2022-07-13T08:08:23Z</time>
      </trkpt>
      <trkpt lat="44.16498" lon="2.61419">
        <ele>716.32</ele>
        <time>2022-07-13T08:08:31Z</time>
      </trkpt>
      <trkpt lat="44.16489" lon="2.61429">
        <ele>717.76</ele>
        <time>2022-07-13T08:08:38Z</time>
      </trkpt>
      <trkpt lat="44.1648" lon="2.6144">
        <ele>718.24</ele>
        <time>2022-07-13T08:08:46Z</time>
      </trkpt>
      <trkpt lat="44.16472" lon="2.61452">
        <ele>718.24</ele>
        <time>2022-07-13T08:08:55Z</time>
      </trkpt>
      <trkpt lat="44.16462" lon="2.61463">
        <ele>718.24</ele>
        <time>2022-07-13T08:09:05Z</time>
      </trkpt>
      <trkpt lat="44.16452" lon="2.61477">
        <ele>716.8</ele>
        <time>2022-07-13T08:09:15Z</time>
      </trkpt>
      <trkpt lat="44.16444" lon="2.61493">
        <ele>716.32</ele>
        <time>2022-07-13T08:09:24Z</time>
      </trkpt>
      <trkpt lat="44.16435" lon="2.61507">
        <ele>716.32</ele>
        <time>2022-07-13T08:09:33Z</time>
      </trkpt>
      <trkpt lat="44.16428" lon="2.61523">
        <ele>715.84</ele>
        <time>2022-07-13T08:09:42Z</time>
      </trkpt>
      <trkpt lat="44.16422" lon="2.61538">
        <ele>715.84</ele>
        <time>2022-07-13T08:09:50Z</time>
      </trkpt>
      <trkpt lat="44.16416" lon="2.61552">
        <ele>715.84</ele>
        <time>2022-07-13T08:09:58Z</time>
      </trkpt>
      <trkpt lat="44.16409" lon="2.61565">
        <ele>715.36</ele>
        <time>2022-07-13T08:10:07Z</time>
      </trkpt>
      <trkpt lat="44.16403" lon="2.61577">
        <ele>714.4</ele>
        <time>2022-07-13T08:10:14Z</time>
      </trkpt>
      <trkpt lat="44.16397" lon="2.61592">
        <ele>712.95</ele>
        <time>2022-07-13T08:10:22Z</time>
      </trkpt>
      <trkpt lat="44.16392" lon="2.61605">
        <ele>711.99</ele>
        <time>2022-07-13T08:10:29Z</time>
      </trkpt>
      <trkpt lat="44.16386" lon="2.61619">
        <ele>711.03</ele>
        <time>2022-07-13T08:10:37Z</time>
      </trkpt>
      <trkpt lat="44.16379" lon="2.61632">
        <ele>710.07</ele>
        <time>2022-07-13T08:10:45Z</time>
      </trkpt>
      <trkpt lat="44.16372" lon="2.61645">
        <ele>710.55</ele>
        <time>2022-07-13T08:10:53Z</time>
      </trkpt>
      <trkpt lat="44.16365" lon="2.6166">
        <ele>711.03</ele>
        <time>2022-07-13T08:11:02Z</time>
      </trkpt>
      <trkpt lat="44.16358" lon="2.61673">
        <ele>711.03</ele>
        <time>2022-07-13T08:11:10Z</time>
      </trkpt>
      <trkpt lat="44.16352" lon="2.61687">
        <ele>711.51</ele>
        <time>2022-07-13T08:11:18Z</time>
      </trkpt>
      <trkpt lat="44.16346" lon="2.61702">
        <ele>711.99</ele>
        <time>2022-07-13T08:11:25Z</time>
      </trkpt>
      <trkpt lat="44.1634" lon="2.61715">
        <ele>712.47</ele>
        <time>2022-07-13T08:11:32Z</time>
      </trkpt>
      <trkpt lat="44.16335" lon="2.61728">
        <ele>712.47</ele>
        <time>2022-07-13T08:11:39Z</time>
      </trkpt>
      <trkpt lat="44.16329" lon="2.61742">
        <ele>712.95</ele>
        <time>2022-07-13T08:11:47Z</time>
      </trkpt>
      <trkpt lat="44.16324" lon="2.61753">
        <ele>713.44</ele>
        <time>2022-07-13T08:11:52Z</time>
      </trkpt>
      <trkpt lat="44.16317" lon="2.61767">
        <ele>713.92</ele>
        <time>2022-07-13T08:11:56Z</time>
      </trkpt>
      <trkpt lat="44.1631" lon="2.6178">
        <ele>713.92</ele>
        <time>2022-07-13T08:11:59Z</time>
      </trkpt>
      <trkpt lat="44.16304" lon="2.61795">
        <ele>714.88</ele>
        <time>2022-07-13T08:12:02Z</time>
      </trkpt>
      <trkpt lat="44.16298" lon="2.61809">
        <ele>715.84</ele>
        <time>2022-07-13T08:12:05Z</time>
      </trkpt>
      <trkpt lat="44.16293" lon="2.61821">
        <ele>716.8</ele>
        <time>2022-07-13T08:12:08Z</time>
      </trkpt>
      <trkpt lat="44.1629" lon="2.61836">
        <ele>717.76</ele>
        <time>2022-07-13T08:12:11Z</time>
      </trkpt>
      <trkpt lat="44.16286" lon="2.61848">
        <ele>718.72</ele>
        <time>2022-07-13T08:12:14Z</time>
      </trkpt>
      <trkpt lat="44.16279" lon="2.6186">
        <ele>719.68</ele>
        <time>2022-07-13T08:12:17Z</time>
      </trkpt>
      <trkpt lat="44.16273" lon="2.61871">
        <ele>720.65</ele>
        <time>2022-07-13T08:12:20Z</time>
      </trkpt>
      <trkpt lat="44.16268" lon="2.61884">
        <ele>721.13</ele>
        <time>2022-07-13T08:12:23Z</time>
      </trkpt>
      <trkpt lat="44.16264" lon="2.61896">
        <ele>722.09</ele>
        <time>2022-07-13T08:12:26Z</time>
      </trkpt>
      <trkpt lat="44.16259" lon="2.61909">
        <ele>722.57</ele>
        <time>2022-07-13T08:12:30Z</time>
      </trkpt>
      <trkpt lat="44.16254" lon="2.61921">
        <ele>723.05</ele>
        <time>2022-07-13T08:12:33Z</time>
      </trkpt>
      <trkpt lat="44.16249" lon="2.61936">
        <ele>723.53</ele>
        <time>2022-07-13T08:12:37Z</time>
      </trkpt>
      <trkpt lat="44.16244" lon="2.61951">
        <ele>724.01</ele>
        <time>2022-07-13T08:12:41Z</time>
      </trkpt>
      <trkpt lat="44.16238" lon="2.61966">
        <ele>724.97</ele>
        <time>2022-07-13T08:12:45Z</time>
      </trkpt>
      <trkpt lat="44.16231" lon="2.61979">
        <ele>725.45</ele>
        <time>2022-07-13T08:12:49Z</time>
      </trkpt>
      <trkpt lat="44.16225" lon="2.61992">
        <ele>725.93</ele>
        <time>2022-07-13T08:12:53Z</time>
      </trkpt>
      <trkpt lat="44.16219" lon="2.62006">
        <ele>727.37</ele>
        <time>2022-07-13T08:12:57Z</time>
      </trkpt>
      <trkpt lat="44.16214" lon="2.62018">
        <ele>728.34</ele>
        <time>2022-07-13T08:13:00Z</time>
      </trkpt>
      <trkpt lat="44.16207" lon="2.62033">
        <ele>729.78</ele>
        <time>2022-07-13T08:13:04Z</time>
      </trkpt>
      <trkpt lat="44.16199" lon="2.62046">
        <ele>730.74</ele>
        <time>2022-07-13T08:13:08Z</time>
      </trkpt>
      <trkpt lat="44.16192" lon="2.62059">
        <ele>732.18</ele>
        <time>2022-07-13T08:13:12Z</time>
      </trkpt>
      <trkpt lat="44.16184" lon="2.62072">
        <ele>733.14</ele>
        <time>2022-07-13T08:13:16Z</time>
      </trkpt>
      <trkpt lat="44.16177" lon="2.62085">
        <ele>734.58</ele>
        <time>2022-07-13T08:13:20Z</time>
      </trkpt>
      <trkpt lat="44.16169" lon="2.62098">
        <ele>736.03</ele>
        <time>2022-07-13T08:13:24Z</time>
      </trkpt>
      <trkpt lat="44.1616" lon="2.62111">
        <ele>737.47</ele>
        <time>2022-07-13T08:13:28Z</time>
      </trkpt>
      <trkpt lat="44.16152" lon="2.62125">
        <ele>738.91</ele>
        <time>2022-07-13T08:13:32Z</time>
      </trkpt>
      <trkpt lat="44.16144" lon="2.6214">
        <ele>739.87</ele>
        <time>2022-07-13T08:13:36Z</time>
      </trkpt>
      <trkpt lat="44.16137" lon="2.62153">
        <ele>740.35</ele>
        <time>2022-07-13T08:13:40Z</time>
      </trkpt>
      <trkpt lat="44.16131" lon="2.62163">
        <ele>741.31</ele>
        <time>2022-07-13T08:13:43Z</time>
      </trkpt>
      <trkpt lat="44.16124" lon="2.62173">
        <ele>742.28</ele>
        <time>2022-07-13T08:13:46Z</time>
      </trkpt>
      <trkpt lat="44.16117" lon="2.62184">
        <ele>743.24</ele>
        <time>2022-07-13T08:13:49Z</time>
      </trkpt>
      <trkpt lat="44.16109" lon="2.62197">
        <ele>744.68</ele>
        <time>2022-07-13T08:13:53Z</time>
      </trkpt>
      <trkpt lat="44.16102" lon="2.62207">
        <ele>745.64</ele>
        <time>2022-07-13T08:13:57Z</time>
      </trkpt>
      <trkpt lat="44.16096" lon="2.62218">
        <ele>746.6</ele>
        <time>2022-07-13T08:14:01Z</time>
      </trkpt>
      <trkpt lat="44.16091" lon="2.62232">
        <ele>748.04</ele>
        <time>2022-07-13T08:14:05Z</time>
      </trkpt>
      <trkpt lat="44.16086" lon="2.62244">
        <ele>749</ele>
        <time>2022-07-13T08:14:08Z</time>
      </trkpt>
      <trkpt lat="44.16079" lon="2.62258">
        <ele>750.45</ele>
        <time>2022-07-13T08:14:12Z</time>
      </trkpt>
      <trkpt lat="44.16073" lon="2.62273">
        <ele>751.41</ele>
        <time>2022-07-13T08:14:16Z</time>
      </trkpt>
      <trkpt lat="44.16067" lon="2.62286">
        <ele>752.85</ele>
        <time>2022-07-13T08:14:19Z</time>
      </trkpt>
      <trkpt lat="44.16061" lon="2.623">
        <ele>753.81</ele>
        <time>2022-07-13T08:14:22Z</time>
      </trkpt>
      <trkpt lat="44.16056" lon="2.62313">
        <ele>754.29</ele>
        <time>2022-07-13T08:14:25Z</time>
      </trkpt>
      <trkpt lat="44.1605" lon="2.62326">
        <ele>754.77</ele>
        <time>2022-07-13T08:14:28Z</time>
      </trkpt>
      <trkpt lat="44.16045" lon="2.62339">
        <ele>755.73</ele>
        <time>2022-07-13T08:14:31Z</time>
      </trkpt>
      <trkpt lat="44.16039" lon="2.62353">
        <ele>756.21</ele>
        <time>2022-07-13T08:14:34Z</time>
      </trkpt>
      <trkpt lat="44.1603" lon="2.62373">
        <ele>757.66</ele>
        <time>2022-07-13T08:14:37Z</time>
      </trkpt>
      <trkpt lat="44.16025" lon="2.62386">
        <ele>758.14</ele>
        <time>2022-07-13T08:14:39Z</time>
      </trkpt>
      <trkpt lat="44.16017" lon="2.62402">
        <ele>758.62</ele>
        <time>2022-07-13T08:14:42Z</time>
      </trkpt>
      <trkpt lat="44.16011" lon="2.62415">
        <ele>759.1</ele>
        <time>2022-07-13T08:14:45Z</time>
      </trkpt>
      <trkpt lat="44.16005" lon="2.6243">
        <ele>759.58</ele>
        <time>2022-07-13T08:14:49Z</time>
      </trkpt>
      <trkpt lat="44.15999" lon="2.62442">
        <ele>760.06</ele>
        <time>2022-07-13T08:14:52Z</time>
      </trkpt>
      <trkpt lat="44.15994" lon="2.62453">
        <ele>760.06</ele>
        <time>2022-07-13T08:14:55Z</time>
      </trkpt>
      <trkpt lat="44.15988" lon="2.62468">
        <ele>760.06</ele>
        <time>2022-07-13T08:14:59Z</time>
      </trkpt>
      <trkpt lat="44.15981" lon="2.62484">
        <ele>760.06</ele>
        <time>2022-07-13T08:15:02Z</time>
      </trkpt>
      <trkpt lat="44.15976" lon="2.62497">
        <ele>760.06</ele>
        <time>2022-07-13T08:15:04Z</time>
      </trkpt>
      <trkpt lat="44.15969" lon="2.62513">
        <ele>760.06</ele>
        <time>2022-07-13T08:15:07Z</time>
      </trkpt>
      <trkpt lat="44.15964" lon="2.62525">
        <ele>760.06</ele>
        <time>2022-07-13T08:15:09Z</time>
      </trkpt>
      <trkpt lat="44.15958" lon="2.62537">
        <ele>760.54</ele>
        <time>2022-07-13T08:15:11Z</time>
      </trkpt>
      <trkpt lat="44.15952" lon="2.62552">
        <ele>761.02</ele>
        <time>2022-07-13T08:15:13Z</time>
      </trkpt>
      <trkpt lat="44.15947" lon="2.62564">
        <ele>761.5</ele>
        <time>2022-07-13T08:15:15Z</time>
      </trkpt>
      <trkpt lat="44.15941" lon="2.6258">
        <ele>762.46</ele>
        <time>2022-07-13T08:15:18Z</time>
      </trkpt>
      <trkpt lat="44.15934" lon="2.62594">
        <ele>763.42</ele>
        <time>2022-07-13T08:15:21Z</time>
      </trkpt>
      <trkpt lat="44.15928" lon="2.62609">
        <ele>764.39</ele>
        <time>2022-07-13T08:15:24Z</time>
      </trkpt>
      <trkpt lat="44.15922" lon="2.62621">
        <ele>764.87</ele>
        <time>2022-07-13T08:15:26Z</time>
      </trkpt>
      <trkpt lat="44.15915" lon="2.62635">
        <ele>765.35</ele>
        <time>2022-07-13T08:15:28Z</time>
      </trkpt>
      <trkpt lat="44.15909" lon="2.62649">
        <ele>765.35</ele>
        <time>2022-07-13T08:15:30Z</time>
      </trkpt>
      <trkpt lat="44.15904" lon="2.62662">
        <ele>765.83</ele>
        <time>2022-07-13T08:15:32Z</time>
      </trkpt>
      <trkpt lat="44.15899" lon="2.62675">
        <ele>766.31</ele>
        <time>2022-07-13T08:15:34Z</time>
      </trkpt>
      <trkpt lat="44.15893" lon="2.62687">
        <ele>766.79</ele>
        <time>2022-07-13T08:15:36Z</time>
      </trkpt>
      <trkpt lat="44.15888" lon="2.62699">
        <ele>767.75</ele>
        <time>2022-07-13T08:15:38Z</time>
      </trkpt>
      <trkpt lat="44.15883" lon="2.62711">
        <ele>768.23</ele>
        <time>2022-07-13T08:15:40Z</time>
      </trkpt>
      <trkpt lat="44.15878" lon="2.62723">
        <ele>769.19</ele>
        <time>2022-07-13T08:15:42Z</time>
      </trkpt>
      <trkpt lat="44.15871" lon="2.62738">
        <ele>770.15</ele>
        <time>2022-07-13T08:15:45Z</time>
      </trkpt>
      <trkpt lat="44.15864" lon="2.62752">
        <ele>771.11</ele>
        <time>2022-07-13T08:15:48Z</time>
      </trkpt>
      <trkpt lat="44.15857" lon="2.62768">
        <ele>772.08</ele>
        <time>2022-07-13T08:15:51Z</time>
      </trkpt>
      <trkpt lat="44.15852" lon="2.6278">
        <ele>773.04</ele>
        <time>2022-07-13T08:15:53Z</time>
      </trkpt>
      <trkpt lat="44.15846" lon="2.62793">
        <ele>773.52</ele>
        <time>2022-07-13T08:15:55Z</time>
      </trkpt>
      <trkpt lat="44.1584" lon="2.62806">
        <ele>773.52</ele>
        <time>2022-07-13T08:15:57Z</time>
      </trkpt>
      <trkpt lat="44.15835" lon="2.62819">
        <ele>774</ele>
        <time>2022-07-13T08:15:59Z</time>
      </trkpt>
      <trkpt lat="44.1583" lon="2.62831">
        <ele>774</ele>
        <time>2022-07-13T08:16:01Z</time>
      </trkpt>
      <trkpt lat="44.15825" lon="2.62842">
        <ele>774.48</ele>
        <time>2022-07-13T08:16:03Z</time>
      </trkpt>
      <trkpt lat="44.1582" lon="2.62853">
        <ele>774.48</ele>
        <time>2022-07-13T08:16:05Z</time>
      </trkpt>
      <trkpt lat="44.15814" lon="2.62867">
        <ele>774.48</ele>
        <time>2022-07-13T08:16:08Z</time>
      </trkpt>
      <trkpt lat="44.15808" lon="2.6288">
        <ele>774</ele>
        <time>2022-07-13T08:16:11Z</time>
      </trkpt>
      <trkpt lat="44.15802" lon="2.62892">
        <ele>774</ele>
        <time>2022-07-13T08:16:14Z</time>
      </trkpt>
      <trkpt lat="44.15796" lon="2.62907">
        <ele>774</ele>
        <time>2022-07-13T08:16:17Z</time>
      </trkpt>
      <trkpt lat="44.15789" lon="2.62922">
        <ele>773.52</ele>
        <time>2022-07-13T08:16:20Z</time>
      </trkpt>
      <trkpt lat="44.15782" lon="2.62937">
        <ele>772.56</ele>
        <time>2022-07-13T08:16:23Z</time>
      </trkpt>
      <trkpt lat="44.15776" lon="2.62951">
        <ele>772.08</ele>
        <time>2022-07-13T08:16:26Z</time>
      </trkpt>
      <trkpt lat="44.1577" lon="2.62964">
        <ele>771.6</ele>
        <time>2022-07-13T08:16:29Z</time>
      </trkpt>
      <trkpt lat="44.15764" lon="2.62975">
        <ele>771.11</ele>
        <time>2022-07-13T08:16:32Z</time>
      </trkpt>
      <trkpt lat="44.1576" lon="2.62987">
        <ele>771.11</ele>
        <time>2022-07-13T08:16:38Z</time>
      </trkpt>
      <trkpt lat="44.15754" lon="2.63001">
        <ele>770.63</ele>
        <time>2022-07-13T08:16:49Z</time>
      </trkpt>
      <trkpt lat="44.15743" lon="2.63005">
        <ele>771.11</ele>
        <time>2022-07-13T08:16:59Z</time>
      </trkpt>
      <trkpt lat="44.1573" lon="2.63006">
        <ele>772.08</ele>
        <time>2022-07-13T08:17:11Z</time>
      </trkpt>
      <trkpt lat="44.15717" lon="2.63008">
        <ele>772.08</ele>
        <time>2022-07-13T08:17:23Z</time>
      </trkpt>
      <trkpt lat="44.15702" lon="2.63025">
        <ele>773.52</ele>
        <time>2022-07-13T08:17:54Z</time>
      </trkpt>
      <trkpt lat="44.15694" lon="2.63105">
        <ele>773.52</ele>
        <time>2022-07-13T08:18:40Z</time>
      </trkpt>
      <trkpt lat="44.15687" lon="2.63151">
        <ele>766.79</ele>
        <time>2022-07-13T08:19:04Z</time>
      </trkpt>
      <trkpt lat="44.15682" lon="2.63171">
        <ele>768.71</ele>
        <time>2022-07-13T08:19:11Z</time>
      </trkpt>
      <trkpt lat="44.15677" lon="2.63186">
        <ele>770.15</ele>
        <time>2022-07-13T08:19:18Z</time>
      </trkpt>
      <trkpt lat="44.15673" lon="2.632">
        <ele>770.63</ele>
        <time>2022-07-13T08:19:26Z</time>
      </trkpt>
      <trkpt lat="44.15669" lon="2.63213">
        <ele>770.15</ele>
        <time>2022-07-13T08:19:33Z</time>
      </trkpt>
      <trkpt lat="44.15664" lon="2.63226">
        <ele>769.19</ele>
        <time>2022-07-13T08:19:39Z</time>
      </trkpt>
      <trkpt lat="44.15661" lon="2.63239">
        <ele>768.23</ele>
        <time>2022-07-13T08:19:47Z</time>
      </trkpt>
      <trkpt lat="44.15659" lon="2.63255">
        <ele>767.27</ele>
        <time>2022-07-13T08:19:55Z</time>
      </trkpt>
      <trkpt lat="44.15659" lon="2.63276">
        <ele>768.23</ele>
        <time>2022-07-13T08:20:03Z</time>
      </trkpt>
      <trkpt lat="44.15661" lon="2.63291">
        <ele>769.19</ele>
        <time>2022-07-13T08:20:10Z</time>
      </trkpt>
      <trkpt lat="44.15664" lon="2.63303">
        <ele>768.71</ele>
        <time>2022-07-13T08:20:16Z</time>
      </trkpt>
      <trkpt lat="44.15665" lon="2.63317">
        <ele>767.75</ele>
        <time>2022-07-13T08:20:24Z</time>
      </trkpt>
      <trkpt lat="44.15661" lon="2.63331">
        <ele>767.27</ele>
        <time>2022-07-13T08:20:33Z</time>
      </trkpt>
      <trkpt lat="44.15655" lon="2.63342">
        <ele>766.79</ele>
        <time>2022-07-13T08:20:40Z</time>
      </trkpt>
      <trkpt lat="44.15649" lon="2.63355">
        <ele>767.27</ele>
        <time>2022-07-13T08:20:48Z</time>
      </trkpt>
      <trkpt lat="44.15642" lon="2.63368">
        <ele>767.27</ele>
        <time>2022-07-13T08:20:57Z</time>
      </trkpt>
      <trkpt lat="44.15628" lon="2.63398">
        <ele>769.67</ele>
        <time>2022-07-13T08:21:23Z</time>
      </trkpt>
      <trkpt lat="44.1562" lon="2.63418">
        <ele>769.67</ele>
        <time>2022-07-13T08:21:37Z</time>
      </trkpt>
      <trkpt lat="44.15606" lon="2.63466">
        <ele>765.35</ele>
        <time>2022-07-13T08:22:08Z</time>
      </trkpt>
      <trkpt lat="44.15604" lon="2.63487">
        <ele>764.39</ele>
        <time>2022-07-13T08:22:18Z</time>
      </trkpt>
      <trkpt lat="44.15595" lon="2.63525">
        <ele>761.02</ele>
        <time>2022-07-13T08:22:43Z</time>
      </trkpt>
      <trkpt lat="44.15587" lon="2.63565">
        <ele>759.1</ele>
        <time>2022-07-13T08:23:00Z</time>
      </trkpt>
      <trkpt lat="44.15587" lon="2.63597">
        <ele>758.62</ele>
        <time>2022-07-13T08:23:13Z</time>
      </trkpt>
      <trkpt lat="44.15586" lon="2.63614">
        <ele>758.62</ele>
        <time>2022-07-13T08:23:21Z</time>
      </trkpt>
      <trkpt lat="44.15589" lon="2.63631">
        <ele>759.58</ele>
        <time>2022-07-13T08:23:29Z</time>
      </trkpt>
      <trkpt lat="44.15592" lon="2.63646">
        <ele>758.14</ele>
        <time>2022-07-13T08:23:39Z</time>
      </trkpt>
      <trkpt lat="44.156" lon="2.63674">
        <ele>756.21</ele>
        <time>2022-07-13T08:23:57Z</time>
      </trkpt>
      <trkpt lat="44.15598" lon="2.63703">
        <ele>775.92</ele>
        <time>2022-07-13T08:24:06Z</time>
      </trkpt>
      <trkpt lat="44.15594" lon="2.6372">
        <ele>788.9</ele>
        <time>2022-07-13T08:26:42Z</time>
      </trkpt>
      <trkpt lat="44.15595" lon="2.63735">
        <ele>788.9</ele>
        <time>2022-07-13T08:26:50Z</time>
      </trkpt>
      <trkpt lat="44.15597" lon="2.63751">
        <ele>789.38</ele>
        <time>2022-07-13T08:26:58Z</time>
      </trkpt>
      <trkpt lat="44.15599" lon="2.63766">
        <ele>789.86</ele>
        <time>2022-07-13T08:27:05Z</time>
      </trkpt>
      <trkpt lat="44.15599" lon="2.63779">
        <ele>791.3</ele>
        <time>2022-07-13T08:27:12Z</time>
      </trkpt>
      <trkpt lat="44.156" lon="2.63792">
        <ele>791.78</ele>
        <time>2022-07-13T08:27:19Z</time>
      </trkpt>
      <trkpt lat="44.15602" lon="2.63806">
        <ele>792.74</ele>
        <time>2022-07-13T08:27:27Z</time>
      </trkpt>
      <trkpt lat="44.15604" lon="2.63818">
        <ele>793.22</ele>
        <time>2022-07-13T08:27:34Z</time>
      </trkpt>
      <trkpt lat="44.15608" lon="2.63833">
        <ele>792.74</ele>
        <time>2022-07-13T08:27:42Z</time>
      </trkpt>
      <trkpt lat="44.15612" lon="2.63847">
        <ele>792.26</ele>
        <time>2022-07-13T08:27:50Z</time>
      </trkpt>
      <trkpt lat="44.15617" lon="2.63864">
        <ele>791.78</ele>
        <time>2022-07-13T08:27:59Z</time>
      </trkpt>
      <trkpt lat="44.15618" lon="2.63882">
        <ele>790.82</ele>
        <time>2022-07-13T08:28:06Z</time>
      </trkpt>
      <trkpt lat="44.1562" lon="2.63897">
        <ele>790.34</ele>
        <time>2022-07-13T08:28:13Z</time>
      </trkpt>
      <trkpt lat="44.15623" lon="2.63911">
        <ele>791.3</ele>
        <time>2022-07-13T08:28:21Z</time>
      </trkpt>
      <trkpt lat="44.15627" lon="2.63925">
        <ele>792.74</ele>
        <time>2022-07-13T08:28:28Z</time>
      </trkpt>
      <trkpt lat="44.15631" lon="2.63936">
        <ele>793.71</ele>
        <time>2022-07-13T08:28:35Z</time>
      </trkpt>
      <trkpt lat="44.15639" lon="2.63946">
        <ele>794.19</ele>
        <time>2022-07-13T08:28:44Z</time>
      </trkpt>
      <trkpt lat="44.15646" lon="2.63959">
        <ele>795.15</ele>
        <time>2022-07-13T08:28:54Z</time>
      </trkpt>
      <trkpt lat="44.15652" lon="2.63973">
        <ele>797.07</ele>
        <time>2022-07-13T08:29:02Z</time>
      </trkpt>
      <trkpt lat="44.15658" lon="2.63986">
        <ele>798.51</ele>
        <time>2022-07-13T08:29:10Z</time>
      </trkpt>
      <trkpt lat="44.15664" lon="2.63998">
        <ele>799.47</ele>
        <time>2022-07-13T08:29:18Z</time>
      </trkpt>
      <trkpt lat="44.1567" lon="2.64011">
        <ele>799.95</ele>
        <time>2022-07-13T08:29:26Z</time>
      </trkpt>
      <trkpt lat="44.15676" lon="2.64024">
        <ele>801.88</ele>
        <time>2022-07-13T08:29:34Z</time>
      </trkpt>
      <trkpt lat="44.15683" lon="2.64037">
        <ele>803.32</ele>
        <time>2022-07-13T08:29:42Z</time>
      </trkpt>
      <trkpt lat="44.15689" lon="2.64049">
        <ele>803.32</ele>
        <time>2022-07-13T08:29:50Z</time>
      </trkpt>
      <trkpt lat="44.15695" lon="2.64062">
        <ele>803.32</ele>
        <time>2022-07-13T08:29:58Z</time>
      </trkpt>
      <trkpt lat="44.15699" lon="2.64077">
        <ele>802.84</ele>
        <time>2022-07-13T08:30:06Z</time>
      </trkpt>
      <trkpt lat="44.15707" lon="2.64091">
        <ele>803.32</ele>
        <time>2022-07-13T08:30:15Z</time>
      </trkpt>
      <trkpt lat="44.15715" lon="2.64105">
        <ele>803.8</ele>
        <time>2022-07-13T08:30:24Z</time>
      </trkpt>
      <trkpt lat="44.1572" lon="2.64122">
        <ele>804.76</ele>
        <time>2022-07-13T08:30:33Z</time>
      </trkpt>
      <trkpt lat="44.15723" lon="2.64139">
        <ele>806.2</ele>
        <time>2022-07-13T08:30:42Z</time>
      </trkpt>
      <trkpt lat="44.15726" lon="2.64155">
        <ele>806.2</ele>
        <time>2022-07-13T08:30:52Z</time>
      </trkpt>
      <trkpt lat="44.15731" lon="2.64173">
        <ele>805.24</ele>
        <time>2022-07-13T08:31:01Z</time>
      </trkpt>
      <trkpt lat="44.15733" lon="2.6419">
        <ele>807.16</ele>
        <time>2022-07-13T08:31:09Z</time>
      </trkpt>
      <trkpt lat="44.15737" lon="2.64222">
        <ele>807.64</ele>
        <time>2022-07-13T08:31:29Z</time>
      </trkpt>
      <trkpt lat="44.15745" lon="2.64286">
        <ele>806.68</ele>
        <time>2022-07-13T08:32:16Z</time>
      </trkpt>
      <trkpt lat="44.15734" lon="2.64295">
        <ele>807.16</ele>
        <time>2022-07-13T08:32:26Z</time>
      </trkpt>
      <trkpt lat="44.15712" lon="2.64307">
        <ele>813.89</ele>
        <time>2022-07-13T08:32:45Z</time>
      </trkpt>
      <trkpt lat="44.15703" lon="2.64315">
        <ele>815.34</ele>
        <time>2022-07-13T08:33:05Z</time>
      </trkpt>
      <trkpt lat="44.15696" lon="2.64322">
        <ele>815.34</ele>
        <time>2022-07-13T08:33:12Z</time>
      </trkpt>
      <trkpt lat="44.15689" lon="2.64329">
        <ele>815.82</ele>
        <time>2022-07-13T08:33:19Z</time>
      </trkpt>
      <trkpt lat="44.15682" lon="2.64338">
        <ele>815.34</ele>
        <time>2022-07-13T08:33:26Z</time>
      </trkpt>
      <trkpt lat="44.15675" lon="2.64345">
        <ele>814.85</ele>
        <time>2022-07-13T08:33:32Z</time>
      </trkpt>
      <trkpt lat="44.15668" lon="2.64355">
        <ele>814.85</ele>
        <time>2022-07-13T08:33:39Z</time>
      </trkpt>
      <trkpt lat="44.15662" lon="2.64363">
        <ele>815.82</ele>
        <time>2022-07-13T08:33:46Z</time>
      </trkpt>
      <trkpt lat="44.15657" lon="2.64372">
        <ele>815.82</ele>
        <time>2022-07-13T08:33:53Z</time>
      </trkpt>
      <trkpt lat="44.1565" lon="2.64384">
        <ele>816.3</ele>
        <time>2022-07-13T08:34:00Z</time>
      </trkpt>
      <trkpt lat="44.15643" lon="2.64396">
        <ele>816.78</ele>
        <time>2022-07-13T08:34:09Z</time>
      </trkpt>
      <trkpt lat="44.15637" lon="2.64406">
        <ele>816.3</ele>
        <time>2022-07-13T08:34:17Z</time>
      </trkpt>
      <trkpt lat="44.1563" lon="2.64418">
        <ele>815.82</ele>
        <time>2022-07-13T08:34:25Z</time>
      </trkpt>
      <trkpt lat="44.15623" lon="2.64428">
        <ele>815.82</ele>
        <time>2022-07-13T08:34:34Z</time>
      </trkpt>
      <trkpt lat="44.15617" lon="2.64438">
        <ele>816.3</ele>
        <time>2022-07-13T08:34:42Z</time>
      </trkpt>
      <trkpt lat="44.15609" lon="2.6445">
        <ele>816.3</ele>
        <time>2022-07-13T08:34:51Z</time>
      </trkpt>
      <trkpt lat="44.15602" lon="2.64462">
        <ele>816.78</ele>
        <time>2022-07-13T08:35:00Z</time>
      </trkpt>
      <trkpt lat="44.15596" lon="2.64471">
        <ele>816.3</ele>
        <time>2022-07-13T08:35:09Z</time>
      </trkpt>
      <trkpt lat="44.15589" lon="2.6448">
        <ele>816.3</ele>
        <time>2022-07-13T08:35:18Z</time>
      </trkpt>
      <trkpt lat="44.1558" lon="2.64494">
        <ele>817.26</ele>
        <time>2022-07-13T08:35:28Z</time>
      </trkpt>
      <trkpt lat="44.15573" lon="2.64507">
        <ele>817.74</ele>
        <time>2022-07-13T08:35:36Z</time>
      </trkpt>
      <trkpt lat="44.15565" lon="2.6452">
        <ele>818.7</ele>
        <time>2022-07-13T08:35:45Z</time>
      </trkpt>
      <trkpt lat="44.15558" lon="2.64532">
        <ele>819.66</ele>
        <time>2022-07-13T08:35:55Z</time>
      </trkpt>
      <trkpt lat="44.15549" lon="2.64547">
        <ele>821.58</ele>
        <time>2022-07-13T08:36:06Z</time>
      </trkpt>
      <trkpt lat="44.15544" lon="2.64563">
        <ele>822.55</ele>
        <time>2022-07-13T08:36:17Z</time>
      </trkpt>
      <trkpt lat="44.15481" lon="2.64694">
        <ele>834.56</ele>
        <time>2022-07-13T08:37:39Z</time>
      </trkpt>
      <trkpt lat="44.15426" lon="2.64748">
        <ele>836.48</ele>
        <time>2022-07-13T08:38:29Z</time>
      </trkpt>
      <trkpt lat="44.15412" lon="2.64762">
        <ele>836</ele>
        <time>2022-07-13T08:38:39Z</time>
      </trkpt>
      <trkpt lat="44.15391" lon="2.6479">
        <ele>835.52</ele>
        <time>2022-07-13T08:39:00Z</time>
      </trkpt>
      <trkpt lat="44.15381" lon="2.64805">
        <ele>835.04</ele>
        <time>2022-07-13T08:39:09Z</time>
      </trkpt>
      <trkpt lat="44.15311" lon="2.64883">
        <ele>836.48</ele>
        <time>2022-07-13T08:40:11Z</time>
      </trkpt>
      <trkpt lat="44.15279" lon="2.64912">
        <ele>835.52</ele>
        <time>2022-07-13T08:40:37Z</time>
      </trkpt>
      <trkpt lat="44.15269" lon="2.64924">
        <ele>834.08</ele>
        <time>2022-07-13T08:40:45Z</time>
      </trkpt>
      <trkpt lat="44.15257" lon="2.64932">
        <ele>833.6</ele>
        <time>2022-07-13T08:40:52Z</time>
      </trkpt>
      <trkpt lat="44.15249" lon="2.64945">
        <ele>837.45</ele>
        <time>2022-07-13T08:43:45Z</time>
      </trkpt>
      <trkpt lat="44.15243" lon="2.6496">
        <ele>840.33</ele>
        <time>2022-07-13T08:43:52Z</time>
      </trkpt>
      <trkpt lat="44.15235" lon="2.64978">
        <ele>840.81</ele>
        <time>2022-07-13T08:44:03Z</time>
      </trkpt>
      <trkpt lat="44.1523" lon="2.6499">
        <ele>840.81</ele>
        <time>2022-07-13T08:44:11Z</time>
      </trkpt>
      <trkpt lat="44.15225" lon="2.65004">
        <ele>839.37</ele>
        <time>2022-07-13T08:44:19Z</time>
      </trkpt>
      <trkpt lat="44.1522" lon="2.65017">
        <ele>836.96</ele>
        <time>2022-07-13T08:44:27Z</time>
      </trkpt>
      <trkpt lat="44.15214" lon="2.65034">
        <ele>833.12</ele>
        <time>2022-07-13T08:44:38Z</time>
      </trkpt>
      <trkpt lat="44.15208" lon="2.65049">
        <ele>828.79</ele>
        <time>2022-07-13T08:44:47Z</time>
      </trkpt>
      <trkpt lat="44.15203" lon="2.65065">
        <ele>824.95</ele>
        <time>2022-07-13T08:44:56Z</time>
      </trkpt>
      <trkpt lat="44.15197" lon="2.65081">
        <ele>823.51</ele>
        <time>2022-07-13T08:45:05Z</time>
      </trkpt>
      <trkpt lat="44.15191" lon="2.65093">
        <ele>822.55</ele>
        <time>2022-07-13T08:45:12Z</time>
      </trkpt>
      <trkpt lat="44.15183" lon="2.65106">
        <ele>822.06</ele>
        <time>2022-07-13T08:45:20Z</time>
      </trkpt>
      <trkpt lat="44.15176" lon="2.65118">
        <ele>822.55</ele>
        <time>2022-07-13T08:45:27Z</time>
      </trkpt>
      <trkpt lat="44.15169" lon="2.65129">
        <ele>823.03</ele>
        <time>2022-07-13T08:45:34Z</time>
      </trkpt>
      <trkpt lat="44.15162" lon="2.65139">
        <ele>823.03</ele>
        <time>2022-07-13T08:45:41Z</time>
      </trkpt>
      <trkpt lat="44.15155" lon="2.65149">
        <ele>822.55</ele>
        <time>2022-07-13T08:45:48Z</time>
      </trkpt>
      <trkpt lat="44.15148" lon="2.6516">
        <ele>823.03</ele>
        <time>2022-07-13T08:45:55Z</time>
      </trkpt>
      <trkpt lat="44.1514" lon="2.6517">
        <ele>823.51</ele>
        <time>2022-07-13T08:46:02Z</time>
      </trkpt>
      <trkpt lat="44.15133" lon="2.65181">
        <ele>823.51</ele>
        <time>2022-07-13T08:46:09Z</time>
      </trkpt>
      <trkpt lat="44.15126" lon="2.6519">
        <ele>822.55</ele>
        <time>2022-07-13T08:46:16Z</time>
      </trkpt>
      <trkpt lat="44.15119" lon="2.65202">
        <ele>821.58</ele>
        <time>2022-07-13T08:46:23Z</time>
      </trkpt>
      <trkpt lat="44.15112" lon="2.65213">
        <ele>821.58</ele>
        <time>2022-07-13T08:46:30Z</time>
      </trkpt>
      <trkpt lat="44.15105" lon="2.65222">
        <ele>821.58</ele>
        <time>2022-07-13T08:46:36Z</time>
      </trkpt>
      <trkpt lat="44.15098" lon="2.65231">
        <ele>821.1</ele>
        <time>2022-07-13T08:46:42Z</time>
      </trkpt>
      <trkpt lat="44.15091" lon="2.65239">
        <ele>820.62</ele>
        <time>2022-07-13T08:46:48Z</time>
      </trkpt>
      <trkpt lat="44.15083" lon="2.65248">
        <ele>820.62</ele>
        <time>2022-07-13T08:46:55Z</time>
      </trkpt>
      <trkpt lat="44.15076" lon="2.65257">
        <ele>821.1</ele>
        <time>2022-07-13T08:47:02Z</time>
      </trkpt>
      <trkpt lat="44.15069" lon="2.65267">
        <ele>820.14</ele>
        <time>2022-07-13T08:47:09Z</time>
      </trkpt>
      <trkpt lat="44.15061" lon="2.65276">
        <ele>819.18</ele>
        <time>2022-07-13T08:47:16Z</time>
      </trkpt>
      <trkpt lat="44.15053" lon="2.65285">
        <ele>818.22</ele>
        <time>2022-07-13T08:47:23Z</time>
      </trkpt>
      <trkpt lat="44.15046" lon="2.65292">
        <ele>817.74</ele>
        <time>2022-07-13T08:47:29Z</time>
      </trkpt>
      <trkpt lat="44.15038" lon="2.65301">
        <ele>816.3</ele>
        <time>2022-07-13T08:47:37Z</time>
      </trkpt>
      <trkpt lat="44.15029" lon="2.65311">
        <ele>815.34</ele>
        <time>2022-07-13T08:47:45Z</time>
      </trkpt>
      <trkpt lat="44.1502" lon="2.65321">
        <ele>814.85</ele>
        <time>2022-07-13T08:47:52Z</time>
      </trkpt>
      <trkpt lat="44.15012" lon="2.6533">
        <ele>815.34</ele>
        <time>2022-07-13T08:47:59Z</time>
      </trkpt>
      <trkpt lat="44.15004" lon="2.6534">
        <ele>815.82</ele>
        <time>2022-07-13T08:48:06Z</time>
      </trkpt>
      <trkpt lat="44.14996" lon="2.65348">
        <ele>816.78</ele>
        <time>2022-07-13T08:48:13Z</time>
      </trkpt>
      <trkpt lat="44.14987" lon="2.65356">
        <ele>816.78</ele>
        <time>2022-07-13T08:48:20Z</time>
      </trkpt>
      <trkpt lat="44.14977" lon="2.65366">
        <ele>816.78</ele>
        <time>2022-07-13T08:48:31Z</time>
      </trkpt>
      <trkpt lat="44.14947" lon="2.65378">
        <ele>815.82</ele>
        <time>2022-07-13T08:48:51Z</time>
      </trkpt>
      <trkpt lat="44.14935" lon="2.65381">
        <ele>816.3</ele>
        <time>2022-07-13T08:48:58Z</time>
      </trkpt>
      <trkpt lat="44.14925" lon="2.65385">
        <ele>817.26</ele>
        <time>2022-07-13T08:49:05Z</time>
      </trkpt>
      <trkpt lat="44.14916" lon="2.65391">
        <ele>817.74</ele>
        <time>2022-07-13T08:49:12Z</time>
      </trkpt>
      <trkpt lat="44.14907" lon="2.65396">
        <ele>818.22</ele>
        <time>2022-07-13T08:49:18Z</time>
      </trkpt>
      <trkpt lat="44.14897" lon="2.65402">
        <ele>818.7</ele>
        <time>2022-07-13T08:49:25Z</time>
      </trkpt>
      <trkpt lat="44.14889" lon="2.65408">
        <ele>818.7</ele>
        <time>2022-07-13T08:49:31Z</time>
      </trkpt>
      <trkpt lat="44.14879" lon="2.65414">
        <ele>819.18</ele>
        <time>2022-07-13T08:49:38Z</time>
      </trkpt>
      <trkpt lat="44.14871" lon="2.6542">
        <ele>819.66</ele>
        <time>2022-07-13T08:49:44Z</time>
      </trkpt>
      <trkpt lat="44.14863" lon="2.65426">
        <ele>820.14</ele>
        <time>2022-07-13T08:49:50Z</time>
      </trkpt>
      <trkpt lat="44.14854" lon="2.65431">
        <ele>820.62</ele>
        <time>2022-07-13T08:49:57Z</time>
      </trkpt>
      <trkpt lat="44.14845" lon="2.65436">
        <ele>820.62</ele>
        <time>2022-07-13T08:50:03Z</time>
      </trkpt>
      <trkpt lat="44.14837" lon="2.65441">
        <ele>821.1</ele>
        <time>2022-07-13T08:50:09Z</time>
      </trkpt>
      <trkpt lat="44.14828" lon="2.65447">
        <ele>821.58</ele>
        <time>2022-07-13T08:50:15Z</time>
      </trkpt>
      <trkpt lat="44.1482" lon="2.65453">
        <ele>822.06</ele>
        <time>2022-07-13T08:50:22Z</time>
      </trkpt>
      <trkpt lat="44.14812" lon="2.6546">
        <ele>822.06</ele>
        <time>2022-07-13T08:50:29Z</time>
      </trkpt>
      <trkpt lat="44.14805" lon="2.65469">
        <ele>822.06</ele>
        <time>2022-07-13T08:50:36Z</time>
      </trkpt>
      <trkpt lat="44.14795" lon="2.65479">
        <ele>822.06</ele>
        <time>2022-07-13T08:50:44Z</time>
      </trkpt>
      <trkpt lat="44.1479" lon="2.65494">
        <ele>822.55</ele>
        <time>2022-07-13T08:50:51Z</time>
      </trkpt>
      <trkpt lat="44.14786" lon="2.65507">
        <ele>822.55</ele>
        <time>2022-07-13T08:50:59Z</time>
      </trkpt>
      <trkpt lat="44.1478" lon="2.65517">
        <ele>822.55</ele>
        <time>2022-07-13T08:51:08Z</time>
      </trkpt>
      <trkpt lat="44.14773" lon="2.65532">
        <ele>823.03</ele>
        <time>2022-07-13T08:51:16Z</time>
      </trkpt>
      <trkpt lat="44.14765" lon="2.65542">
        <ele>823.51</ele>
        <time>2022-07-13T08:51:24Z</time>
      </trkpt>
      <trkpt lat="44.14758" lon="2.65553">
        <ele>823.99</ele>
        <time>2022-07-13T08:51:31Z</time>
      </trkpt>
      <trkpt lat="44.14749" lon="2.65563">
        <ele>823.99</ele>
        <time>2022-07-13T08:51:39Z</time>
      </trkpt>
      <trkpt lat="44.14741" lon="2.65572">
        <ele>823.99</ele>
        <time>2022-07-13T08:51:46Z</time>
      </trkpt>
      <trkpt lat="44.14731" lon="2.65583">
        <ele>823.51</ele>
        <time>2022-07-13T08:51:55Z</time>
      </trkpt>
      <trkpt lat="44.14721" lon="2.65596">
        <ele>823.51</ele>
        <time>2022-07-13T08:52:03Z</time>
      </trkpt>
      <trkpt lat="44.14711" lon="2.65604">
        <ele>823.51</ele>
        <time>2022-07-13T08:52:10Z</time>
      </trkpt>
      <trkpt lat="44.14702" lon="2.6561">
        <ele>823.03</ele>
        <time>2022-07-13T08:52:16Z</time>
      </trkpt>
      <trkpt lat="44.14692" lon="2.65615">
        <ele>823.51</ele>
        <time>2022-07-13T08:52:22Z</time>
      </trkpt>
      <trkpt lat="44.14683" lon="2.65622">
        <ele>823.03</ele>
        <time>2022-07-13T08:52:29Z</time>
      </trkpt>
      <trkpt lat="44.14673" lon="2.65623">
        <ele>823.03</ele>
        <time>2022-07-13T08:52:36Z</time>
      </trkpt>
      <trkpt lat="44.14658" lon="2.6563">
        <ele>822.55</ele>
        <time>2022-07-13T08:52:48Z</time>
      </trkpt>
      <trkpt lat="44.14631" lon="2.65657">
        <ele>823.03</ele>
        <time>2022-07-13T08:53:08Z</time>
      </trkpt>
      <trkpt lat="44.14623" lon="2.65669">
        <ele>825.91</ele>
        <time>2022-07-13T08:53:14Z</time>
      </trkpt>
      <trkpt lat="44.14617" lon="2.65679">
        <ele>827.83</ele>
        <time>2022-07-13T08:53:20Z</time>
      </trkpt>
      <trkpt lat="44.1461" lon="2.65691">
        <ele>829.76</ele>
        <time>2022-07-13T08:53:26Z</time>
      </trkpt>
      <trkpt lat="44.14604" lon="2.65701">
        <ele>831.2</ele>
        <time>2022-07-13T08:53:32Z</time>
      </trkpt>
      <trkpt lat="44.14598" lon="2.65713">
        <ele>832.16</ele>
        <time>2022-07-13T08:53:38Z</time>
      </trkpt>
      <trkpt lat="44.14593" lon="2.65725">
        <ele>831.68</ele>
        <time>2022-07-13T08:53:45Z</time>
      </trkpt>
      <trkpt lat="44.14589" lon="2.65738">
        <ele>830.72</ele>
        <time>2022-07-13T08:53:52Z</time>
      </trkpt>
      <trkpt lat="44.14583" lon="2.6575">
        <ele>830.72</ele>
        <time>2022-07-13T08:53:59Z</time>
      </trkpt>
      <trkpt lat="44.14578" lon="2.65761">
        <ele>830.24</ele>
        <time>2022-07-13T08:54:06Z</time>
      </trkpt>
      <trkpt lat="44.14573" lon="2.65772">
        <ele>829.76</ele>
        <time>2022-07-13T08:54:13Z</time>
      </trkpt>
      <trkpt lat="44.14566" lon="2.65786">
        <ele>829.76</ele>
        <time>2022-07-13T08:54:21Z</time>
      </trkpt>
      <trkpt lat="44.14552" lon="2.65812">
        <ele>826.39</ele>
        <time>2022-07-13T08:54:39Z</time>
      </trkpt>
      <trkpt lat="44.14545" lon="2.65828">
        <ele>823.03</ele>
        <time>2022-07-13T08:54:47Z</time>
      </trkpt>
      <trkpt lat="44.14534" lon="2.65843">
        <ele>820.14</ele>
        <time>2022-07-13T08:54:56Z</time>
      </trkpt>
      <trkpt lat="44.14526" lon="2.65854">
        <ele>819.18</ele>
        <time>2022-07-13T08:55:03Z</time>
      </trkpt>
      <trkpt lat="44.14518" lon="2.65865">
        <ele>818.22</ele>
        <time>2022-07-13T08:55:09Z</time>
      </trkpt>
      <trkpt lat="44.14509" lon="2.65875">
        <ele>817.26</ele>
        <time>2022-07-13T08:55:16Z</time>
      </trkpt>
      <trkpt lat="44.145" lon="2.65883">
        <ele>815.34</ele>
        <time>2022-07-13T08:55:23Z</time>
      </trkpt>
      <trkpt lat="44.1449" lon="2.65894">
        <ele>814.37</ele>
        <time>2022-07-13T08:55:31Z</time>
      </trkpt>
      <trkpt lat="44.14477" lon="2.65901">
        <ele>813.89</ele>
        <time>2022-07-13T08:55:40Z</time>
      </trkpt>
      <trkpt lat="44.14462" lon="2.65913">
        <ele>812.93</ele>
        <time>2022-07-13T08:55:53Z</time>
      </trkpt>
      <trkpt lat="44.14452" lon="2.65926">
        <ele>812.45</ele>
        <time>2022-07-13T08:56:02Z</time>
      </trkpt>
      <trkpt lat="44.14442" lon="2.65932">
        <ele>810.53</ele>
        <time>2022-07-13T08:56:09Z</time>
      </trkpt>
      <trkpt lat="44.14435" lon="2.65939">
        <ele>812.45</ele>
        <time>2022-07-13T08:56:16Z</time>
      </trkpt>
      <trkpt lat="44.14427" lon="2.65946">
        <ele>813.89</ele>
        <time>2022-07-13T08:56:22Z</time>
      </trkpt>
      <trkpt lat="44.1442" lon="2.65953">
        <ele>815.34</ele>
        <time>2022-07-13T08:56:28Z</time>
      </trkpt>
      <trkpt lat="44.14411" lon="2.65959">
        <ele>816.78</ele>
        <time>2022-07-13T08:56:34Z</time>
      </trkpt>
      <trkpt lat="44.14402" lon="2.65967">
        <ele>816.78</ele>
        <time>2022-07-13T08:56:40Z</time>
      </trkpt>
      <trkpt lat="44.14392" lon="2.65972">
        <ele>816.78</ele>
        <time>2022-07-13T08:56:47Z</time>
      </trkpt>
      <trkpt lat="44.14382" lon="2.65977">
        <ele>815.82</ele>
        <time>2022-07-13T08:56:55Z</time>
      </trkpt>
      <trkpt lat="44.14372" lon="2.65981">
        <ele>814.85</ele>
        <time>2022-07-13T08:57:01Z</time>
      </trkpt>
      <trkpt lat="44.14359" lon="2.65986">
        <ele>813.89</ele>
        <time>2022-07-13T08:57:12Z</time>
      </trkpt>
      <trkpt lat="44.14349" lon="2.65995">
        <ele>812.45</ele>
        <time>2022-07-13T08:57:19Z</time>
      </trkpt>
      <trkpt lat="44.14338" lon="2.66002">
        <ele>810.05</ele>
        <time>2022-07-13T08:57:26Z</time>
      </trkpt>
      <trkpt lat="44.14328" lon="2.66006">
        <ele>805.72</ele>
        <time>2022-07-13T08:57:33Z</time>
      </trkpt>
      <trkpt lat="44.14319" lon="2.6601">
        <ele>805.24</ele>
        <time>2022-07-13T08:57:39Z</time>
      </trkpt>
      <trkpt lat="44.14309" lon="2.66013">
        <ele>804.28</ele>
        <time>2022-07-13T08:57:47Z</time>
      </trkpt>
      <trkpt lat="44.14298" lon="2.66019">
        <ele>804.28</ele>
        <time>2022-07-13T08:57:54Z</time>
      </trkpt>
      <trkpt lat="44.14286" lon="2.66022">
        <ele>803.32</ele>
        <time>2022-07-13T08:58:03Z</time>
      </trkpt>
      <trkpt lat="44.14277" lon="2.6603">
        <ele>802.84</ele>
        <time>2022-07-13T08:58:11Z</time>
      </trkpt>
      <trkpt lat="44.14262" lon="2.66046">
        <ele>798.51</ele>
        <time>2022-07-13T08:58:46Z</time>
      </trkpt>
      <trkpt lat="44.14248" lon="2.66049">
        <ele>798.03</ele>
        <time>2022-07-13T08:58:57Z</time>
      </trkpt>
      <trkpt lat="44.14228" lon="2.66057">
        <ele>795.63</ele>
        <time>2022-07-13T08:59:13Z</time>
      </trkpt>
      <trkpt lat="44.14131" lon="2.66077">
        <ele>793.22</ele>
        <time>2022-07-13T09:00:20Z</time>
      </trkpt>
      <trkpt lat="44.14116" lon="2.66079">
        <ele>791.3</ele>
        <time>2022-07-13T09:00:29Z</time>
      </trkpt>
      <trkpt lat="44.14105" lon="2.66079">
        <ele>790.34</ele>
        <time>2022-07-13T09:00:37Z</time>
      </trkpt>
      <trkpt lat="44.14093" lon="2.66077">
        <ele>788.9</ele>
        <time>2022-07-13T09:00:46Z</time>
      </trkpt>
      <trkpt lat="44.14057" lon="2.66089">
        <ele>783.61</ele>
        <time>2022-07-13T09:01:50Z</time>
      </trkpt>
      <trkpt lat="44.14048" lon="2.661">
        <ele>783.61</ele>
        <time>2022-07-13T09:01:58Z</time>
      </trkpt>
      <trkpt lat="44.14014" lon="2.66124">
        <ele>781.21</ele>
        <time>2022-07-13T09:02:25Z</time>
      </trkpt>
      <trkpt lat="44.13998" lon="2.66139">
        <ele>779.77</ele>
        <time>2022-07-13T09:02:31Z</time>
      </trkpt>
      <trkpt lat="44.13982" lon="2.66146">
        <ele>778.32</ele>
        <time>2022-07-13T09:02:38Z</time>
      </trkpt>
      <trkpt lat="44.13964" lon="2.66148">
        <ele>776.88</ele>
        <time>2022-07-13T09:02:43Z</time>
      </trkpt>
      <trkpt lat="44.13944" lon="2.66147">
        <ele>777.36</ele>
        <time>2022-07-13T09:02:49Z</time>
      </trkpt>
      <trkpt lat="44.13927" lon="2.66151">
        <ele>777.84</ele>
        <time>2022-07-13T09:02:55Z</time>
      </trkpt>
      <trkpt lat="44.13913" lon="2.66152">
        <ele>778.32</ele>
        <time>2022-07-13T09:03:01Z</time>
      </trkpt>
      <trkpt lat="44.13896" lon="2.66153">
        <ele>778.32</ele>
        <time>2022-07-13T09:03:07Z</time>
      </trkpt>
      <trkpt lat="44.13865" lon="2.6616">
        <ele>778.32</ele>
        <time>2022-07-13T09:03:16Z</time>
      </trkpt>
      <trkpt lat="44.1385" lon="2.66159">
        <ele>778.81</ele>
        <time>2022-07-13T09:03:22Z</time>
      </trkpt>
      <trkpt lat="44.13833" lon="2.66165">
        <ele>778.81</ele>
        <time>2022-07-13T09:03:30Z</time>
      </trkpt>
      <trkpt lat="44.13817" lon="2.66176">
        <ele>779.29</ele>
        <time>2022-07-13T09:03:35Z</time>
      </trkpt>
      <trkpt lat="44.13804" lon="2.6619">
        <ele>778.32</ele>
        <time>2022-07-13T09:03:40Z</time>
      </trkpt>
      <trkpt lat="44.13784" lon="2.66206">
        <ele>778.32</ele>
        <time>2022-07-13T09:03:45Z</time>
      </trkpt>
      <trkpt lat="44.13764" lon="2.66213">
        <ele>778.32</ele>
        <time>2022-07-13T09:03:50Z</time>
      </trkpt>
      <trkpt lat="44.13728" lon="2.66224">
        <ele>778.81</ele>
        <time>2022-07-13T09:04:05Z</time>
      </trkpt>
      <trkpt lat="44.1366" lon="2.66274">
        <ele>774.48</ele>
        <time>2022-07-13T09:05:09Z</time>
      </trkpt>
      <trkpt lat="44.13634" lon="2.66276">
        <ele>774</ele>
        <time>2022-07-13T09:05:26Z</time>
      </trkpt>
      <trkpt lat="44.13623" lon="2.6628">
        <ele>772.56</ele>
        <time>2022-07-13T09:05:33Z</time>
      </trkpt>
      <trkpt lat="44.13613" lon="2.66282">
        <ele>772.56</ele>
        <time>2022-07-13T09:05:40Z</time>
      </trkpt>
      <trkpt lat="44.13602" lon="2.66287">
        <ele>772.08</ele>
        <time>2022-07-13T09:05:48Z</time>
      </trkpt>
      <trkpt lat="44.13591" lon="2.66293">
        <ele>771.6</ele>
        <time>2022-07-13T09:05:56Z</time>
      </trkpt>
      <trkpt lat="44.13553" lon="2.66305">
        <ele>771.11</ele>
        <time>2022-07-13T09:06:29Z</time>
      </trkpt>
      <trkpt lat="44.13375" lon="2.66339">
        <ele>748.04</ele>
        <time>2022-07-13T09:08:33Z</time>
      </trkpt>
      <trkpt lat="44.13362" lon="2.66339">
        <ele>749.97</ele>
        <time>2022-07-13T09:08:42Z</time>
      </trkpt>
      <trkpt lat="44.13325" lon="2.66345">
        <ele>752.37</ele>
        <time>2022-07-13T09:09:11Z</time>
      </trkpt>
      <trkpt lat="44.13314" lon="2.66346">
        <ele>752.37</ele>
        <time>2022-07-13T09:09:17Z</time>
      </trkpt>
      <trkpt lat="44.133" lon="2.66346">
        <ele>753.33</ele>
        <time>2022-07-13T09:09:24Z</time>
      </trkpt>
      <trkpt lat="44.13288" lon="2.66349">
        <ele>754.77</ele>
        <time>2022-07-13T09:09:31Z</time>
      </trkpt>
      <trkpt lat="44.13277" lon="2.66355">
        <ele>755.25</ele>
        <time>2022-07-13T09:09:38Z</time>
      </trkpt>
      <trkpt lat="44.13266" lon="2.6636">
        <ele>756.69</ele>
        <time>2022-07-13T09:09:45Z</time>
      </trkpt>
      <trkpt lat="44.13255" lon="2.66361">
        <ele>757.18</ele>
        <time>2022-07-13T09:09:53Z</time>
      </trkpt>
      <trkpt lat="44.13245" lon="2.66366">
        <ele>758.14</ele>
        <time>2022-07-13T09:10:00Z</time>
      </trkpt>
      <trkpt lat="44.13235" lon="2.66371">
        <ele>758.14</ele>
        <time>2022-07-13T09:10:07Z</time>
      </trkpt>
      <trkpt lat="44.13223" lon="2.66376">
        <ele>757.66</ele>
        <time>2022-07-13T09:10:15Z</time>
      </trkpt>
      <trkpt lat="44.13212" lon="2.66383">
        <ele>757.18</ele>
        <time>2022-07-13T09:10:21Z</time>
      </trkpt>
      <trkpt lat="44.13201" lon="2.6639">
        <ele>757.18</ele>
        <time>2022-07-13T09:10:29Z</time>
      </trkpt>
      <trkpt lat="44.13193" lon="2.66398">
        <ele>757.18</ele>
        <time>2022-07-13T09:10:36Z</time>
      </trkpt>
      <trkpt lat="44.13182" lon="2.66404">
        <ele>757.66</ele>
        <time>2022-07-13T09:10:45Z</time>
      </trkpt>
      <trkpt lat="44.13168" lon="2.66418">
        <ele>757.18</ele>
        <time>2022-07-13T09:10:56Z</time>
      </trkpt>
      <trkpt lat="44.13159" lon="2.66428">
        <ele>757.66</ele>
        <time>2022-07-13T09:11:04Z</time>
      </trkpt>
      <trkpt lat="44.13151" lon="2.66443">
        <ele>758.14</ele>
        <time>2022-07-13T09:11:13Z</time>
      </trkpt>
      <trkpt lat="44.13116" lon="2.66477">
        <ele>759.1</ele>
        <time>2022-07-13T09:11:44Z</time>
      </trkpt>
      <trkpt lat="44.13104" lon="2.66484">
        <ele>760.54</ele>
        <time>2022-07-13T09:11:53Z</time>
      </trkpt>
      <trkpt lat="44.13094" lon="2.66493">
        <ele>761.98</ele>
        <time>2022-07-13T09:12:00Z</time>
      </trkpt>
      <trkpt lat="44.13086" lon="2.66502">
        <ele>762.46</ele>
        <time>2022-07-13T09:12:07Z</time>
      </trkpt>
      <trkpt lat="44.13075" lon="2.6651">
        <ele>763.9</ele>
        <time>2022-07-13T09:12:16Z</time>
      </trkpt>
      <trkpt lat="44.13064" lon="2.66521">
        <ele>766.79</ele>
        <time>2022-07-13T09:12:25Z</time>
      </trkpt>
      <trkpt lat="44.13056" lon="2.66531">
        <ele>767.75</ele>
        <time>2022-07-13T09:12:33Z</time>
      </trkpt>
      <trkpt lat="44.13047" lon="2.66539">
        <ele>769.19</ele>
        <time>2022-07-13T09:12:41Z</time>
      </trkpt>
      <trkpt lat="44.1304" lon="2.66551">
        <ele>772.08</ele>
        <time>2022-07-13T09:12:50Z</time>
      </trkpt>
      <trkpt lat="44.13032" lon="2.66556">
        <ele>772.08</ele>
        <time>2022-07-13T09:12:58Z</time>
      </trkpt>
      <trkpt lat="44.13002" lon="2.66571">
        <ele>772.08</ele>
        <time>2022-07-13T09:13:23Z</time>
      </trkpt>
      <trkpt lat="44.12985" lon="2.66587">
        <ele>771.6</ele>
        <time>2022-07-13T09:13:35Z</time>
      </trkpt>
      <trkpt lat="44.1297" lon="2.66598">
        <ele>770.63</ele>
        <time>2022-07-13T09:13:46Z</time>
      </trkpt>
      <trkpt lat="44.12953" lon="2.66612">
        <ele>770.63</ele>
        <time>2022-07-13T09:13:58Z</time>
      </trkpt>
      <trkpt lat="44.1294" lon="2.66624">
        <ele>770.15</ele>
        <time>2022-07-13T09:14:07Z</time>
      </trkpt>
      <trkpt lat="44.12924" lon="2.66643">
        <ele>770.15</ele>
        <time>2022-07-13T09:14:22Z</time>
      </trkpt>
      <trkpt lat="44.12916" lon="2.66656">
        <ele>770.15</ele>
        <time>2022-07-13T09:14:30Z</time>
      </trkpt>
      <trkpt lat="44.12909" lon="2.66668">
        <ele>770.15</ele>
        <time>2022-07-13T09:14:37Z</time>
      </trkpt>
      <trkpt lat="44.12902" lon="2.66682">
        <ele>770.63</ele>
        <time>2022-07-13T09:14:46Z</time>
      </trkpt>
      <trkpt lat="44.12876" lon="2.66711">
        <ele>771.11</ele>
        <time>2022-07-13T09:15:09Z</time>
      </trkpt>
      <trkpt lat="44.12858" lon="2.66721">
        <ele>772.08</ele>
        <time>2022-07-13T09:15:23Z</time>
      </trkpt>
      <trkpt lat="44.12829" lon="2.66735">
        <ele>770.63</ele>
        <time>2022-07-13T09:15:45Z</time>
      </trkpt>
      <trkpt lat="44.12813" lon="2.66735">
        <ele>768.71</ele>
        <time>2022-07-13T09:15:54Z</time>
      </trkpt>
      <trkpt lat="44.12801" lon="2.66731">
        <ele>766.79</ele>
        <time>2022-07-13T09:16:03Z</time>
      </trkpt>
      <trkpt lat="44.12791" lon="2.66737">
        <ele>766.31</ele>
        <time>2022-07-13T09:16:10Z</time>
      </trkpt>
      <trkpt lat="44.12779" lon="2.66744">
        <ele>765.35</ele>
        <time>2022-07-13T09:16:16Z</time>
      </trkpt>
      <trkpt lat="44.1277" lon="2.66748">
        <ele>762.94</ele>
        <time>2022-07-13T09:16:22Z</time>
      </trkpt>
      <trkpt lat="44.12761" lon="2.6675">
        <ele>761.98</ele>
        <time>2022-07-13T09:16:29Z</time>
      </trkpt>
      <trkpt lat="44.12751" lon="2.66758">
        <ele>761.5</ele>
        <time>2022-07-13T09:16:37Z</time>
      </trkpt>
      <trkpt lat="44.12741" lon="2.6678">
        <ele>758.14</ele>
        <time>2022-07-13T09:16:51Z</time>
      </trkpt>
      <trkpt lat="44.12705" lon="2.66827">
        <ele>753.33</ele>
        <time>2022-07-13T09:18:09Z</time>
      </trkpt>
      <trkpt lat="44.12697" lon="2.66833">
        <ele>753.33</ele>
        <time>2022-07-13T09:18:17Z</time>
      </trkpt>
      <trkpt lat="44.12688" lon="2.66842">
        <ele>753.33</ele>
        <time>2022-07-13T09:18:24Z</time>
      </trkpt>
      <trkpt lat="44.12681" lon="2.6685">
        <ele>752.85</ele>
        <time>2022-07-13T09:18:31Z</time>
      </trkpt>
      <trkpt lat="44.12672" lon="2.66857">
        <ele>753.33</ele>
        <time>2022-07-13T09:18:41Z</time>
      </trkpt>
      <trkpt lat="44.12662" lon="2.6687">
        <ele>753.81</ele>
        <time>2022-07-13T09:18:52Z</time>
      </trkpt>
      <trkpt lat="44.12656" lon="2.669">
        <ele>752.85</ele>
        <time>2022-07-13T09:19:09Z</time>
      </trkpt>
      <trkpt lat="44.12651" lon="2.66914">
        <ele>753.33</ele>
        <time>2022-07-13T09:19:17Z</time>
      </trkpt>
      <trkpt lat="44.12644" lon="2.66926">
        <ele>753.81</ele>
        <time>2022-07-13T09:19:25Z</time>
      </trkpt>
      <trkpt lat="44.12636" lon="2.66933">
        <ele>754.77</ele>
        <time>2022-07-13T09:19:32Z</time>
      </trkpt>
      <trkpt lat="44.12626" lon="2.66941">
        <ele>755.73</ele>
        <time>2022-07-13T09:19:40Z</time>
      </trkpt>
      <trkpt lat="44.12617" lon="2.66949">
        <ele>755.73</ele>
        <time>2022-07-13T09:19:47Z</time>
      </trkpt>
      <trkpt lat="44.12607" lon="2.66956">
        <ele>755.73</ele>
        <time>2022-07-13T09:19:54Z</time>
      </trkpt>
      <trkpt lat="44.12598" lon="2.66963">
        <ele>756.21</ele>
        <time>2022-07-13T09:20:01Z</time>
      </trkpt>
      <trkpt lat="44.12588" lon="2.66969">
        <ele>756.69</ele>
        <time>2022-07-13T09:20:08Z</time>
      </trkpt>
      <trkpt lat="44.12579" lon="2.66976">
        <ele>755.73</ele>
        <time>2022-07-13T09:20:15Z</time>
      </trkpt>
      <trkpt lat="44.12569" lon="2.66983">
        <ele>754.77</ele>
        <time>2022-07-13T09:20:25Z</time>
      </trkpt>
      <trkpt lat="44.12557" lon="2.66988">
        <ele>756.69</ele>
        <time>2022-07-13T09:20:32Z</time>
      </trkpt>
      <trkpt lat="44.12547" lon="2.66993">
        <ele>757.18</ele>
        <time>2022-07-13T09:20:39Z</time>
      </trkpt>
      <trkpt lat="44.12538" lon="2.66996">
        <ele>758.14</ele>
        <time>2022-07-13T09:20:46Z</time>
      </trkpt>
      <trkpt lat="44.1253" lon="2.67001">
        <ele>758.62</ele>
        <time>2022-07-13T09:20:54Z</time>
      </trkpt>
      <trkpt lat="44.12522" lon="2.66996">
        <ele>758.14</ele>
        <time>2022-07-13T09:21:03Z</time>
      </trkpt>
      <trkpt lat="44.1252" lon="2.66984">
        <ele>757.66</ele>
        <time>2022-07-13T09:21:10Z</time>
      </trkpt>
      <trkpt lat="44.12515" lon="2.66969">
        <ele>757.18</ele>
        <time>2022-07-13T09:21:18Z</time>
      </trkpt>
      <trkpt lat="44.1251" lon="2.66956">
        <ele>756.69</ele>
        <time>2022-07-13T09:21:26Z</time>
      </trkpt>
      <trkpt lat="44.12504" lon="2.66942">
        <ele>756.21</ele>
        <time>2022-07-13T09:21:34Z</time>
      </trkpt>
      <trkpt lat="44.12499" lon="2.66928">
        <ele>756.21</ele>
        <time>2022-07-13T09:21:41Z</time>
      </trkpt>
      <trkpt lat="44.12493" lon="2.66915">
        <ele>756.21</ele>
        <time>2022-07-13T09:21:48Z</time>
      </trkpt>
      <trkpt lat="44.12485" lon="2.6691">
        <ele>758.14</ele>
        <time>2022-07-13T09:21:56Z</time>
      </trkpt>
      <trkpt lat="44.12476" lon="2.66901">
        <ele>759.1</ele>
        <time>2022-07-13T09:22:04Z</time>
      </trkpt>
      <trkpt lat="44.12468" lon="2.66891">
        <ele>759.1</ele>
        <time>2022-07-13T09:22:12Z</time>
      </trkpt>
      <trkpt lat="44.12461" lon="2.66879">
        <ele>760.54</ele>
        <time>2022-07-13T09:22:19Z</time>
      </trkpt>
      <trkpt lat="44.12453" lon="2.66869">
        <ele>761.98</ele>
        <time>2022-07-13T09:22:26Z</time>
      </trkpt>
      <trkpt lat="44.12445" lon="2.66859">
        <ele>763.42</ele>
        <time>2022-07-13T09:22:33Z</time>
      </trkpt>
      <trkpt lat="44.12438" lon="2.66852">
        <ele>764.39</ele>
        <time>2022-07-13T09:22:40Z</time>
      </trkpt>
      <trkpt lat="44.1243" lon="2.66844">
        <ele>765.83</ele>
        <time>2022-07-13T09:22:47Z</time>
      </trkpt>
      <trkpt lat="44.12422" lon="2.66836">
        <ele>766.31</ele>
        <time>2022-07-13T09:22:54Z</time>
      </trkpt>
      <trkpt lat="44.12412" lon="2.66827">
        <ele>767.27</ele>
        <time>2022-07-13T09:23:02Z</time>
      </trkpt>
      <trkpt lat="44.12403" lon="2.66816">
        <ele>768.71</ele>
        <time>2022-07-13T09:23:10Z</time>
      </trkpt>
      <trkpt lat="44.12393" lon="2.66806">
        <ele>770.63</ele>
        <time>2022-07-13T09:23:46Z</time>
      </trkpt>
      <trkpt lat="44.12382" lon="2.66797">
        <ele>770.63</ele>
        <time>2022-07-13T09:23:55Z</time>
      </trkpt>
      <trkpt lat="44.12373" lon="2.66786">
        <ele>771.11</ele>
        <time>2022-07-13T09:24:03Z</time>
      </trkpt>
      <trkpt lat="44.12364" lon="2.66774">
        <ele>771.6</ele>
        <time>2022-07-13T09:24:12Z</time>
      </trkpt>
      <trkpt lat="44.12352" lon="2.66763">
        <ele>771.11</ele>
        <time>2022-07-13T09:24:22Z</time>
      </trkpt>
      <trkpt lat="44.12342" lon="2.66753">
        <ele>772.08</ele>
        <time>2022-07-13T09:24:29Z</time>
      </trkpt>
      <trkpt lat="44.12333" lon="2.66747">
        <ele>773.52</ele>
        <time>2022-07-13T09:24:36Z</time>
      </trkpt>
      <trkpt lat="44.12323" lon="2.66739">
        <ele>775.92</ele>
        <time>2022-07-13T09:24:45Z</time>
      </trkpt>
      <trkpt lat="44.1231" lon="2.66728">
        <ele>777.84</ele>
        <time>2022-07-13T09:24:56Z</time>
      </trkpt>
      <trkpt lat="44.12298" lon="2.66718">
        <ele>780.73</ele>
        <time>2022-07-13T09:25:07Z</time>
      </trkpt>
      <trkpt lat="44.12285" lon="2.667">
        <ele>785.05</ele>
        <time>2022-07-13T09:25:21Z</time>
      </trkpt>
      <trkpt lat="44.12273" lon="2.66694">
        <ele>787.94</ele>
        <time>2022-07-13T09:25:30Z</time>
      </trkpt>
      <trkpt lat="44.12261" lon="2.66687">
        <ele>791.78</ele>
        <time>2022-07-13T09:25:37Z</time>
      </trkpt>
      <trkpt lat="44.12252" lon="2.66678">
        <ele>794.67</ele>
        <time>2022-07-13T09:25:46Z</time>
      </trkpt>
      <trkpt lat="44.12242" lon="2.66667">
        <ele>795.63</ele>
        <time>2022-07-13T09:25:57Z</time>
      </trkpt>
      <trkpt lat="44.12233" lon="2.6666">
        <ele>796.59</ele>
        <time>2022-07-13T09:26:05Z</time>
      </trkpt>
      <trkpt lat="44.1222" lon="2.66658">
        <ele>801.4</ele>
        <time>2022-07-13T09:26:14Z</time>
      </trkpt>
      <trkpt lat="44.12208" lon="2.66655">
        <ele>804.28</ele>
        <time>2022-07-13T09:26:23Z</time>
      </trkpt>
      <trkpt lat="44.12198" lon="2.66651">
        <ele>806.68</ele>
        <time>2022-07-13T09:26:31Z</time>
      </trkpt>
      <trkpt lat="44.12189" lon="2.66643">
        <ele>808.13</ele>
        <time>2022-07-13T09:26:39Z</time>
      </trkpt>
      <trkpt lat="44.1218" lon="2.66634">
        <ele>811.01</ele>
        <time>2022-07-13T09:26:48Z</time>
      </trkpt>
      <trkpt lat="44.12173" lon="2.66623">
        <ele>812.93</ele>
        <time>2022-07-13T09:26:55Z</time>
      </trkpt>
      <trkpt lat="44.12166" lon="2.66613">
        <ele>815.82</ele>
        <time>2022-07-13T09:27:02Z</time>
      </trkpt>
      <trkpt lat="44.12159" lon="2.66604">
        <ele>818.22</ele>
        <time>2022-07-13T09:27:10Z</time>
      </trkpt>
      <trkpt lat="44.1215" lon="2.66592">
        <ele>820.62</ele>
        <time>2022-07-13T09:27:20Z</time>
      </trkpt>
      <trkpt lat="44.12137" lon="2.6658">
        <ele>819.18</ele>
        <time>2022-07-13T09:27:33Z</time>
      </trkpt>
      <trkpt lat="44.12128" lon="2.66569">
        <ele>818.7</ele>
        <time>2022-07-13T09:27:43Z</time>
      </trkpt>
      <trkpt lat="44.12116" lon="2.66556">
        <ele>817.26</ele>
        <time>2022-07-13T09:27:56Z</time>
      </trkpt>
      <trkpt lat="44.12107" lon="2.6654">
        <ele>816.3</ele>
        <time>2022-07-13T09:28:04Z</time>
      </trkpt>
      <trkpt lat="44.12096" lon="2.66521">
        <ele>815.34</ele>
        <time>2022-07-13T09:28:14Z</time>
      </trkpt>
      <trkpt lat="44.1208" lon="2.66507">
        <ele>813.89</ele>
        <time>2022-07-13T09:28:27Z</time>
      </trkpt>
      <trkpt lat="44.12069" lon="2.66497">
        <ele>813.41</ele>
        <time>2022-07-13T09:28:35Z</time>
      </trkpt>
      <trkpt lat="44.12058" lon="2.66489">
        <ele>812.93</ele>
        <time>2022-07-13T09:28:42Z</time>
      </trkpt>
      <trkpt lat="44.12049" lon="2.6648">
        <ele>812.93</ele>
        <time>2022-07-13T09:28:49Z</time>
      </trkpt>
      <trkpt lat="44.1204" lon="2.66472">
        <ele>812.93</ele>
        <time>2022-07-13T09:28:56Z</time>
      </trkpt>
      <trkpt lat="44.12028" lon="2.66462">
        <ele>811.97</ele>
        <time>2022-07-13T09:29:07Z</time>
      </trkpt>
      <trkpt lat="44.12015" lon="2.66452">
        <ele>811.97</ele>
        <time>2022-07-13T09:29:17Z</time>
      </trkpt>
      <trkpt lat="44.11913" lon="2.66413">
        <ele>794.19</ele>
        <time>2022-07-13T09:30:34Z</time>
      </trkpt>
      <trkpt lat="44.11891" lon="2.66418">
        <ele>794.19</ele>
        <time>2022-07-13T09:30:47Z</time>
      </trkpt>
      <trkpt lat="44.11873" lon="2.66441">
        <ele>794.67</ele>
        <time>2022-07-13T09:31:06Z</time>
      </trkpt>
      <trkpt lat="44.11868" lon="2.66455">
        <ele>796.11</ele>
        <time>2022-07-13T09:31:13Z</time>
      </trkpt>
      <trkpt lat="44.1186" lon="2.66469">
        <ele>796.11</ele>
        <time>2022-07-13T09:31:22Z</time>
      </trkpt>
      <trkpt lat="44.11853" lon="2.66486">
        <ele>796.59</ele>
        <time>2022-07-13T09:31:30Z</time>
      </trkpt>
      <trkpt lat="44.11847" lon="2.66501">
        <ele>796.59</ele>
        <time>2022-07-13T09:31:38Z</time>
      </trkpt>
      <trkpt lat="44.11839" lon="2.66512">
        <ele>795.63</ele>
        <time>2022-07-13T09:31:47Z</time>
      </trkpt>
      <trkpt lat="44.11828" lon="2.66537">
        <ele>794.67</ele>
        <time>2022-07-13T09:32:02Z</time>
      </trkpt>
      <trkpt lat="44.11824" lon="2.66553">
        <ele>795.15</ele>
        <time>2022-07-13T09:32:10Z</time>
      </trkpt>
      <trkpt lat="44.11821" lon="2.66568">
        <ele>795.15</ele>
        <time>2022-07-13T09:32:17Z</time>
      </trkpt>
      <trkpt lat="44.11818" lon="2.66583">
        <ele>794.67</ele>
        <time>2022-07-13T09:32:26Z</time>
      </trkpt>
      <trkpt lat="44.11814" lon="2.66602">
        <ele>796.11</ele>
        <time>2022-07-13T09:32:36Z</time>
      </trkpt>
      <trkpt lat="44.11809" lon="2.66618">
        <ele>797.55</ele>
        <time>2022-07-13T09:32:44Z</time>
      </trkpt>
      <trkpt lat="44.11803" lon="2.66635">
        <ele>798.51</ele>
        <time>2022-07-13T09:32:53Z</time>
      </trkpt>
      <trkpt lat="44.11796" lon="2.66649">
        <ele>797.55</ele>
        <time>2022-07-13T09:33:03Z</time>
      </trkpt>
      <trkpt lat="44.11788" lon="2.6667">
        <ele>798.03</ele>
        <time>2022-07-13T09:33:16Z</time>
      </trkpt>
      <trkpt lat="44.1178" lon="2.66685">
        <ele>798.03</ele>
        <time>2022-07-13T09:33:24Z</time>
      </trkpt>
      <trkpt lat="44.11774" lon="2.66699">
        <ele>798.51</ele>
        <time>2022-07-13T09:33:32Z</time>
      </trkpt>
      <trkpt lat="44.11768" lon="2.66713">
        <ele>799.47</ele>
        <time>2022-07-13T09:33:40Z</time>
      </trkpt>
      <trkpt lat="44.11761" lon="2.6673">
        <ele>799.47</ele>
        <time>2022-07-13T09:33:49Z</time>
      </trkpt>
      <trkpt lat="44.11756" lon="2.66744">
        <ele>798.51</ele>
        <time>2022-07-13T09:33:56Z</time>
      </trkpt>
      <trkpt lat="44.11751" lon="2.66757">
        <ele>798.03</ele>
        <time>2022-07-13T09:34:03Z</time>
      </trkpt>
      <trkpt lat="44.11746" lon="2.66769">
        <ele>797.55</ele>
        <time>2022-07-13T09:34:10Z</time>
      </trkpt>
      <trkpt lat="44.1174" lon="2.66782">
        <ele>797.55</ele>
        <time>2022-07-13T09:34:18Z</time>
      </trkpt>
      <trkpt lat="44.11735" lon="2.66796">
        <ele>798.03</ele>
        <time>2022-07-13T09:34:27Z</time>
      </trkpt>
      <trkpt lat="44.1173" lon="2.66808">
        <ele>797.55</ele>
        <time>2022-07-13T09:34:34Z</time>
      </trkpt>
      <trkpt lat="44.11724" lon="2.66821">
        <ele>797.55</ele>
        <time>2022-07-13T09:34:43Z</time>
      </trkpt>
      <trkpt lat="44.11717" lon="2.66836">
        <ele>798.03</ele>
        <time>2022-07-13T09:34:50Z</time>
      </trkpt>
      <trkpt lat="44.11712" lon="2.66849">
        <ele>798.03</ele>
        <time>2022-07-13T09:34:57Z</time>
      </trkpt>
      <trkpt lat="44.11707" lon="2.66862">
        <ele>797.55</ele>
        <time>2022-07-13T09:35:04Z</time>
      </trkpt>
      <trkpt lat="44.11702" lon="2.66876">
        <ele>797.07</ele>
        <time>2022-07-13T09:35:11Z</time>
      </trkpt>
      <trkpt lat="44.11698" lon="2.6689">
        <ele>796.59</ele>
        <time>2022-07-13T09:35:17Z</time>
      </trkpt>
      <trkpt lat="44.11694" lon="2.66901">
        <ele>797.07</ele>
        <time>2022-07-13T09:35:23Z</time>
      </trkpt>
      <trkpt lat="44.1169" lon="2.66914">
        <ele>797.55</ele>
        <time>2022-07-13T09:35:30Z</time>
      </trkpt>
      <trkpt lat="44.11687" lon="2.66927">
        <ele>797.55</ele>
        <time>2022-07-13T09:35:37Z</time>
      </trkpt>
      <trkpt lat="44.11683" lon="2.66941">
        <ele>798.03</ele>
        <time>2022-07-13T09:35:44Z</time>
      </trkpt>
      <trkpt lat="44.11679" lon="2.66954">
        <ele>798.03</ele>
        <time>2022-07-13T09:35:51Z</time>
      </trkpt>
      <trkpt lat="44.11671" lon="2.6696">
        <ele>798.03</ele>
        <time>2022-07-13T09:35:59Z</time>
      </trkpt>
      <trkpt lat="44.11666" lon="2.66948">
        <ele>797.55</ele>
        <time>2022-07-13T09:36:06Z</time>
      </trkpt>
      <trkpt lat="44.1166" lon="2.66935">
        <ele>797.55</ele>
        <time>2022-07-13T09:36:13Z</time>
      </trkpt>
      <trkpt lat="44.11654" lon="2.66922">
        <ele>797.07</ele>
        <time>2022-07-13T09:36:19Z</time>
      </trkpt>
      <trkpt lat="44.11649" lon="2.66911">
        <ele>796.11</ele>
        <time>2022-07-13T09:36:25Z</time>
      </trkpt>
      <trkpt lat="44.11645" lon="2.669">
        <ele>794.67</ele>
        <time>2022-07-13T09:36:31Z</time>
      </trkpt>
      <trkpt lat="44.11639" lon="2.66888">
        <ele>792.74</ele>
        <time>2022-07-13T09:36:38Z</time>
      </trkpt>
      <trkpt lat="44.11632" lon="2.66877">
        <ele>790.82</ele>
        <time>2022-07-13T09:36:45Z</time>
      </trkpt>
      <trkpt lat="44.11622" lon="2.66876">
        <ele>789.38</ele>
        <time>2022-07-13T09:36:52Z</time>
      </trkpt>
      <trkpt lat="44.11613" lon="2.66885">
        <ele>787.94</ele>
        <time>2022-07-13T09:36:59Z</time>
      </trkpt>
      <trkpt lat="44.11605" lon="2.66894">
        <ele>786.02</ele>
        <time>2022-07-13T09:37:06Z</time>
      </trkpt>
      <trkpt lat="44.11598" lon="2.66903">
        <ele>784.57</ele>
        <time>2022-07-13T09:37:13Z</time>
      </trkpt>
      <trkpt lat="44.11589" lon="2.66913">
        <ele>782.65</ele>
        <time>2022-07-13T09:37:21Z</time>
      </trkpt>
      <trkpt lat="44.1158" lon="2.66919">
        <ele>780.73</ele>
        <time>2022-07-13T09:37:28Z</time>
      </trkpt>
      <trkpt lat="44.11571" lon="2.66928">
        <ele>779.77</ele>
        <time>2022-07-13T09:37:35Z</time>
      </trkpt>
      <trkpt lat="44.11562" lon="2.66933">
        <ele>778.32</ele>
        <time>2022-07-13T09:37:42Z</time>
      </trkpt>
      <trkpt lat="44.11553" lon="2.66938">
        <ele>778.32</ele>
        <time>2022-07-13T09:37:49Z</time>
      </trkpt>
      <trkpt lat="44.11542" lon="2.66945">
        <ele>777.84</ele>
        <time>2022-07-13T09:37:58Z</time>
      </trkpt>
      <trkpt lat="44.11532" lon="2.66952">
        <ele>778.32</ele>
        <time>2022-07-13T09:38:05Z</time>
      </trkpt>
      <trkpt lat="44.11523" lon="2.66962">
        <ele>778.81</ele>
        <time>2022-07-13T09:38:13Z</time>
      </trkpt>
      <trkpt lat="44.11513" lon="2.66974">
        <ele>780.73</ele>
        <time>2022-07-13T09:38:21Z</time>
      </trkpt>
      <trkpt lat="44.11504" lon="2.66982">
        <ele>781.21</ele>
        <time>2022-07-13T09:38:28Z</time>
      </trkpt>
      <trkpt lat="44.11494" lon="2.66992">
        <ele>780.25</ele>
        <time>2022-07-13T09:38:36Z</time>
      </trkpt>
      <trkpt lat="44.11486" lon="2.67007">
        <ele>777.84</ele>
        <time>2022-07-13T09:38:48Z</time>
      </trkpt>
      <trkpt lat="44.11484" lon="2.67023">
        <ele>775.92</ele>
        <time>2022-07-13T09:38:56Z</time>
      </trkpt>
      <trkpt lat="44.11484" lon="2.67038">
        <ele>776.88</ele>
        <time>2022-07-13T09:39:03Z</time>
      </trkpt>
      <trkpt lat="44.11487" lon="2.67057">
        <ele>779.77</ele>
        <time>2022-07-13T09:39:11Z</time>
      </trkpt>
      <trkpt lat="44.11489" lon="2.67072">
        <ele>780.73</ele>
        <time>2022-07-13T09:39:18Z</time>
      </trkpt>
      <trkpt lat="44.11491" lon="2.67085">
        <ele>780.25</ele>
        <time>2022-07-13T09:39:24Z</time>
      </trkpt>
      <trkpt lat="44.11494" lon="2.67099">
        <ele>780.73</ele>
        <time>2022-07-13T09:39:31Z</time>
      </trkpt>
      <trkpt lat="44.11498" lon="2.67112">
        <ele>780.25</ele>
        <time>2022-07-13T09:39:39Z</time>
      </trkpt>
      <trkpt lat="44.115" lon="2.67125">
        <ele>779.77</ele>
        <time>2022-07-13T09:39:46Z</time>
      </trkpt>
      <trkpt lat="44.11501" lon="2.67139">
        <ele>778.32</ele>
        <time>2022-07-13T09:39:54Z</time>
      </trkpt>
      <trkpt lat="44.11501" lon="2.67155">
        <ele>777.84</ele>
        <time>2022-07-13T09:40:01Z</time>
      </trkpt>
      <trkpt lat="44.11499" lon="2.67171">
        <ele>779.29</ele>
        <time>2022-07-13T09:40:08Z</time>
      </trkpt>
      <trkpt lat="44.11495" lon="2.67185">
        <ele>778.81</ele>
        <time>2022-07-13T09:40:14Z</time>
      </trkpt>
      <trkpt lat="44.11491" lon="2.67196">
        <ele>779.29</ele>
        <time>2022-07-13T09:40:21Z</time>
      </trkpt>
      <trkpt lat="44.11484" lon="2.67209">
        <ele>778.81</ele>
        <time>2022-07-13T09:40:29Z</time>
      </trkpt>
      <trkpt lat="44.11476" lon="2.67221">
        <ele>778.32</ele>
        <time>2022-07-13T09:40:37Z</time>
      </trkpt>
      <trkpt lat="44.11467" lon="2.67234">
        <ele>778.81</ele>
        <time>2022-07-13T09:40:44Z</time>
      </trkpt>
      <trkpt lat="44.1146" lon="2.67245">
        <ele>779.29</ele>
        <time>2022-07-13T09:40:50Z</time>
      </trkpt>
      <trkpt lat="44.11454" lon="2.67256">
        <ele>779.77</ele>
        <time>2022-07-13T09:40:56Z</time>
      </trkpt>
      <trkpt lat="44.11448" lon="2.67267">
        <ele>779.77</ele>
        <time>2022-07-13T09:41:02Z</time>
      </trkpt>
      <trkpt lat="44.11442" lon="2.67278">
        <ele>779.29</ele>
        <time>2022-07-13T09:41:09Z</time>
      </trkpt>
      <trkpt lat="44.11437" lon="2.67289">
        <ele>779.29</ele>
        <time>2022-07-13T09:41:15Z</time>
      </trkpt>
      <trkpt lat="44.11431" lon="2.67302">
        <ele>778.32</ele>
        <time>2022-07-13T09:41:22Z</time>
      </trkpt>
      <trkpt lat="44.11427" lon="2.67315">
        <ele>777.84</ele>
        <time>2022-07-13T09:41:28Z</time>
      </trkpt>
      <trkpt lat="44.11425" lon="2.67329">
        <ele>777.84</ele>
        <time>2022-07-13T09:41:35Z</time>
      </trkpt>
      <trkpt lat="44.11424" lon="2.67346">
        <ele>778.32</ele>
        <time>2022-07-13T09:41:43Z</time>
      </trkpt>
      <trkpt lat="44.11429" lon="2.67363">
        <ele>778.32</ele>
        <time>2022-07-13T09:41:54Z</time>
      </trkpt>
      <trkpt lat="44.1145" lon="2.67397">
        <ele>778.32</ele>
        <time>2022-07-13T09:42:25Z</time>
      </trkpt>
      <trkpt lat="44.11456" lon="2.6741">
        <ele>777.84</ele>
        <time>2022-07-13T09:42:33Z</time>
      </trkpt>
      <trkpt lat="44.11457" lon="2.67426">
        <ele>777.84</ele>
        <time>2022-07-13T09:42:40Z</time>
      </trkpt>
      <trkpt lat="44.11453" lon="2.6744">
        <ele>776.88</ele>
        <time>2022-07-13T09:42:47Z</time>
      </trkpt>
      <trkpt lat="44.11448" lon="2.67455">
        <ele>775.44</ele>
        <time>2022-07-13T09:42:55Z</time>
      </trkpt>
      <trkpt lat="44.1144" lon="2.67476">
        <ele>772.08</ele>
        <time>2022-07-13T09:43:17Z</time>
      </trkpt>
      <trkpt lat="44.11433" lon="2.6749">
        <ele>772.08</ele>
        <time>2022-07-13T09:43:20Z</time>
      </trkpt>
      <trkpt lat="44.11426" lon="2.67503">
        <ele>772.56</ele>
        <time>2022-07-13T09:43:22Z</time>
      </trkpt>
      <trkpt lat="44.11418" lon="2.67515">
        <ele>773.04</ele>
        <time>2022-07-13T09:43:24Z</time>
      </trkpt>
      <trkpt lat="44.11411" lon="2.67528">
        <ele>774</ele>
        <time>2022-07-13T09:43:26Z</time>
      </trkpt>
      <trkpt lat="44.11404" lon="2.67542">
        <ele>774.48</ele>
        <time>2022-07-13T09:43:28Z</time>
      </trkpt>
      <trkpt lat="44.11398" lon="2.67555">
        <ele>774.96</ele>
        <time>2022-07-13T09:43:30Z</time>
      </trkpt>
      <trkpt lat="44.11393" lon="2.67569">
        <ele>774.96</ele>
        <time>2022-07-13T09:43:32Z</time>
      </trkpt>
      <trkpt lat="44.11389" lon="2.67582">
        <ele>775.44</ele>
        <time>2022-07-13T09:43:34Z</time>
      </trkpt>
      <trkpt lat="44.11386" lon="2.67596">
        <ele>775.92</ele>
        <time>2022-07-13T09:43:36Z</time>
      </trkpt>
      <trkpt lat="44.11384" lon="2.6761">
        <ele>775.92</ele>
        <time>2022-07-13T09:43:38Z</time>
      </trkpt>
      <trkpt lat="44.11383" lon="2.67625">
        <ele>776.4</ele>
        <time>2022-07-13T09:43:40Z</time>
      </trkpt>
      <trkpt lat="44.11384" lon="2.67641">
        <ele>776.88</ele>
        <time>2022-07-13T09:43:42Z</time>
      </trkpt>
      <trkpt lat="44.11385" lon="2.67656">
        <ele>777.36</ele>
        <time>2022-07-13T09:43:44Z</time>
      </trkpt>
      <trkpt lat="44.11385" lon="2.67671">
        <ele>777.36</ele>
        <time>2022-07-13T09:43:46Z</time>
      </trkpt>
      <trkpt lat="44.11381" lon="2.67684">
        <ele>776.88</ele>
        <time>2022-07-13T09:43:48Z</time>
      </trkpt>
      <trkpt lat="44.11376" lon="2.67697">
        <ele>776.88</ele>
        <time>2022-07-13T09:43:50Z</time>
      </trkpt>
      <trkpt lat="44.11372" lon="2.6771">
        <ele>776.4</ele>
        <time>2022-07-13T09:43:52Z</time>
      </trkpt>
      <trkpt lat="44.11367" lon="2.67725">
        <ele>776.4</ele>
        <time>2022-07-13T09:43:54Z</time>
      </trkpt>
      <trkpt lat="44.11364" lon="2.67739">
        <ele>776.4</ele>
        <time>2022-07-13T09:43:56Z</time>
      </trkpt>
      <trkpt lat="44.1136" lon="2.67754">
        <ele>775.92</ele>
        <time>2022-07-13T09:43:58Z</time>
      </trkpt>
      <trkpt lat="44.11357" lon="2.67769">
        <ele>775.92</ele>
        <time>2022-07-13T09:44:00Z</time>
      </trkpt>
      <trkpt lat="44.11354" lon="2.67784">
        <ele>775.92</ele>
        <time>2022-07-13T09:44:02Z</time>
      </trkpt>
      <trkpt lat="44.11351" lon="2.67799">
        <ele>776.4</ele>
        <time>2022-07-13T09:44:04Z</time>
      </trkpt>
      <trkpt lat="44.11348" lon="2.67814">
        <ele>776.4</ele>
        <time>2022-07-13T09:44:06Z</time>
      </trkpt>
      <trkpt lat="44.11344" lon="2.67828">
        <ele>776.88</ele>
        <time>2022-07-13T09:44:08Z</time>
      </trkpt>
      <trkpt lat="44.1134" lon="2.67845">
        <ele>777.84</ele>
        <time>2022-07-13T09:44:11Z</time>
      </trkpt>
      <trkpt lat="44.11335" lon="2.67859">
        <ele>778.32</ele>
        <time>2022-07-13T09:44:14Z</time>
      </trkpt>
      <trkpt lat="44.11329" lon="2.67871">
        <ele>780.25</ele>
        <time>2022-07-13T09:44:21Z</time>
      </trkpt>
      <trkpt lat="44.1132" lon="2.67882">
        <ele>781.21</ele>
        <time>2022-07-13T09:44:30Z</time>
      </trkpt>
      <trkpt lat="44.11309" lon="2.67893">
        <ele>780.73</ele>
        <time>2022-07-13T09:44:41Z</time>
      </trkpt>
      <trkpt lat="44.11297" lon="2.67902">
        <ele>779.29</ele>
        <time>2022-07-13T09:44:51Z</time>
      </trkpt>
      <trkpt lat="44.11285" lon="2.67915">
        <ele>776.88</ele>
        <time>2022-07-13T09:45:00Z</time>
      </trkpt>
      <trkpt lat="44.11274" lon="2.67936">
        <ele>774</ele>
        <time>2022-07-13T09:45:09Z</time>
      </trkpt>
      <trkpt lat="44.11258" lon="2.67972">
        <ele>764.87</ele>
        <time>2022-07-13T09:45:28Z</time>
      </trkpt>
      <trkpt lat="44.11248" lon="2.67999">
        <ele>762.46</ele>
        <time>2022-07-13T09:45:41Z</time>
      </trkpt>
      <trkpt lat="44.11241" lon="2.68014">
        <ele>762.46</ele>
        <time>2022-07-13T09:45:48Z</time>
      </trkpt>
      <trkpt lat="44.11236" lon="2.68028">
        <ele>761.5</ele>
        <time>2022-07-13T09:45:54Z</time>
      </trkpt>
      <trkpt lat="44.11231" lon="2.68043">
        <ele>760.54</ele>
        <time>2022-07-13T09:46:02Z</time>
      </trkpt>
      <trkpt lat="44.11226" lon="2.68061">
        <ele>759.1</ele>
        <time>2022-07-13T09:46:11Z</time>
      </trkpt>
      <trkpt lat="44.11222" lon="2.68077">
        <ele>758.62</ele>
        <time>2022-07-13T09:46:20Z</time>
      </trkpt>
      <trkpt lat="44.11216" lon="2.68097">
        <ele>757.66</ele>
        <time>2022-07-13T09:46:29Z</time>
      </trkpt>
      <trkpt lat="44.11212" lon="2.68111">
        <ele>757.18</ele>
        <time>2022-07-13T09:46:36Z</time>
      </trkpt>
      <trkpt lat="44.11209" lon="2.68127">
        <ele>756.69</ele>
        <time>2022-07-13T09:46:44Z</time>
      </trkpt>
      <trkpt lat="44.11203" lon="2.68141">
        <ele>756.69</ele>
        <time>2022-07-13T09:46:51Z</time>
      </trkpt>
      <trkpt lat="44.11199" lon="2.68155">
        <ele>756.21</ele>
        <time>2022-07-13T09:46:58Z</time>
      </trkpt>
      <trkpt lat="44.11195" lon="2.68171">
        <ele>755.25</ele>
        <time>2022-07-13T09:47:06Z</time>
      </trkpt>
      <trkpt lat="44.11193" lon="2.68188">
        <ele>754.29</ele>
        <time>2022-07-13T09:47:14Z</time>
      </trkpt>
      <trkpt lat="44.11176" lon="2.68266">
        <ele>754.77</ele>
        <time>2022-07-13T09:47:55Z</time>
      </trkpt>
      <trkpt lat="44.11152" lon="2.68247">
        <ele>766.79</ele>
        <time>2022-07-13T09:59:08Z</time>
        <extensions>
          <visugpx:TrkExtension xmlns:visugpx="https://www.visugpx.com/editgpx/">
            <visugpx:node>1</visugpx:node>
            </visugpx:TrkExtension>
        </extensions>
      </trkpt>
      <trkpt lat="44.11146" lon="2.68243">
        <ele>766.4</ele>
      </trkpt>
      <trkpt lat="44.11085" lon="2.68219">
        <ele>769.7</ele>
      </trkpt>
      <trkpt lat="44.11064" lon="2.68217">
        <ele>768.9</ele>
      </trkpt>
      <trkpt lat="44.11056" lon="2.6824">
        <ele>769.6</ele>
      </trkpt>
      <trkpt lat="44.11041" lon="2.6824">
        <ele>768.4</ele>
      </trkpt>
      <trkpt lat="44.11004" lon="2.68227">
        <ele>762.9</ele>
      </trkpt>
      <trkpt lat="44.10949" lon="2.68223">
        <ele>757.5</ele>
      </trkpt>
      <trkpt lat="44.10917" lon="2.68213">
        <ele>754.7</ele>
      </trkpt>
      <trkpt lat="44.1086" lon="2.68184">
        <ele>753.3</ele>
      </trkpt>
      <trkpt lat="44.10823" lon="2.68183">
        <ele>753.7</ele>
      </trkpt>
      <trkpt lat="44.1077" lon="2.68165">
        <ele>752.4</ele>
      </trkpt>
      <trkpt lat="44.10703" lon="2.68122">
        <ele>744.2</ele>
      </trkpt>
      <trkpt lat="44.1067" lon="2.68115">
        <ele>739.5</ele>
      </trkpt>
      <trkpt lat="44.10654" lon="2.68108">
        <ele>737.6</ele>
      </trkpt>
      <trkpt lat="44.10632" lon="2.68094">
        <ele>735.8</ele>
      </trkpt>
      <trkpt lat="44.10607" lon="2.68086">
        <ele>736.4</ele>
      </trkpt>
      <trkpt lat="44.10576" lon="2.68134">
        <ele>735.6</ele>
      </trkpt>
      <trkpt lat="44.10516" lon="2.68215">
        <ele>740.3</ele>
      </trkpt>
      <trkpt lat="44.10511" lon="2.68248">
        <ele>736.7</ele>
      </trkpt>
      <trkpt lat="44.10485" lon="2.68317">
        <ele>730.4</ele>
      </trkpt>
      <trkpt lat="44.10469" lon="2.68362">
        <ele>731</ele>
      </trkpt>
      <trkpt lat="44.10439" lon="2.68381">
        <ele>732.4</ele>
      </trkpt>
      <trkpt lat="44.10436" lon="2.68408">
        <ele>734.3</ele>
      </trkpt>
      <trkpt lat="44.10449" lon="2.68442">
        <ele>735</ele>
        <extensions>
          <visugpx:TrkExtension xmlns:visugpx="https://www.visugpx.com/editgpx/">
            <visugpx:node>2</visugpx:node>
            </visugpx:TrkExtension>
        </extensions>
      </trkpt>
      <trkpt lat="44.10458" lon="2.68566">
        <ele>735.5</ele>
      </trkpt>
      <trkpt lat="44.10449" lon="2.68682">
        <ele>736.5</ele>
      </trkpt>
      <trkpt lat="44.10394" lon="2.68822">
        <ele>735.1</ele>
      </trkpt>
      <trkpt lat="44.10284" lon="2.68908">
        <ele>741.2</ele>
      </trkpt>
      <trkpt lat="44.10173" lon="2.69">
        <ele>741.1</ele>
      </trkpt>
      <trkpt lat="44.10022" lon="2.6915">
        <ele>736.3</ele>
      </trkpt>
      <trkpt lat="44.09945" lon="2.69228">
        <ele>736.8</ele>
      </trkpt>
      <trkpt lat="44.09959" lon="2.69258">
        <ele>734.9</ele>
      </trkpt>
    </trkseg>
  </trk>
</gpx>